<?xml version="1.0" encoding="UTF-8" standalone="no" ?>
<gpx xmlns="http://www.topografix.com/GPX/1/1" xmlns:xsi="http://www.w3.org/2001/XMLSchema-instance" xsi:schemaLocation="http://www.topografix.com/GPX/1/1 http://www.topografix.com/GPX/1/1/gpx.xsd" version="1.1" creator="VisuGPX - https://www.visugpx.com">
  <metadata>
    <name>Lannion-Prat-Bégard-Plouaret-Lannion (55 kms)</name>
    <desc><![CDATA[Circuit campagnard 
Pas de grosse difficultés
]]></desc>
  </metadata>
  <trk>
    <name><![CDATA[Lannion-Prat-Bégard-Plouaret-Lannion (55 kms)_1]]></name>
    <trkseg>
      <trkpt lat="48.74691" lon="-3.45504">
        <ele>15.5</ele>
        <time>2013-04-20T07:39:22Z</time>
      </trkpt>
      <trkpt lat="48.74695" lon="-3.455">
        <ele>15.5</ele>
        <time>2013-04-20T07:39:40Z</time>
      </trkpt>
      <trkpt lat="48.74694" lon="-3.45503">
        <ele>15.5</ele>
        <time>2013-04-20T07:39:51Z</time>
      </trkpt>
      <trkpt lat="48.74694" lon="-3.45506">
        <ele>15.5</ele>
        <time>2013-04-20T07:39:52Z</time>
      </trkpt>
      <trkpt lat="48.74691" lon="-3.45522">
        <ele>15.5</ele>
        <time>2013-04-20T07:39:56Z</time>
      </trkpt>
      <trkpt lat="48.74687" lon="-3.45522">
        <ele>15</ele>
        <time>2013-04-20T07:39:57Z</time>
      </trkpt>
      <trkpt lat="48.74682" lon="-3.4552">
        <ele>15</ele>
        <time>2013-04-20T07:39:58Z</time>
      </trkpt>
      <trkpt lat="48.74677" lon="-3.45517">
        <ele>15</ele>
        <time>2013-04-20T07:39:59Z</time>
      </trkpt>
      <trkpt lat="48.74639" lon="-3.45477">
        <ele>13.1</ele>
        <time>2013-04-20T07:40:07Z</time>
      </trkpt>
      <trkpt lat="48.74634" lon="-3.45474">
        <ele>12.6</ele>
        <time>2013-04-20T07:40:08Z</time>
      </trkpt>
      <trkpt lat="48.74628" lon="-3.45475">
        <ele>12.2</ele>
        <time>2013-04-20T07:40:09Z</time>
      </trkpt>
      <trkpt lat="48.74624" lon="-3.45479">
        <ele>11.2</ele>
        <time>2013-04-20T07:40:10Z</time>
      </trkpt>
      <trkpt lat="48.74619" lon="-3.45486">
        <ele>10.7</ele>
        <time>2013-04-20T07:40:11Z</time>
      </trkpt>
      <trkpt lat="48.74608" lon="-3.45506">
        <ele>7.4</ele>
        <time>2013-04-20T07:40:14Z</time>
      </trkpt>
      <trkpt lat="48.74595" lon="-3.45523">
        <ele>6.9</ele>
        <time>2013-04-20T07:40:21Z</time>
      </trkpt>
      <trkpt lat="48.74592" lon="-3.45524">
        <ele>6.4</ele>
        <time>2013-04-20T07:40:23Z</time>
      </trkpt>
      <trkpt lat="48.7459" lon="-3.45523">
        <ele>6.4</ele>
        <time>2013-04-20T07:40:24Z</time>
      </trkpt>
      <trkpt lat="48.74588" lon="-3.45521">
        <ele>6.4</ele>
        <time>2013-04-20T07:40:25Z</time>
      </trkpt>
      <trkpt lat="48.74585" lon="-3.45518">
        <ele>6.4</ele>
        <time>2013-04-20T07:40:26Z</time>
      </trkpt>
      <trkpt lat="48.74582" lon="-3.45515">
        <ele>6.4</ele>
        <time>2013-04-20T07:40:27Z</time>
      </trkpt>
      <trkpt lat="48.74579" lon="-3.45511">
        <ele>5.9</ele>
        <time>2013-04-20T07:40:28Z</time>
      </trkpt>
      <trkpt lat="48.74576" lon="-3.45506">
        <ele>5.9</ele>
        <time>2013-04-20T07:40:29Z</time>
      </trkpt>
      <trkpt lat="48.74573" lon="-3.45501">
        <ele>5.9</ele>
        <time>2013-04-20T07:40:30Z</time>
      </trkpt>
      <trkpt lat="48.74539" lon="-3.45428">
        <ele>2.5</ele>
        <time>2013-04-20T07:40:38Z</time>
      </trkpt>
      <trkpt lat="48.74533" lon="-3.45418">
        <ele>2.1</ele>
        <time>2013-04-20T07:40:39Z</time>
      </trkpt>
      <trkpt lat="48.74509" lon="-3.45378">
        <ele>6.9</ele>
        <time>2013-04-20T07:40:44Z</time>
      </trkpt>
      <trkpt lat="48.74495" lon="-3.4536">
        <ele>7.8</ele>
        <time>2013-04-20T07:40:48Z</time>
      </trkpt>
      <trkpt lat="48.74492" lon="-3.45356">
        <ele>9.8</ele>
        <time>2013-04-20T07:40:49Z</time>
      </trkpt>
      <trkpt lat="48.74456" lon="-3.45309">
        <ele>13.1</ele>
        <time>2013-04-20T07:41:01Z</time>
      </trkpt>
      <trkpt lat="48.74449" lon="-3.45302">
        <ele>17</ele>
        <time>2013-04-20T07:41:03Z</time>
      </trkpt>
      <trkpt lat="48.74443" lon="-3.45294">
        <ele>20.8</ele>
        <time>2013-04-20T07:41:05Z</time>
      </trkpt>
      <trkpt lat="48.74436" lon="-3.45288">
        <ele>24.7</ele>
        <time>2013-04-20T07:41:07Z</time>
      </trkpt>
      <trkpt lat="48.74429" lon="-3.45281">
        <ele>28</ele>
        <time>2013-04-20T07:41:09Z</time>
      </trkpt>
      <trkpt lat="48.7442" lon="-3.4527">
        <ele>32.3</ele>
        <time>2013-04-20T07:41:12Z</time>
      </trkpt>
      <trkpt lat="48.74383" lon="-3.45236">
        <ele>35.2</ele>
        <time>2013-04-20T07:41:23Z</time>
      </trkpt>
      <trkpt lat="48.74358" lon="-3.45227">
        <ele>38.6</ele>
        <time>2013-04-20T07:41:34Z</time>
      </trkpt>
      <trkpt lat="48.74358" lon="-3.45227">
        <ele>41.5</ele>
        <time>2013-04-20T07:41:37Z</time>
      </trkpt>
      <trkpt lat="48.74357" lon="-3.45227">
        <ele>43.9</ele>
        <time>2013-04-20T07:41:39Z</time>
      </trkpt>
      <trkpt lat="48.74356" lon="-3.45227">
        <ele>46.8</ele>
        <time>2013-04-20T07:41:43Z</time>
      </trkpt>
      <trkpt lat="48.74356" lon="-3.45229">
        <ele>50.1</ele>
        <time>2013-04-20T07:41:48Z</time>
      </trkpt>
      <trkpt lat="48.74354" lon="-3.45228">
        <ele>54.5</ele>
        <time>2013-04-20T07:41:55Z</time>
      </trkpt>
      <trkpt lat="48.74354" lon="-3.45228">
        <ele>55.4</ele>
        <time>2013-04-20T07:42:00Z</time>
      </trkpt>
      <trkpt lat="48.74355" lon="-3.45227">
        <ele>58.3</ele>
        <time>2013-04-20T07:42:13Z</time>
      </trkpt>
      <trkpt lat="48.74355" lon="-3.45225">
        <ele>61.7</ele>
        <time>2013-04-20T07:42:28Z</time>
      </trkpt>
      <trkpt lat="48.74356" lon="-3.45224">
        <ele>62.6</ele>
        <time>2013-04-20T07:42:42Z</time>
      </trkpt>
      <trkpt lat="48.74356" lon="-3.45223">
        <ele>62.6</ele>
        <time>2013-04-20T07:42:54Z</time>
      </trkpt>
      <trkpt lat="48.74353" lon="-3.45222">
        <ele>62.6</ele>
        <time>2013-04-20T07:42:55Z</time>
      </trkpt>
      <trkpt lat="48.74356" lon="-3.45228">
        <ele>62.1</ele>
        <time>2013-04-20T07:43:13Z</time>
      </trkpt>
      <trkpt lat="48.74344" lon="-3.45223">
        <ele>62.1</ele>
        <time>2013-04-20T07:43:18Z</time>
      </trkpt>
      <trkpt lat="48.7434" lon="-3.45219">
        <ele>62.1</ele>
        <time>2013-04-20T07:43:19Z</time>
      </trkpt>
      <trkpt lat="48.74298" lon="-3.45171">
        <ele>60.2</ele>
        <time>2013-04-20T07:43:28Z</time>
      </trkpt>
      <trkpt lat="48.74277" lon="-3.45135">
        <ele>58.8</ele>
        <time>2013-04-20T07:43:32Z</time>
      </trkpt>
      <trkpt lat="48.74273" lon="-3.45124">
        <ele>58.8</ele>
        <time>2013-04-20T07:43:33Z</time>
      </trkpt>
      <trkpt lat="48.7427" lon="-3.45113">
        <ele>57.8</ele>
        <time>2013-04-20T07:43:34Z</time>
      </trkpt>
      <trkpt lat="48.74267" lon="-3.45101">
        <ele>57.3</ele>
        <time>2013-04-20T07:43:35Z</time>
      </trkpt>
      <trkpt lat="48.74265" lon="-3.45089">
        <ele>56.4</ele>
        <time>2013-04-20T07:43:36Z</time>
      </trkpt>
      <trkpt lat="48.74263" lon="-3.45076">
        <ele>55.9</ele>
        <time>2013-04-20T07:43:37Z</time>
      </trkpt>
      <trkpt lat="48.74262" lon="-3.45062">
        <ele>55.4</ele>
        <time>2013-04-20T07:43:38Z</time>
      </trkpt>
      <trkpt lat="48.74262" lon="-3.45048">
        <ele>55.4</ele>
        <time>2013-04-20T07:43:39Z</time>
      </trkpt>
      <trkpt lat="48.74262" lon="-3.45034">
        <ele>54.5</ele>
        <time>2013-04-20T07:43:40Z</time>
      </trkpt>
      <trkpt lat="48.74262" lon="-3.44976">
        <ele>53</ele>
        <time>2013-04-20T07:43:44Z</time>
      </trkpt>
      <trkpt lat="48.74264" lon="-3.44885">
        <ele>49.7</ele>
        <time>2013-04-20T07:43:50Z</time>
      </trkpt>
      <trkpt lat="48.74265" lon="-3.44807">
        <ele>47.7</ele>
        <time>2013-04-20T07:43:55Z</time>
      </trkpt>
      <trkpt lat="48.74266" lon="-3.44711">
        <ele>44.4</ele>
        <time>2013-04-20T07:44:01Z</time>
      </trkpt>
      <trkpt lat="48.74263" lon="-3.44665">
        <ele>42.9</ele>
        <time>2013-04-20T07:44:04Z</time>
      </trkpt>
      <trkpt lat="48.74253" lon="-3.44626">
        <ele>41.5</ele>
        <time>2013-04-20T07:44:07Z</time>
      </trkpt>
      <trkpt lat="48.74246" lon="-3.44616">
        <ele>41.5</ele>
        <time>2013-04-20T07:44:08Z</time>
      </trkpt>
      <trkpt lat="48.74228" lon="-3.44588">
        <ele>40</ele>
        <time>2013-04-20T07:44:11Z</time>
      </trkpt>
      <trkpt lat="48.74221" lon="-3.44581">
        <ele>39.6</ele>
        <time>2013-04-20T07:44:12Z</time>
      </trkpt>
      <trkpt lat="48.74213" lon="-3.44575">
        <ele>39.1</ele>
        <time>2013-04-20T07:44:13Z</time>
      </trkpt>
      <trkpt lat="48.74206" lon="-3.44569">
        <ele>39.1</ele>
        <time>2013-04-20T07:44:14Z</time>
      </trkpt>
      <trkpt lat="48.74197" lon="-3.44566">
        <ele>38.6</ele>
        <time>2013-04-20T07:44:15Z</time>
      </trkpt>
      <trkpt lat="48.74189" lon="-3.44563">
        <ele>38.6</ele>
        <time>2013-04-20T07:44:16Z</time>
      </trkpt>
      <trkpt lat="48.74095" lon="-3.44536">
        <ele>35.2</ele>
        <time>2013-04-20T07:44:27Z</time>
      </trkpt>
      <trkpt lat="48.73997" lon="-3.44497">
        <ele>32.3</ele>
        <time>2013-04-20T07:44:40Z</time>
      </trkpt>
      <trkpt lat="48.73991" lon="-3.44497">
        <ele>32.3</ele>
        <time>2013-04-20T07:44:41Z</time>
      </trkpt>
      <trkpt lat="48.73986" lon="-3.44498">
        <ele>31.9</ele>
        <time>2013-04-20T07:44:42Z</time>
      </trkpt>
      <trkpt lat="48.7398" lon="-3.44502">
        <ele>31.9</ele>
        <time>2013-04-20T07:44:43Z</time>
      </trkpt>
      <trkpt lat="48.73975" lon="-3.44505">
        <ele>30.9</ele>
        <time>2013-04-20T07:44:44Z</time>
      </trkpt>
      <trkpt lat="48.73969" lon="-3.44506">
        <ele>31.4</ele>
        <time>2013-04-20T07:44:45Z</time>
      </trkpt>
      <trkpt lat="48.73962" lon="-3.44506">
        <ele>30.9</ele>
        <time>2013-04-20T07:44:46Z</time>
      </trkpt>
      <trkpt lat="48.73956" lon="-3.44502">
        <ele>30.4</ele>
        <time>2013-04-20T07:44:47Z</time>
      </trkpt>
      <trkpt lat="48.7395" lon="-3.44497">
        <ele>30.4</ele>
        <time>2013-04-20T07:44:48Z</time>
      </trkpt>
      <trkpt lat="48.73945" lon="-3.44491">
        <ele>30.4</ele>
        <time>2013-04-20T07:44:49Z</time>
      </trkpt>
      <trkpt lat="48.73941" lon="-3.44484">
        <ele>32.3</ele>
        <time>2013-04-20T07:44:50Z</time>
      </trkpt>
      <trkpt lat="48.73936" lon="-3.44479">
        <ele>30.9</ele>
        <time>2013-04-20T07:44:51Z</time>
      </trkpt>
      <trkpt lat="48.73931" lon="-3.44474">
        <ele>30.9</ele>
        <time>2013-04-20T07:44:52Z</time>
      </trkpt>
      <trkpt lat="48.73925" lon="-3.44471">
        <ele>30.4</ele>
        <time>2013-04-20T07:44:53Z</time>
      </trkpt>
      <trkpt lat="48.73919" lon="-3.44468">
        <ele>29.9</ele>
        <time>2013-04-20T07:44:54Z</time>
      </trkpt>
      <trkpt lat="48.73912" lon="-3.44466">
        <ele>29.9</ele>
        <time>2013-04-20T07:44:55Z</time>
      </trkpt>
      <trkpt lat="48.73905" lon="-3.44464">
        <ele>29.9</ele>
        <time>2013-04-20T07:44:56Z</time>
      </trkpt>
      <trkpt lat="48.73848" lon="-3.44448">
        <ele>27.1</ele>
        <time>2013-04-20T07:45:04Z</time>
      </trkpt>
      <trkpt lat="48.73841" lon="-3.44448">
        <ele>26.6</ele>
        <time>2013-04-20T07:45:05Z</time>
      </trkpt>
      <trkpt lat="48.73825" lon="-3.44451">
        <ele>25.6</ele>
        <time>2013-04-20T07:45:07Z</time>
      </trkpt>
      <trkpt lat="48.73793" lon="-3.44463">
        <ele>22.7</ele>
        <time>2013-04-20T07:45:11Z</time>
      </trkpt>
      <trkpt lat="48.73785" lon="-3.44468">
        <ele>22.3</ele>
        <time>2013-04-20T07:45:12Z</time>
      </trkpt>
      <trkpt lat="48.73768" lon="-3.44481">
        <ele>21.3</ele>
        <time>2013-04-20T07:45:14Z</time>
      </trkpt>
      <trkpt lat="48.73753" lon="-3.44491">
        <ele>20.8</ele>
        <time>2013-04-20T07:45:16Z</time>
      </trkpt>
      <trkpt lat="48.73747" lon="-3.44493">
        <ele>20.3</ele>
        <time>2013-04-20T07:45:17Z</time>
      </trkpt>
      <trkpt lat="48.7374" lon="-3.44493">
        <ele>19.8</ele>
        <time>2013-04-20T07:45:18Z</time>
      </trkpt>
      <trkpt lat="48.73732" lon="-3.44491">
        <ele>19.8</ele>
        <time>2013-04-20T07:45:19Z</time>
      </trkpt>
      <trkpt lat="48.73724" lon="-3.44487">
        <ele>19.4</ele>
        <time>2013-04-20T07:45:20Z</time>
      </trkpt>
      <trkpt lat="48.73635" lon="-3.44421">
        <ele>19.4</ele>
        <time>2013-04-20T07:45:34Z</time>
      </trkpt>
      <trkpt lat="48.73626" lon="-3.44418">
        <ele>20.8</ele>
        <time>2013-04-20T07:45:36Z</time>
      </trkpt>
      <trkpt lat="48.73587" lon="-3.44406">
        <ele>23.7</ele>
        <time>2013-04-20T07:45:46Z</time>
      </trkpt>
      <trkpt lat="48.73583" lon="-3.44406">
        <ele>24.2</ele>
        <time>2013-04-20T07:45:47Z</time>
      </trkpt>
      <trkpt lat="48.73545" lon="-3.44408">
        <ele>26.1</ele>
        <time>2013-04-20T07:45:56Z</time>
      </trkpt>
      <trkpt lat="48.73541" lon="-3.44408">
        <ele>26.6</ele>
        <time>2013-04-20T07:45:57Z</time>
      </trkpt>
      <trkpt lat="48.73536" lon="-3.44409">
        <ele>26.6</ele>
        <time>2013-04-20T07:45:58Z</time>
      </trkpt>
      <trkpt lat="48.73502" lon="-3.4442">
        <ele>28.5</ele>
        <time>2013-04-20T07:46:06Z</time>
      </trkpt>
      <trkpt lat="48.73482" lon="-3.44431">
        <ele>29</ele>
        <time>2013-04-20T07:46:11Z</time>
      </trkpt>
      <trkpt lat="48.73467" lon="-3.44449">
        <ele>29.9</ele>
        <time>2013-04-20T07:46:16Z</time>
      </trkpt>
      <trkpt lat="48.73445" lon="-3.44484">
        <ele>31.4</ele>
        <time>2013-04-20T07:46:25Z</time>
      </trkpt>
      <trkpt lat="48.73441" lon="-3.44486">
        <ele>31.4</ele>
        <time>2013-04-20T07:46:26Z</time>
      </trkpt>
      <trkpt lat="48.73437" lon="-3.44487">
        <ele>31.4</ele>
        <time>2013-04-20T07:46:27Z</time>
      </trkpt>
      <trkpt lat="48.73433" lon="-3.44488">
        <ele>31.4</ele>
        <time>2013-04-20T07:46:28Z</time>
      </trkpt>
      <trkpt lat="48.73428" lon="-3.44487">
        <ele>31.9</ele>
        <time>2013-04-20T07:46:29Z</time>
      </trkpt>
      <trkpt lat="48.73424" lon="-3.44485">
        <ele>31.9</ele>
        <time>2013-04-20T07:46:30Z</time>
      </trkpt>
      <trkpt lat="48.73419" lon="-3.44482">
        <ele>31.9</ele>
        <time>2013-04-20T07:46:31Z</time>
      </trkpt>
      <trkpt lat="48.73416" lon="-3.44477">
        <ele>31.9</ele>
        <time>2013-04-20T07:46:32Z</time>
      </trkpt>
      <trkpt lat="48.73414" lon="-3.44472">
        <ele>31.9</ele>
        <time>2013-04-20T07:46:33Z</time>
      </trkpt>
      <trkpt lat="48.73412" lon="-3.44466">
        <ele>32.3</ele>
        <time>2013-04-20T07:46:34Z</time>
      </trkpt>
      <trkpt lat="48.73389" lon="-3.44337">
        <ele>31.9</ele>
        <time>2013-04-20T07:46:51Z</time>
      </trkpt>
      <trkpt lat="48.73382" lon="-3.44186">
        <ele>32.8</ele>
        <time>2013-04-20T07:47:09Z</time>
      </trkpt>
      <trkpt lat="48.73385" lon="-3.44162">
        <ele>32.8</ele>
        <time>2013-04-20T07:47:12Z</time>
      </trkpt>
      <trkpt lat="48.73386" lon="-3.44153">
        <ele>32.8</ele>
        <time>2013-04-20T07:47:13Z</time>
      </trkpt>
      <trkpt lat="48.73403" lon="-3.44052">
        <ele>35.2</ele>
        <time>2013-04-20T07:47:27Z</time>
      </trkpt>
      <trkpt lat="48.73403" lon="-3.44038">
        <ele>36.2</ele>
        <time>2013-04-20T07:47:29Z</time>
      </trkpt>
      <trkpt lat="48.73404" lon="-3.44032">
        <ele>36.2</ele>
        <time>2013-04-20T07:47:30Z</time>
      </trkpt>
      <trkpt lat="48.73407" lon="-3.44026">
        <ele>36.2</ele>
        <time>2013-04-20T07:47:31Z</time>
      </trkpt>
      <trkpt lat="48.73409" lon="-3.4402">
        <ele>36.7</ele>
        <time>2013-04-20T07:47:32Z</time>
      </trkpt>
      <trkpt lat="48.73412" lon="-3.44014">
        <ele>36.2</ele>
        <time>2013-04-20T07:47:33Z</time>
      </trkpt>
      <trkpt lat="48.73414" lon="-3.44008">
        <ele>36.7</ele>
        <time>2013-04-20T07:47:34Z</time>
      </trkpt>
      <trkpt lat="48.73416" lon="-3.44003">
        <ele>36.7</ele>
        <time>2013-04-20T07:47:35Z</time>
      </trkpt>
      <trkpt lat="48.73427" lon="-3.43914">
        <ele>40</ele>
        <time>2013-04-20T07:47:49Z</time>
      </trkpt>
      <trkpt lat="48.73428" lon="-3.439">
        <ele>40</ele>
        <time>2013-04-20T07:47:51Z</time>
      </trkpt>
      <trkpt lat="48.73428" lon="-3.43886">
        <ele>40.5</ele>
        <time>2013-04-20T07:47:53Z</time>
      </trkpt>
      <trkpt lat="48.73427" lon="-3.4388">
        <ele>40.5</ele>
        <time>2013-04-20T07:47:54Z</time>
      </trkpt>
      <trkpt lat="48.73428" lon="-3.43874">
        <ele>41</ele>
        <time>2013-04-20T07:47:55Z</time>
      </trkpt>
      <trkpt lat="48.73429" lon="-3.43868">
        <ele>41</ele>
        <time>2013-04-20T07:47:56Z</time>
      </trkpt>
      <trkpt lat="48.73432" lon="-3.43863">
        <ele>41</ele>
        <time>2013-04-20T07:47:57Z</time>
      </trkpt>
      <trkpt lat="48.73435" lon="-3.43859">
        <ele>41.5</ele>
        <time>2013-04-20T07:47:58Z</time>
      </trkpt>
      <trkpt lat="48.73439" lon="-3.43857">
        <ele>42</ele>
        <time>2013-04-20T07:47:59Z</time>
      </trkpt>
      <trkpt lat="48.73442" lon="-3.43854">
        <ele>41.5</ele>
        <time>2013-04-20T07:48:00Z</time>
      </trkpt>
      <trkpt lat="48.73454" lon="-3.43837">
        <ele>42.4</ele>
        <time>2013-04-20T07:48:04Z</time>
      </trkpt>
      <trkpt lat="48.73492" lon="-3.43749">
        <ele>44.8</ele>
        <time>2013-04-20T07:48:21Z</time>
      </trkpt>
      <trkpt lat="48.73495" lon="-3.43718">
        <ele>45.3</ele>
        <time>2013-04-20T07:48:29Z</time>
      </trkpt>
      <trkpt lat="48.73492" lon="-3.43699">
        <ele>45.8</ele>
        <time>2013-04-20T07:48:32Z</time>
      </trkpt>
      <trkpt lat="48.73492" lon="-3.43692">
        <ele>45.8</ele>
        <time>2013-04-20T07:48:33Z</time>
      </trkpt>
      <trkpt lat="48.73493" lon="-3.43685">
        <ele>45.8</ele>
        <time>2013-04-20T07:48:34Z</time>
      </trkpt>
      <trkpt lat="48.73494" lon="-3.43678">
        <ele>45.8</ele>
        <time>2013-04-20T07:48:35Z</time>
      </trkpt>
      <trkpt lat="48.73496" lon="-3.43671">
        <ele>45.8</ele>
        <time>2013-04-20T07:48:36Z</time>
      </trkpt>
      <trkpt lat="48.73498" lon="-3.43664">
        <ele>45.8</ele>
        <time>2013-04-20T07:48:37Z</time>
      </trkpt>
      <trkpt lat="48.735" lon="-3.43658">
        <ele>45.8</ele>
        <time>2013-04-20T07:48:38Z</time>
      </trkpt>
      <trkpt lat="48.73505" lon="-3.43639">
        <ele>46.3</ele>
        <time>2013-04-20T07:48:41Z</time>
      </trkpt>
      <trkpt lat="48.73505" lon="-3.43633">
        <ele>46.3</ele>
        <time>2013-04-20T07:48:42Z</time>
      </trkpt>
      <trkpt lat="48.73502" lon="-3.43627">
        <ele>46.3</ele>
        <time>2013-04-20T07:48:43Z</time>
      </trkpt>
      <trkpt lat="48.73499" lon="-3.43623">
        <ele>46.3</ele>
        <time>2013-04-20T07:48:44Z</time>
      </trkpt>
      <trkpt lat="48.73494" lon="-3.4362">
        <ele>46.3</ele>
        <time>2013-04-20T07:48:45Z</time>
      </trkpt>
      <trkpt lat="48.7349" lon="-3.43618">
        <ele>46.3</ele>
        <time>2013-04-20T07:48:46Z</time>
      </trkpt>
      <trkpt lat="48.73485" lon="-3.43618">
        <ele>46.8</ele>
        <time>2013-04-20T07:48:47Z</time>
      </trkpt>
      <trkpt lat="48.7347" lon="-3.43614">
        <ele>47.2</ele>
        <time>2013-04-20T07:48:50Z</time>
      </trkpt>
      <trkpt lat="48.73466" lon="-3.43612">
        <ele>48.2</ele>
        <time>2013-04-20T07:48:51Z</time>
      </trkpt>
      <trkpt lat="48.73462" lon="-3.43609">
        <ele>47.7</ele>
        <time>2013-04-20T07:48:52Z</time>
      </trkpt>
      <trkpt lat="48.73458" lon="-3.43605">
        <ele>47.7</ele>
        <time>2013-04-20T07:48:53Z</time>
      </trkpt>
      <trkpt lat="48.73455" lon="-3.43601">
        <ele>47.7</ele>
        <time>2013-04-20T07:48:54Z</time>
      </trkpt>
      <trkpt lat="48.73422" lon="-3.43543">
        <ele>49.7</ele>
        <time>2013-04-20T07:49:05Z</time>
      </trkpt>
      <trkpt lat="48.7342" lon="-3.43537">
        <ele>50.1</ele>
        <time>2013-04-20T07:49:06Z</time>
      </trkpt>
      <trkpt lat="48.73419" lon="-3.4353">
        <ele>50.1</ele>
        <time>2013-04-20T07:49:07Z</time>
      </trkpt>
      <trkpt lat="48.73404" lon="-3.43398">
        <ele>52.5</ele>
        <time>2013-04-20T07:49:25Z</time>
      </trkpt>
      <trkpt lat="48.73395" lon="-3.4333">
        <ele>54</ele>
        <time>2013-04-20T07:49:35Z</time>
      </trkpt>
      <trkpt lat="48.73393" lon="-3.43324">
        <ele>54.5</ele>
        <time>2013-04-20T07:49:36Z</time>
      </trkpt>
      <trkpt lat="48.73391" lon="-3.43318">
        <ele>54.5</ele>
        <time>2013-04-20T07:49:37Z</time>
      </trkpt>
      <trkpt lat="48.7339" lon="-3.43312">
        <ele>54.9</ele>
        <time>2013-04-20T07:49:38Z</time>
      </trkpt>
      <trkpt lat="48.73389" lon="-3.43306">
        <ele>54.9</ele>
        <time>2013-04-20T07:49:39Z</time>
      </trkpt>
      <trkpt lat="48.73389" lon="-3.433">
        <ele>55.4</ele>
        <time>2013-04-20T07:49:40Z</time>
      </trkpt>
      <trkpt lat="48.7339" lon="-3.43294">
        <ele>55.9</ele>
        <time>2013-04-20T07:49:41Z</time>
      </trkpt>
      <trkpt lat="48.7339" lon="-3.43288">
        <ele>55.9</ele>
        <time>2013-04-20T07:49:42Z</time>
      </trkpt>
      <trkpt lat="48.7339" lon="-3.43282">
        <ele>56.4</ele>
        <time>2013-04-20T07:49:43Z</time>
      </trkpt>
      <trkpt lat="48.73389" lon="-3.43275">
        <ele>56.4</ele>
        <time>2013-04-20T07:49:44Z</time>
      </trkpt>
      <trkpt lat="48.73385" lon="-3.43234">
        <ele>57.8</ele>
        <time>2013-04-20T07:49:50Z</time>
      </trkpt>
      <trkpt lat="48.73384" lon="-3.43155">
        <ele>60.7</ele>
        <time>2013-04-20T07:50:02Z</time>
      </trkpt>
      <trkpt lat="48.73385" lon="-3.43017">
        <ele>62.6</ele>
        <time>2013-04-20T07:50:21Z</time>
      </trkpt>
      <trkpt lat="48.73369" lon="-3.42889">
        <ele>63.1</ele>
        <time>2013-04-20T07:50:39Z</time>
      </trkpt>
      <trkpt lat="48.73358" lon="-3.42733">
        <ele>60.7</ele>
        <time>2013-04-20T07:50:56Z</time>
      </trkpt>
      <trkpt lat="48.73342" lon="-3.42588">
        <ele>61.2</ele>
        <time>2013-04-20T07:51:13Z</time>
      </trkpt>
      <trkpt lat="48.73335" lon="-3.42438">
        <ele>63.6</ele>
        <time>2013-04-20T07:51:32Z</time>
      </trkpt>
      <trkpt lat="48.73325" lon="-3.42284">
        <ele>63.1</ele>
        <time>2013-04-20T07:51:50Z</time>
      </trkpt>
      <trkpt lat="48.73337" lon="-3.42157">
        <ele>61.7</ele>
        <time>2013-04-20T07:52:02Z</time>
      </trkpt>
      <trkpt lat="48.73354" lon="-3.42067">
        <ele>60.7</ele>
        <time>2013-04-20T07:52:10Z</time>
      </trkpt>
      <trkpt lat="48.73354" lon="-3.42056">
        <ele>60.2</ele>
        <time>2013-04-20T07:52:11Z</time>
      </trkpt>
      <trkpt lat="48.73355" lon="-3.42044">
        <ele>59.7</ele>
        <time>2013-04-20T07:52:12Z</time>
      </trkpt>
      <trkpt lat="48.73354" lon="-3.42032">
        <ele>59.3</ele>
        <time>2013-04-20T07:52:13Z</time>
      </trkpt>
      <trkpt lat="48.73353" lon="-3.42021">
        <ele>59.3</ele>
        <time>2013-04-20T07:52:14Z</time>
      </trkpt>
      <trkpt lat="48.7335" lon="-3.42009">
        <ele>59.3</ele>
        <time>2013-04-20T07:52:15Z</time>
      </trkpt>
      <trkpt lat="48.73347" lon="-3.41999">
        <ele>59.3</ele>
        <time>2013-04-20T07:52:16Z</time>
      </trkpt>
      <trkpt lat="48.73343" lon="-3.41989">
        <ele>59.3</ele>
        <time>2013-04-20T07:52:17Z</time>
      </trkpt>
      <trkpt lat="48.73339" lon="-3.4198">
        <ele>59.7</ele>
        <time>2013-04-20T07:52:18Z</time>
      </trkpt>
      <trkpt lat="48.73326" lon="-3.41962">
        <ele>60.7</ele>
        <time>2013-04-20T07:52:21Z</time>
      </trkpt>
      <trkpt lat="48.73322" lon="-3.41958">
        <ele>61.2</ele>
        <time>2013-04-20T07:52:22Z</time>
      </trkpt>
      <trkpt lat="48.73318" lon="-3.41955">
        <ele>61.2</ele>
        <time>2013-04-20T07:52:23Z</time>
      </trkpt>
      <trkpt lat="48.73314" lon="-3.41952">
        <ele>61.7</ele>
        <time>2013-04-20T07:52:24Z</time>
      </trkpt>
      <trkpt lat="48.7331" lon="-3.41948">
        <ele>61.7</ele>
        <time>2013-04-20T07:52:25Z</time>
      </trkpt>
      <trkpt lat="48.73293" lon="-3.41929">
        <ele>63.1</ele>
        <time>2013-04-20T07:52:30Z</time>
      </trkpt>
      <trkpt lat="48.73291" lon="-3.41925">
        <ele>63.6</ele>
        <time>2013-04-20T07:52:31Z</time>
      </trkpt>
      <trkpt lat="48.73288" lon="-3.41921">
        <ele>64.1</ele>
        <time>2013-04-20T07:52:32Z</time>
      </trkpt>
      <trkpt lat="48.73285" lon="-3.41916">
        <ele>64.1</ele>
        <time>2013-04-20T07:52:33Z</time>
      </trkpt>
      <trkpt lat="48.73264" lon="-3.41887">
        <ele>65.5</ele>
        <time>2013-04-20T07:52:39Z</time>
      </trkpt>
      <trkpt lat="48.73252" lon="-3.41857">
        <ele>67</ele>
        <time>2013-04-20T07:52:44Z</time>
      </trkpt>
      <trkpt lat="48.73223" lon="-3.41714">
        <ele>69.4</ele>
        <time>2013-04-20T07:53:03Z</time>
      </trkpt>
      <trkpt lat="48.73204" lon="-3.41587">
        <ele>70.8</ele>
        <time>2013-04-20T07:53:20Z</time>
      </trkpt>
      <trkpt lat="48.73209" lon="-3.41495">
        <ele>74.2</ele>
        <time>2013-04-20T07:53:33Z</time>
      </trkpt>
      <trkpt lat="48.73211" lon="-3.41352">
        <ele>74.6</ele>
        <time>2013-04-20T07:53:51Z</time>
      </trkpt>
      <trkpt lat="48.7321" lon="-3.41322">
        <ele>73.2</ele>
        <time>2013-04-20T07:53:59Z</time>
      </trkpt>
      <trkpt lat="48.73211" lon="-3.4132">
        <ele>74.2</ele>
        <time>2013-04-20T07:54:07Z</time>
      </trkpt>
      <trkpt lat="48.73211" lon="-3.41317">
        <ele>73.7</ele>
        <time>2013-04-20T07:54:08Z</time>
      </trkpt>
      <trkpt lat="48.73211" lon="-3.41314">
        <ele>73.7</ele>
        <time>2013-04-20T07:54:09Z</time>
      </trkpt>
      <trkpt lat="48.73205" lon="-3.41239">
        <ele>74.6</ele>
        <time>2013-04-20T07:54:21Z</time>
      </trkpt>
      <trkpt lat="48.73191" lon="-3.41091">
        <ele>77.5</ele>
        <time>2013-04-20T07:54:41Z</time>
      </trkpt>
      <trkpt lat="48.73169" lon="-3.40969">
        <ele>78</ele>
        <time>2013-04-20T07:54:57Z</time>
      </trkpt>
      <trkpt lat="48.7314" lon="-3.40847">
        <ele>77</ele>
        <time>2013-04-20T07:55:12Z</time>
      </trkpt>
      <trkpt lat="48.73101" lon="-3.40689">
        <ele>78.5</ele>
        <time>2013-04-20T07:55:32Z</time>
      </trkpt>
      <trkpt lat="48.73056" lon="-3.40583">
        <ele>81.4</ele>
        <time>2013-04-20T07:55:48Z</time>
      </trkpt>
      <trkpt lat="48.73048" lon="-3.40455">
        <ele>81.4</ele>
        <time>2013-04-20T07:56:04Z</time>
      </trkpt>
      <trkpt lat="48.73044" lon="-3.40431">
        <ele>81.9</ele>
        <time>2013-04-20T07:56:07Z</time>
      </trkpt>
      <trkpt lat="48.73013" lon="-3.40307">
        <ele>80.9</ele>
        <time>2013-04-20T07:56:22Z</time>
      </trkpt>
      <trkpt lat="48.72993" lon="-3.4017">
        <ele>81.4</ele>
        <time>2013-04-20T07:56:37Z</time>
      </trkpt>
      <trkpt lat="48.72981" lon="-3.40128">
        <ele>82.3</ele>
        <time>2013-04-20T07:56:43Z</time>
      </trkpt>
      <trkpt lat="48.7296" lon="-3.39989">
        <ele>84.3</ele>
        <time>2013-04-20T07:57:00Z</time>
      </trkpt>
      <trkpt lat="48.72908" lon="-3.39839">
        <ele>84.7</ele>
        <time>2013-04-20T07:57:20Z</time>
      </trkpt>
      <trkpt lat="48.72847" lon="-3.39718">
        <ele>85.7</ele>
        <time>2013-04-20T07:57:38Z</time>
      </trkpt>
      <trkpt lat="48.72823" lon="-3.39586">
        <ele>86.7</ele>
        <time>2013-04-20T07:57:54Z</time>
      </trkpt>
      <trkpt lat="48.72833" lon="-3.39421">
        <ele>85.7</ele>
        <time>2013-04-20T07:58:11Z</time>
      </trkpt>
      <trkpt lat="48.72835" lon="-3.39242">
        <ele>85.7</ele>
        <time>2013-04-20T07:58:30Z</time>
      </trkpt>
      <trkpt lat="48.72848" lon="-3.39074">
        <ele>84.7</ele>
        <time>2013-04-20T07:58:48Z</time>
      </trkpt>
      <trkpt lat="48.72872" lon="-3.38878">
        <ele>81.9</ele>
        <time>2013-04-20T07:59:08Z</time>
      </trkpt>
      <trkpt lat="48.7291" lon="-3.38741">
        <ele>80.9</ele>
        <time>2013-04-20T07:59:23Z</time>
      </trkpt>
      <trkpt lat="48.72917" lon="-3.38715">
        <ele>80.4</ele>
        <time>2013-04-20T07:59:26Z</time>
      </trkpt>
      <trkpt lat="48.72919" lon="-3.38705">
        <ele>80.4</ele>
        <time>2013-04-20T07:59:27Z</time>
      </trkpt>
      <trkpt lat="48.7292" lon="-3.38696">
        <ele>80.4</ele>
        <time>2013-04-20T07:59:28Z</time>
      </trkpt>
      <trkpt lat="48.7292" lon="-3.38686">
        <ele>80.4</ele>
        <time>2013-04-20T07:59:29Z</time>
      </trkpt>
      <trkpt lat="48.72921" lon="-3.38676">
        <ele>80.9</ele>
        <time>2013-04-20T07:59:30Z</time>
      </trkpt>
      <trkpt lat="48.7292" lon="-3.38667">
        <ele>80.9</ele>
        <time>2013-04-20T07:59:31Z</time>
      </trkpt>
      <trkpt lat="48.72918" lon="-3.38612">
        <ele>81.9</ele>
        <time>2013-04-20T07:59:37Z</time>
      </trkpt>
      <trkpt lat="48.72918" lon="-3.38595">
        <ele>81.9</ele>
        <time>2013-04-20T07:59:39Z</time>
      </trkpt>
      <trkpt lat="48.72917" lon="-3.38587">
        <ele>81.9</ele>
        <time>2013-04-20T07:59:40Z</time>
      </trkpt>
      <trkpt lat="48.72916" lon="-3.38578">
        <ele>81.9</ele>
        <time>2013-04-20T07:59:41Z</time>
      </trkpt>
      <trkpt lat="48.72913" lon="-3.38571">
        <ele>82.3</ele>
        <time>2013-04-20T07:59:42Z</time>
      </trkpt>
      <trkpt lat="48.72909" lon="-3.38564">
        <ele>82.3</ele>
        <time>2013-04-20T07:59:43Z</time>
      </trkpt>
      <trkpt lat="48.72906" lon="-3.38559">
        <ele>82.3</ele>
        <time>2013-04-20T07:59:44Z</time>
      </trkpt>
      <trkpt lat="48.72901" lon="-3.38555">
        <ele>81.9</ele>
        <time>2013-04-20T07:59:45Z</time>
      </trkpt>
      <trkpt lat="48.72897" lon="-3.38552">
        <ele>82.3</ele>
        <time>2013-04-20T07:59:46Z</time>
      </trkpt>
      <trkpt lat="48.72894" lon="-3.38551">
        <ele>82.3</ele>
        <time>2013-04-20T07:59:47Z</time>
      </trkpt>
      <trkpt lat="48.72889" lon="-3.38551">
        <ele>82.3</ele>
        <time>2013-04-20T07:59:48Z</time>
      </trkpt>
      <trkpt lat="48.72883" lon="-3.38555">
        <ele>82.8</ele>
        <time>2013-04-20T07:59:49Z</time>
      </trkpt>
      <trkpt lat="48.72832" lon="-3.38577">
        <ele>82.8</ele>
        <time>2013-04-20T07:59:57Z</time>
      </trkpt>
      <trkpt lat="48.72825" lon="-3.38578">
        <ele>82.8</ele>
        <time>2013-04-20T07:59:58Z</time>
      </trkpt>
      <trkpt lat="48.72819" lon="-3.38577">
        <ele>82.8</ele>
        <time>2013-04-20T07:59:59Z</time>
      </trkpt>
      <trkpt lat="48.72813" lon="-3.38576">
        <ele>83.3</ele>
        <time>2013-04-20T08:00:00Z</time>
      </trkpt>
      <trkpt lat="48.72807" lon="-3.38572">
        <ele>83.3</ele>
        <time>2013-04-20T08:00:01Z</time>
      </trkpt>
      <trkpt lat="48.72802" lon="-3.38568">
        <ele>83.3</ele>
        <time>2013-04-20T08:00:02Z</time>
      </trkpt>
      <trkpt lat="48.72797" lon="-3.38563">
        <ele>84.3</ele>
        <time>2013-04-20T08:00:03Z</time>
      </trkpt>
      <trkpt lat="48.72792" lon="-3.38559">
        <ele>84.3</ele>
        <time>2013-04-20T08:00:04Z</time>
      </trkpt>
      <trkpt lat="48.72737" lon="-3.38495">
        <ele>86.2</ele>
        <time>2013-04-20T08:00:16Z</time>
      </trkpt>
      <trkpt lat="48.72685" lon="-3.38438">
        <ele>84.3</ele>
        <time>2013-04-20T08:00:26Z</time>
      </trkpt>
      <trkpt lat="48.72596" lon="-3.38352">
        <ele>83.3</ele>
        <time>2013-04-20T08:00:42Z</time>
      </trkpt>
      <trkpt lat="48.72505" lon="-3.38283">
        <ele>81.4</ele>
        <time>2013-04-20T08:00:56Z</time>
      </trkpt>
      <trkpt lat="48.72499" lon="-3.38277">
        <ele>81.4</ele>
        <time>2013-04-20T08:00:57Z</time>
      </trkpt>
      <trkpt lat="48.72493" lon="-3.3827">
        <ele>81.9</ele>
        <time>2013-04-20T08:00:58Z</time>
      </trkpt>
      <trkpt lat="48.72488" lon="-3.38263">
        <ele>81.4</ele>
        <time>2013-04-20T08:00:59Z</time>
      </trkpt>
      <trkpt lat="48.72473" lon="-3.3824">
        <ele>80.4</ele>
        <time>2013-04-20T08:01:02Z</time>
      </trkpt>
      <trkpt lat="48.72467" lon="-3.38233">
        <ele>79.9</ele>
        <time>2013-04-20T08:01:03Z</time>
      </trkpt>
      <trkpt lat="48.72461" lon="-3.38228">
        <ele>79.9</ele>
        <time>2013-04-20T08:01:04Z</time>
      </trkpt>
      <trkpt lat="48.72454" lon="-3.38224">
        <ele>79.9</ele>
        <time>2013-04-20T08:01:05Z</time>
      </trkpt>
      <trkpt lat="48.72447" lon="-3.38221">
        <ele>79.9</ele>
        <time>2013-04-20T08:01:06Z</time>
      </trkpt>
      <trkpt lat="48.72354" lon="-3.38166">
        <ele>77.5</ele>
        <time>2013-04-20T08:01:19Z</time>
      </trkpt>
      <trkpt lat="48.72232" lon="-3.38108">
        <ele>76.1</ele>
        <time>2013-04-20T08:01:36Z</time>
      </trkpt>
      <trkpt lat="48.72129" lon="-3.38058">
        <ele>75.6</ele>
        <time>2013-04-20T08:01:51Z</time>
      </trkpt>
      <trkpt lat="48.72052" lon="-3.38004">
        <ele>77.5</ele>
        <time>2013-04-20T08:02:04Z</time>
      </trkpt>
      <trkpt lat="48.71989" lon="-3.37968">
        <ele>79</ele>
        <time>2013-04-20T08:02:16Z</time>
      </trkpt>
      <trkpt lat="48.71941" lon="-3.3795">
        <ele>80.4</ele>
        <time>2013-04-20T08:02:25Z</time>
      </trkpt>
      <trkpt lat="48.71935" lon="-3.3795">
        <ele>80.4</ele>
        <time>2013-04-20T08:02:26Z</time>
      </trkpt>
      <trkpt lat="48.71931" lon="-3.37953">
        <ele>80.9</ele>
        <time>2013-04-20T08:02:27Z</time>
      </trkpt>
      <trkpt lat="48.71927" lon="-3.37958">
        <ele>81.4</ele>
        <time>2013-04-20T08:02:28Z</time>
      </trkpt>
      <trkpt lat="48.71924" lon="-3.37964">
        <ele>81.4</ele>
        <time>2013-04-20T08:02:29Z</time>
      </trkpt>
      <trkpt lat="48.71923" lon="-3.37971">
        <ele>81.9</ele>
        <time>2013-04-20T08:02:30Z</time>
      </trkpt>
      <trkpt lat="48.71922" lon="-3.37979">
        <ele>81.9</ele>
        <time>2013-04-20T08:02:31Z</time>
      </trkpt>
      <trkpt lat="48.71921" lon="-3.37987">
        <ele>82.3</ele>
        <time>2013-04-20T08:02:32Z</time>
      </trkpt>
      <trkpt lat="48.7192" lon="-3.37994">
        <ele>82.3</ele>
        <time>2013-04-20T08:02:33Z</time>
      </trkpt>
      <trkpt lat="48.71918" lon="-3.38001">
        <ele>82.3</ele>
        <time>2013-04-20T08:02:34Z</time>
      </trkpt>
      <trkpt lat="48.71917" lon="-3.38007">
        <ele>82.3</ele>
        <time>2013-04-20T08:02:35Z</time>
      </trkpt>
      <trkpt lat="48.71915" lon="-3.38012">
        <ele>82.3</ele>
        <time>2013-04-20T08:02:36Z</time>
      </trkpt>
      <trkpt lat="48.71913" lon="-3.38016">
        <ele>82.3</ele>
        <time>2013-04-20T08:02:37Z</time>
      </trkpt>
      <trkpt lat="48.7191" lon="-3.38018">
        <ele>82.3</ele>
        <time>2013-04-20T08:02:38Z</time>
      </trkpt>
      <trkpt lat="48.71908" lon="-3.38019">
        <ele>82.3</ele>
        <time>2013-04-20T08:02:39Z</time>
      </trkpt>
      <trkpt lat="48.71904" lon="-3.38019">
        <ele>82.3</ele>
        <time>2013-04-20T08:02:49Z</time>
      </trkpt>
      <trkpt lat="48.71903" lon="-3.3802">
        <ele>82.3</ele>
        <time>2013-04-20T08:03:22Z</time>
      </trkpt>
      <trkpt lat="48.71904" lon="-3.3802">
        <ele>82.8</ele>
        <time>2013-04-20T08:03:54Z</time>
      </trkpt>
      <trkpt lat="48.71905" lon="-3.3802">
        <ele>82.3</ele>
        <time>2013-04-20T08:04:23Z</time>
      </trkpt>
      <trkpt lat="48.71904" lon="-3.38019">
        <ele>83.8</ele>
        <time>2013-04-20T08:04:53Z</time>
      </trkpt>
      <trkpt lat="48.71904" lon="-3.38019">
        <ele>82.8</ele>
        <time>2013-04-20T08:05:22Z</time>
      </trkpt>
      <trkpt lat="48.71904" lon="-3.3802">
        <ele>82.8</ele>
        <time>2013-04-20T08:05:55Z</time>
      </trkpt>
      <trkpt lat="48.71904" lon="-3.3802">
        <ele>82.8</ele>
        <time>2013-04-20T08:06:20Z</time>
      </trkpt>
      <trkpt lat="48.71904" lon="-3.38019">
        <ele>82.8</ele>
        <time>2013-04-20T08:06:52Z</time>
      </trkpt>
      <trkpt lat="48.71905" lon="-3.3802">
        <ele>82.8</ele>
        <time>2013-04-20T08:07:25Z</time>
      </trkpt>
      <trkpt lat="48.71899" lon="-3.38015">
        <ele>83.3</ele>
        <time>2013-04-20T08:07:36Z</time>
      </trkpt>
      <trkpt lat="48.71896" lon="-3.38013">
        <ele>83.3</ele>
        <time>2013-04-20T08:07:37Z</time>
      </trkpt>
      <trkpt lat="48.71893" lon="-3.38012">
        <ele>83.3</ele>
        <time>2013-04-20T08:07:38Z</time>
      </trkpt>
      <trkpt lat="48.71889" lon="-3.3801">
        <ele>83.3</ele>
        <time>2013-04-20T08:07:39Z</time>
      </trkpt>
      <trkpt lat="48.71885" lon="-3.38008">
        <ele>83.3</ele>
        <time>2013-04-20T08:07:40Z</time>
      </trkpt>
      <trkpt lat="48.71812" lon="-3.37954">
        <ele>81.9</ele>
        <time>2013-04-20T08:07:53Z</time>
      </trkpt>
      <trkpt lat="48.71777" lon="-3.37919">
        <ele>79</ele>
        <time>2013-04-20T08:07:58Z</time>
      </trkpt>
      <trkpt lat="48.71762" lon="-3.37902">
        <ele>77.5</ele>
        <time>2013-04-20T08:08:00Z</time>
      </trkpt>
      <trkpt lat="48.71728" lon="-3.3785">
        <ele>73.7</ele>
        <time>2013-04-20T08:08:05Z</time>
      </trkpt>
      <trkpt lat="48.71711" lon="-3.37823">
        <ele>71.3</ele>
        <time>2013-04-20T08:08:08Z</time>
      </trkpt>
      <trkpt lat="48.71706" lon="-3.37813">
        <ele>70.8</ele>
        <time>2013-04-20T08:08:09Z</time>
      </trkpt>
      <trkpt lat="48.71703" lon="-3.37802">
        <ele>69.8</ele>
        <time>2013-04-20T08:08:10Z</time>
      </trkpt>
      <trkpt lat="48.71702" lon="-3.37791">
        <ele>69.4</ele>
        <time>2013-04-20T08:08:11Z</time>
      </trkpt>
      <trkpt lat="48.717" lon="-3.37778">
        <ele>69.4</ele>
        <time>2013-04-20T08:08:12Z</time>
      </trkpt>
      <trkpt lat="48.71697" lon="-3.37765">
        <ele>68.9</ele>
        <time>2013-04-20T08:08:13Z</time>
      </trkpt>
      <trkpt lat="48.71693" lon="-3.37752">
        <ele>68.4</ele>
        <time>2013-04-20T08:08:14Z</time>
      </trkpt>
      <trkpt lat="48.71688" lon="-3.37739">
        <ele>66.5</ele>
        <time>2013-04-20T08:08:15Z</time>
      </trkpt>
      <trkpt lat="48.71682" lon="-3.37726">
        <ele>66</ele>
        <time>2013-04-20T08:08:16Z</time>
      </trkpt>
      <trkpt lat="48.7166" lon="-3.37677">
        <ele>62.6</ele>
        <time>2013-04-20T08:08:20Z</time>
      </trkpt>
      <trkpt lat="48.71642" lon="-3.37648">
        <ele>59.3</ele>
        <time>2013-04-20T08:08:23Z</time>
      </trkpt>
      <trkpt lat="48.71633" lon="-3.3764">
        <ele>58.3</ele>
        <time>2013-04-20T08:08:24Z</time>
      </trkpt>
      <trkpt lat="48.71623" lon="-3.37634">
        <ele>57.8</ele>
        <time>2013-04-20T08:08:25Z</time>
      </trkpt>
      <trkpt lat="48.71593" lon="-3.37623">
        <ele>54.5</ele>
        <time>2013-04-20T08:08:28Z</time>
      </trkpt>
      <trkpt lat="48.71584" lon="-3.37617">
        <ele>53.5</ele>
        <time>2013-04-20T08:08:29Z</time>
      </trkpt>
      <trkpt lat="48.71576" lon="-3.3761">
        <ele>51.6</ele>
        <time>2013-04-20T08:08:30Z</time>
      </trkpt>
      <trkpt lat="48.71571" lon="-3.37602">
        <ele>51.1</ele>
        <time>2013-04-20T08:08:31Z</time>
      </trkpt>
      <trkpt lat="48.71566" lon="-3.37594">
        <ele>50.6</ele>
        <time>2013-04-20T08:08:32Z</time>
      </trkpt>
      <trkpt lat="48.71563" lon="-3.37584">
        <ele>50.6</ele>
        <time>2013-04-20T08:08:33Z</time>
      </trkpt>
      <trkpt lat="48.71561" lon="-3.37575">
        <ele>50.6</ele>
        <time>2013-04-20T08:08:34Z</time>
      </trkpt>
      <trkpt lat="48.7156" lon="-3.37565">
        <ele>50.1</ele>
        <time>2013-04-20T08:08:35Z</time>
      </trkpt>
      <trkpt lat="48.71546" lon="-3.37502">
        <ele>48.7</ele>
        <time>2013-04-20T08:08:41Z</time>
      </trkpt>
      <trkpt lat="48.71542" lon="-3.37492">
        <ele>48.7</ele>
        <time>2013-04-20T08:08:42Z</time>
      </trkpt>
      <trkpt lat="48.71536" lon="-3.37483">
        <ele>48.2</ele>
        <time>2013-04-20T08:08:43Z</time>
      </trkpt>
      <trkpt lat="48.71531" lon="-3.37476">
        <ele>47.7</ele>
        <time>2013-04-20T08:08:44Z</time>
      </trkpt>
      <trkpt lat="48.71525" lon="-3.37469">
        <ele>47.7</ele>
        <time>2013-04-20T08:08:45Z</time>
      </trkpt>
      <trkpt lat="48.71518" lon="-3.37464">
        <ele>47.7</ele>
        <time>2013-04-20T08:08:46Z</time>
      </trkpt>
      <trkpt lat="48.71512" lon="-3.37461">
        <ele>46.8</ele>
        <time>2013-04-20T08:08:47Z</time>
      </trkpt>
      <trkpt lat="48.71505" lon="-3.37459">
        <ele>46.8</ele>
        <time>2013-04-20T08:08:48Z</time>
      </trkpt>
      <trkpt lat="48.71498" lon="-3.37458">
        <ele>46.8</ele>
        <time>2013-04-20T08:08:49Z</time>
      </trkpt>
      <trkpt lat="48.71491" lon="-3.3746">
        <ele>46.8</ele>
        <time>2013-04-20T08:08:50Z</time>
      </trkpt>
      <trkpt lat="48.71413" lon="-3.37474">
        <ele>46.3</ele>
        <time>2013-04-20T08:09:01Z</time>
      </trkpt>
      <trkpt lat="48.71396" lon="-3.3748">
        <ele>46.3</ele>
        <time>2013-04-20T08:09:04Z</time>
      </trkpt>
      <trkpt lat="48.71392" lon="-3.37484">
        <ele>46.3</ele>
        <time>2013-04-20T08:09:05Z</time>
      </trkpt>
      <trkpt lat="48.71387" lon="-3.3749">
        <ele>46.8</ele>
        <time>2013-04-20T08:09:06Z</time>
      </trkpt>
      <trkpt lat="48.71384" lon="-3.37497">
        <ele>46.8</ele>
        <time>2013-04-20T08:09:07Z</time>
      </trkpt>
      <trkpt lat="48.71381" lon="-3.37503">
        <ele>46.8</ele>
        <time>2013-04-20T08:09:08Z</time>
      </trkpt>
      <trkpt lat="48.71378" lon="-3.3751">
        <ele>47.2</ele>
        <time>2013-04-20T08:09:09Z</time>
      </trkpt>
      <trkpt lat="48.71376" lon="-3.37518">
        <ele>47.7</ele>
        <time>2013-04-20T08:09:10Z</time>
      </trkpt>
      <trkpt lat="48.71355" lon="-3.37622">
        <ele>50.6</ele>
        <time>2013-04-20T08:09:25Z</time>
      </trkpt>
      <trkpt lat="48.7134" lon="-3.37672">
        <ele>52.1</ele>
        <time>2013-04-20T08:09:33Z</time>
      </trkpt>
      <trkpt lat="48.71331" lon="-3.37689">
        <ele>52.1</ele>
        <time>2013-04-20T08:09:36Z</time>
      </trkpt>
      <trkpt lat="48.7127" lon="-3.37758">
        <ele>52.5</ele>
        <time>2013-04-20T08:09:51Z</time>
      </trkpt>
      <trkpt lat="48.71265" lon="-3.37759">
        <ele>52.5</ele>
        <time>2013-04-20T08:09:52Z</time>
      </trkpt>
      <trkpt lat="48.7126" lon="-3.3776">
        <ele>52.5</ele>
        <time>2013-04-20T08:09:53Z</time>
      </trkpt>
      <trkpt lat="48.71201" lon="-3.37762">
        <ele>55.9</ele>
        <time>2013-04-20T08:10:06Z</time>
      </trkpt>
      <trkpt lat="48.71131" lon="-3.37769">
        <ele>58.8</ele>
        <time>2013-04-20T08:10:21Z</time>
      </trkpt>
      <trkpt lat="48.71067" lon="-3.37772">
        <ele>62.1</ele>
        <time>2013-04-20T08:10:35Z</time>
      </trkpt>
      <trkpt lat="48.7102" lon="-3.3775">
        <ele>65</ele>
        <time>2013-04-20T08:10:47Z</time>
      </trkpt>
      <trkpt lat="48.71004" lon="-3.37739">
        <ele>66</ele>
        <time>2013-04-20T08:10:51Z</time>
      </trkpt>
      <trkpt lat="48.70944" lon="-3.37711">
        <ele>67</ele>
        <time>2013-04-20T08:11:04Z</time>
      </trkpt>
      <trkpt lat="48.70926" lon="-3.37703">
        <ele>67.4</ele>
        <time>2013-04-20T08:11:08Z</time>
      </trkpt>
      <trkpt lat="48.70922" lon="-3.37703">
        <ele>67.9</ele>
        <time>2013-04-20T08:11:09Z</time>
      </trkpt>
      <trkpt lat="48.70918" lon="-3.37704">
        <ele>67.9</ele>
        <time>2013-04-20T08:11:10Z</time>
      </trkpt>
      <trkpt lat="48.70914" lon="-3.37703">
        <ele>68.4</ele>
        <time>2013-04-20T08:11:11Z</time>
      </trkpt>
      <trkpt lat="48.7091" lon="-3.37702">
        <ele>68.4</ele>
        <time>2013-04-20T08:11:12Z</time>
      </trkpt>
      <trkpt lat="48.70906" lon="-3.377">
        <ele>68.9</ele>
        <time>2013-04-20T08:11:13Z</time>
      </trkpt>
      <trkpt lat="48.70903" lon="-3.37699">
        <ele>69.4</ele>
        <time>2013-04-20T08:11:14Z</time>
      </trkpt>
      <trkpt lat="48.709" lon="-3.37697">
        <ele>69.8</ele>
        <time>2013-04-20T08:11:15Z</time>
      </trkpt>
      <trkpt lat="48.70897" lon="-3.37696">
        <ele>70.3</ele>
        <time>2013-04-20T08:11:16Z</time>
      </trkpt>
      <trkpt lat="48.70893" lon="-3.37694">
        <ele>70.3</ele>
        <time>2013-04-20T08:11:17Z</time>
      </trkpt>
      <trkpt lat="48.70889" lon="-3.37691">
        <ele>70.8</ele>
        <time>2013-04-20T08:11:18Z</time>
      </trkpt>
      <trkpt lat="48.70884" lon="-3.37688">
        <ele>70.8</ele>
        <time>2013-04-20T08:11:19Z</time>
      </trkpt>
      <trkpt lat="48.70843" lon="-3.37667">
        <ele>73.2</ele>
        <time>2013-04-20T08:11:30Z</time>
      </trkpt>
      <trkpt lat="48.70806" lon="-3.37659">
        <ele>76.1</ele>
        <time>2013-04-20T08:11:40Z</time>
      </trkpt>
      <trkpt lat="48.70772" lon="-3.37652">
        <ele>79.5</ele>
        <time>2013-04-20T08:11:49Z</time>
      </trkpt>
      <trkpt lat="48.70735" lon="-3.37645">
        <ele>82.3</ele>
        <time>2013-04-20T08:11:59Z</time>
      </trkpt>
      <trkpt lat="48.70701" lon="-3.37637">
        <ele>85.7</ele>
        <time>2013-04-20T08:12:08Z</time>
      </trkpt>
      <trkpt lat="48.70697" lon="-3.37636">
        <ele>85.7</ele>
        <time>2013-04-20T08:12:09Z</time>
      </trkpt>
      <trkpt lat="48.70669" lon="-3.37623">
        <ele>89.1</ele>
        <time>2013-04-20T08:12:17Z</time>
      </trkpt>
      <trkpt lat="48.70665" lon="-3.37621">
        <ele>89.1</ele>
        <time>2013-04-20T08:12:18Z</time>
      </trkpt>
      <trkpt lat="48.70633" lon="-3.37614">
        <ele>92.4</ele>
        <time>2013-04-20T08:12:27Z</time>
      </trkpt>
      <trkpt lat="48.70587" lon="-3.37604">
        <ele>95.3</ele>
        <time>2013-04-20T08:12:39Z</time>
      </trkpt>
      <trkpt lat="48.70536" lon="-3.37591">
        <ele>97.2</ele>
        <time>2013-04-20T08:12:51Z</time>
      </trkpt>
      <trkpt lat="48.70482" lon="-3.37583">
        <ele>96.3</ele>
        <time>2013-04-20T08:13:01Z</time>
      </trkpt>
      <trkpt lat="48.70477" lon="-3.3758">
        <ele>96.3</ele>
        <time>2013-04-20T08:13:02Z</time>
      </trkpt>
      <trkpt lat="48.70472" lon="-3.37576">
        <ele>96.3</ele>
        <time>2013-04-20T08:13:03Z</time>
      </trkpt>
      <trkpt lat="48.70468" lon="-3.37571">
        <ele>96.3</ele>
        <time>2013-04-20T08:13:04Z</time>
      </trkpt>
      <trkpt lat="48.70465" lon="-3.37567">
        <ele>96.3</ele>
        <time>2013-04-20T08:13:05Z</time>
      </trkpt>
      <trkpt lat="48.7046" lon="-3.37558">
        <ele>95.3</ele>
        <time>2013-04-20T08:13:07Z</time>
      </trkpt>
      <trkpt lat="48.70459" lon="-3.37553">
        <ele>94.8</ele>
        <time>2013-04-20T08:13:08Z</time>
      </trkpt>
      <trkpt lat="48.70458" lon="-3.37546">
        <ele>94.8</ele>
        <time>2013-04-20T08:13:09Z</time>
      </trkpt>
      <trkpt lat="48.70458" lon="-3.37539">
        <ele>94.8</ele>
        <time>2013-04-20T08:13:10Z</time>
      </trkpt>
      <trkpt lat="48.70458" lon="-3.37531">
        <ele>94.8</ele>
        <time>2013-04-20T08:13:11Z</time>
      </trkpt>
      <trkpt lat="48.70458" lon="-3.37522">
        <ele>94.4</ele>
        <time>2013-04-20T08:13:12Z</time>
      </trkpt>
      <trkpt lat="48.70451" lon="-3.37424">
        <ele>94.4</ele>
        <time>2013-04-20T08:13:22Z</time>
      </trkpt>
      <trkpt lat="48.70426" lon="-3.37312">
        <ele>96.8</ele>
        <time>2013-04-20T08:13:37Z</time>
      </trkpt>
      <trkpt lat="48.70413" lon="-3.37239">
        <ele>99.6</ele>
        <time>2013-04-20T08:13:48Z</time>
      </trkpt>
      <trkpt lat="48.70412" lon="-3.37233">
        <ele>99.6</ele>
        <time>2013-04-20T08:13:49Z</time>
      </trkpt>
      <trkpt lat="48.70404" lon="-3.37181">
        <ele>101.1</ele>
        <time>2013-04-20T08:13:57Z</time>
      </trkpt>
      <trkpt lat="48.70402" lon="-3.37091">
        <ele>104.4</ele>
        <time>2013-04-20T08:14:10Z</time>
      </trkpt>
      <trkpt lat="48.70402" lon="-3.37084">
        <ele>104.4</ele>
        <time>2013-04-20T08:14:11Z</time>
      </trkpt>
      <trkpt lat="48.70374" lon="-3.36989">
        <ele>105.9</ele>
        <time>2013-04-20T08:14:26Z</time>
      </trkpt>
      <trkpt lat="48.70328" lon="-3.36884">
        <ele>107.3</ele>
        <time>2013-04-20T08:14:43Z</time>
      </trkpt>
      <trkpt lat="48.70284" lon="-3.36768">
        <ele>109.7</ele>
        <time>2013-04-20T08:15:00Z</time>
      </trkpt>
      <trkpt lat="48.70248" lon="-3.36622">
        <ele>112.1</ele>
        <time>2013-04-20T08:15:20Z</time>
      </trkpt>
      <trkpt lat="48.70209" lon="-3.36509">
        <ele>110.7</ele>
        <time>2013-04-20T08:15:34Z</time>
      </trkpt>
      <trkpt lat="48.70191" lon="-3.36478">
        <ele>110.2</ele>
        <time>2013-04-20T08:15:38Z</time>
      </trkpt>
      <trkpt lat="48.70185" lon="-3.36472">
        <ele>109.7</ele>
        <time>2013-04-20T08:15:39Z</time>
      </trkpt>
      <trkpt lat="48.70111" lon="-3.3642">
        <ele>106.4</ele>
        <time>2013-04-20T08:15:49Z</time>
      </trkpt>
      <trkpt lat="48.70028" lon="-3.36339">
        <ele>104</ele>
        <time>2013-04-20T08:16:01Z</time>
      </trkpt>
      <trkpt lat="48.69972" lon="-3.36218">
        <ele>101.1</ele>
        <time>2013-04-20T08:16:13Z</time>
      </trkpt>
      <trkpt lat="48.69892" lon="-3.36089">
        <ele>98.2</ele>
        <time>2013-04-20T08:16:27Z</time>
      </trkpt>
      <trkpt lat="48.69807" lon="-3.35996">
        <ele>96.8</ele>
        <time>2013-04-20T08:16:41Z</time>
      </trkpt>
      <trkpt lat="48.69746" lon="-3.35939">
        <ele>93.4</ele>
        <time>2013-04-20T08:16:50Z</time>
      </trkpt>
      <trkpt lat="48.69641" lon="-3.35852">
        <ele>91.9</ele>
        <time>2013-04-20T08:17:05Z</time>
      </trkpt>
      <trkpt lat="48.6961" lon="-3.35809">
        <ele>90</ele>
        <time>2013-04-20T08:17:10Z</time>
      </trkpt>
      <trkpt lat="48.69556" lon="-3.35707">
        <ele>90.5</ele>
        <time>2013-04-20T08:17:22Z</time>
      </trkpt>
      <trkpt lat="48.69494" lon="-3.35622">
        <ele>93.4</ele>
        <time>2013-04-20T08:17:37Z</time>
      </trkpt>
      <trkpt lat="48.69435" lon="-3.35519">
        <ele>95.3</ele>
        <time>2013-04-20T08:17:54Z</time>
      </trkpt>
      <trkpt lat="48.69425" lon="-3.35498">
        <ele>95.8</ele>
        <time>2013-04-20T08:17:57Z</time>
      </trkpt>
      <trkpt lat="48.69422" lon="-3.3549">
        <ele>95.8</ele>
        <time>2013-04-20T08:17:58Z</time>
      </trkpt>
      <trkpt lat="48.69419" lon="-3.35482">
        <ele>95.3</ele>
        <time>2013-04-20T08:17:59Z</time>
      </trkpt>
      <trkpt lat="48.69416" lon="-3.35475">
        <ele>95.3</ele>
        <time>2013-04-20T08:18:00Z</time>
      </trkpt>
      <trkpt lat="48.69414" lon="-3.35466">
        <ele>95.3</ele>
        <time>2013-04-20T08:18:01Z</time>
      </trkpt>
      <trkpt lat="48.69372" lon="-3.35301">
        <ele>96.3</ele>
        <time>2013-04-20T08:18:20Z</time>
      </trkpt>
      <trkpt lat="48.69373" lon="-3.35228">
        <ele>98.7</ele>
        <time>2013-04-20T08:18:29Z</time>
      </trkpt>
      <trkpt lat="48.69381" lon="-3.35156">
        <ele>101.1</ele>
        <time>2013-04-20T08:18:39Z</time>
      </trkpt>
      <trkpt lat="48.69382" lon="-3.35148">
        <ele>101.1</ele>
        <time>2013-04-20T08:18:40Z</time>
      </trkpt>
      <trkpt lat="48.69392" lon="-3.35017">
        <ele>100.1</ele>
        <time>2013-04-20T08:18:55Z</time>
      </trkpt>
      <trkpt lat="48.69388" lon="-3.34958">
        <ele>99.2</ele>
        <time>2013-04-20T08:19:01Z</time>
      </trkpt>
      <trkpt lat="48.69387" lon="-3.34949">
        <ele>98.7</ele>
        <time>2013-04-20T08:19:02Z</time>
      </trkpt>
      <trkpt lat="48.69386" lon="-3.3494">
        <ele>98.7</ele>
        <time>2013-04-20T08:19:03Z</time>
      </trkpt>
      <trkpt lat="48.69361" lon="-3.34808">
        <ele>97.7</ele>
        <time>2013-04-20T08:19:18Z</time>
      </trkpt>
      <trkpt lat="48.69348" lon="-3.34672">
        <ele>99.2</ele>
        <time>2013-04-20T08:19:33Z</time>
      </trkpt>
      <trkpt lat="48.69366" lon="-3.34525">
        <ele>100.1</ele>
        <time>2013-04-20T08:19:49Z</time>
      </trkpt>
      <trkpt lat="48.69353" lon="-3.34387">
        <ele>99.6</ele>
        <time>2013-04-20T08:20:04Z</time>
      </trkpt>
      <trkpt lat="48.69341" lon="-3.34316">
        <ele>100.1</ele>
        <time>2013-04-20T08:20:12Z</time>
      </trkpt>
      <trkpt lat="48.69327" lon="-3.34208">
        <ele>99.2</ele>
        <time>2013-04-20T08:20:27Z</time>
      </trkpt>
      <trkpt lat="48.69327" lon="-3.34204">
        <ele>98.7</ele>
        <time>2013-04-20T08:20:38Z</time>
      </trkpt>
      <trkpt lat="48.69327" lon="-3.34204">
        <ele>98.7</ele>
        <time>2013-04-20T08:20:59Z</time>
      </trkpt>
      <trkpt lat="48.69325" lon="-3.34196">
        <ele>99.2</ele>
        <time>2013-04-20T08:21:02Z</time>
      </trkpt>
      <trkpt lat="48.6931" lon="-3.34117">
        <ele>99.2</ele>
        <time>2013-04-20T08:21:13Z</time>
      </trkpt>
      <trkpt lat="48.69273" lon="-3.33962">
        <ele>99.2</ele>
        <time>2013-04-20T08:21:31Z</time>
      </trkpt>
      <trkpt lat="48.69267" lon="-3.33801">
        <ele>98.7</ele>
        <time>2013-04-20T08:21:48Z</time>
      </trkpt>
      <trkpt lat="48.69258" lon="-3.33732">
        <ele>98.7</ele>
        <time>2013-04-20T08:21:56Z</time>
      </trkpt>
      <trkpt lat="48.69248" lon="-3.337">
        <ele>98.7</ele>
        <time>2013-04-20T08:22:00Z</time>
      </trkpt>
      <trkpt lat="48.69245" lon="-3.33692">
        <ele>99.2</ele>
        <time>2013-04-20T08:22:01Z</time>
      </trkpt>
      <trkpt lat="48.69188" lon="-3.33582">
        <ele>99.6</ele>
        <time>2013-04-20T08:22:17Z</time>
      </trkpt>
      <trkpt lat="48.69123" lon="-3.33486">
        <ele>99.6</ele>
        <time>2013-04-20T08:22:32Z</time>
      </trkpt>
      <trkpt lat="48.69033" lon="-3.33361">
        <ele>100.6</ele>
        <time>2013-04-20T08:22:52Z</time>
      </trkpt>
      <trkpt lat="48.6899" lon="-3.33299">
        <ele>103</ele>
        <time>2013-04-20T08:23:03Z</time>
      </trkpt>
      <trkpt lat="48.68929" lon="-3.33219">
        <ele>105.9</ele>
        <time>2013-04-20T08:23:18Z</time>
      </trkpt>
      <trkpt lat="48.68897" lon="-3.3312">
        <ele>107.3</ele>
        <time>2013-04-20T08:23:32Z</time>
      </trkpt>
      <trkpt lat="48.68893" lon="-3.33104">
        <ele>107.3</ele>
        <time>2013-04-20T08:23:34Z</time>
      </trkpt>
      <trkpt lat="48.68891" lon="-3.33096">
        <ele>106.8</ele>
        <time>2013-04-20T08:23:35Z</time>
      </trkpt>
      <trkpt lat="48.68885" lon="-3.33071">
        <ele>107.3</ele>
        <time>2013-04-20T08:23:38Z</time>
      </trkpt>
      <trkpt lat="48.68884" lon="-3.33061">
        <ele>106.8</ele>
        <time>2013-04-20T08:23:39Z</time>
      </trkpt>
      <trkpt lat="48.68884" lon="-3.33051">
        <ele>106.8</ele>
        <time>2013-04-20T08:23:40Z</time>
      </trkpt>
      <trkpt lat="48.68884" lon="-3.33041">
        <ele>106.4</ele>
        <time>2013-04-20T08:23:41Z</time>
      </trkpt>
      <trkpt lat="48.68885" lon="-3.3303">
        <ele>105.9</ele>
        <time>2013-04-20T08:23:42Z</time>
      </trkpt>
      <trkpt lat="48.68901" lon="-3.32904">
        <ele>103</ele>
        <time>2013-04-20T08:23:52Z</time>
      </trkpt>
      <trkpt lat="48.68918" lon="-3.32731">
        <ele>99.6</ele>
        <time>2013-04-20T08:24:06Z</time>
      </trkpt>
      <trkpt lat="48.68927" lon="-3.32632">
        <ele>97.2</ele>
        <time>2013-04-20T08:24:14Z</time>
      </trkpt>
      <trkpt lat="48.68926" lon="-3.32619">
        <ele>96.8</ele>
        <time>2013-04-20T08:24:15Z</time>
      </trkpt>
      <trkpt lat="48.68925" lon="-3.32607">
        <ele>96.8</ele>
        <time>2013-04-20T08:24:16Z</time>
      </trkpt>
      <trkpt lat="48.68923" lon="-3.32595">
        <ele>96.3</ele>
        <time>2013-04-20T08:24:17Z</time>
      </trkpt>
      <trkpt lat="48.68921" lon="-3.32583">
        <ele>95.8</ele>
        <time>2013-04-20T08:24:18Z</time>
      </trkpt>
      <trkpt lat="48.68918" lon="-3.32572">
        <ele>95.8</ele>
        <time>2013-04-20T08:24:19Z</time>
      </trkpt>
      <trkpt lat="48.68893" lon="-3.32473">
        <ele>98.7</ele>
        <time>2013-04-20T08:24:30Z</time>
      </trkpt>
      <trkpt lat="48.68892" lon="-3.32465">
        <ele>98.7</ele>
        <time>2013-04-20T08:24:31Z</time>
      </trkpt>
      <trkpt lat="48.68892" lon="-3.32458">
        <ele>98.7</ele>
        <time>2013-04-20T08:24:32Z</time>
      </trkpt>
      <trkpt lat="48.68892" lon="-3.32443">
        <ele>99.2</ele>
        <time>2013-04-20T08:24:34Z</time>
      </trkpt>
      <trkpt lat="48.68879" lon="-3.32324">
        <ele>99.6</ele>
        <time>2013-04-20T08:24:48Z</time>
      </trkpt>
      <trkpt lat="48.6887" lon="-3.32209">
        <ele>99.6</ele>
        <time>2013-04-20T08:25:01Z</time>
      </trkpt>
      <trkpt lat="48.68869" lon="-3.32201">
        <ele>99.6</ele>
        <time>2013-04-20T08:25:02Z</time>
      </trkpt>
      <trkpt lat="48.68828" lon="-3.32077">
        <ele>102</ele>
        <time>2013-04-20T08:25:18Z</time>
      </trkpt>
      <trkpt lat="48.6881" lon="-3.31952">
        <ele>103</ele>
        <time>2013-04-20T08:25:33Z</time>
      </trkpt>
      <trkpt lat="48.68811" lon="-3.31781">
        <ele>102.5</ele>
        <time>2013-04-20T08:25:51Z</time>
      </trkpt>
      <trkpt lat="48.6881" lon="-3.31737">
        <ele>102.5</ele>
        <time>2013-04-20T08:25:59Z</time>
      </trkpt>
      <trkpt lat="48.68811" lon="-3.31713">
        <ele>102</ele>
        <time>2013-04-20T08:26:02Z</time>
      </trkpt>
      <trkpt lat="48.68823" lon="-3.31568">
        <ele>101.1</ele>
        <time>2013-04-20T08:26:18Z</time>
      </trkpt>
      <trkpt lat="48.68811" lon="-3.31446">
        <ele>101.6</ele>
        <time>2013-04-20T08:26:32Z</time>
      </trkpt>
      <trkpt lat="48.68763" lon="-3.31371">
        <ele>102.5</ele>
        <time>2013-04-20T08:26:44Z</time>
      </trkpt>
      <trkpt lat="48.68674" lon="-3.31274">
        <ele>104.4</ele>
        <time>2013-04-20T08:27:03Z</time>
      </trkpt>
      <trkpt lat="48.68608" lon="-3.31202">
        <ele>105.9</ele>
        <time>2013-04-20T08:27:17Z</time>
      </trkpt>
      <trkpt lat="48.68546" lon="-3.31126">
        <ele>105.9</ele>
        <time>2013-04-20T08:27:30Z</time>
      </trkpt>
      <trkpt lat="48.68486" lon="-3.30992">
        <ele>104.9</ele>
        <time>2013-04-20T08:27:46Z</time>
      </trkpt>
      <trkpt lat="48.68398" lon="-3.30851">
        <ele>102.5</ele>
        <time>2013-04-20T08:28:05Z</time>
      </trkpt>
      <trkpt lat="48.68373" lon="-3.30802">
        <ele>101.6</ele>
        <time>2013-04-20T08:28:11Z</time>
      </trkpt>
      <trkpt lat="48.68325" lon="-3.30669">
        <ele>101.6</ele>
        <time>2013-04-20T08:28:26Z</time>
      </trkpt>
      <trkpt lat="48.68247" lon="-3.30561">
        <ele>98.2</ele>
        <time>2013-04-20T08:28:40Z</time>
      </trkpt>
      <trkpt lat="48.68175" lon="-3.30457">
        <ele>94.8</ele>
        <time>2013-04-20T08:28:52Z</time>
      </trkpt>
      <trkpt lat="48.68089" lon="-3.30353">
        <ele>92.9</ele>
        <time>2013-04-20T08:29:06Z</time>
      </trkpt>
      <trkpt lat="48.68008" lon="-3.30234">
        <ele>91</ele>
        <time>2013-04-20T08:29:21Z</time>
      </trkpt>
      <trkpt lat="48.67928" lon="-3.30095">
        <ele>88.6</ele>
        <time>2013-04-20T08:29:37Z</time>
      </trkpt>
      <trkpt lat="48.67856" lon="-3.2997">
        <ele>88.1</ele>
        <time>2013-04-20T08:29:51Z</time>
      </trkpt>
      <trkpt lat="48.67805" lon="-3.29901">
        <ele>90</ele>
        <time>2013-04-20T08:30:03Z</time>
      </trkpt>
      <trkpt lat="48.67736" lon="-3.29822">
        <ele>88.6</ele>
        <time>2013-04-20T08:30:16Z</time>
      </trkpt>
      <trkpt lat="48.67727" lon="-3.29809">
        <ele>88.6</ele>
        <time>2013-04-20T08:30:18Z</time>
      </trkpt>
      <trkpt lat="48.67724" lon="-3.29802">
        <ele>88.1</ele>
        <time>2013-04-20T08:30:19Z</time>
      </trkpt>
      <trkpt lat="48.67721" lon="-3.29794">
        <ele>88.1</ele>
        <time>2013-04-20T08:30:20Z</time>
      </trkpt>
      <trkpt lat="48.67719" lon="-3.29785">
        <ele>88.1</ele>
        <time>2013-04-20T08:30:21Z</time>
      </trkpt>
      <trkpt lat="48.67718" lon="-3.29776">
        <ele>88.1</ele>
        <time>2013-04-20T08:30:22Z</time>
      </trkpt>
      <trkpt lat="48.67716" lon="-3.29766">
        <ele>87.1</ele>
        <time>2013-04-20T08:30:23Z</time>
      </trkpt>
      <trkpt lat="48.67713" lon="-3.29757">
        <ele>87.1</ele>
        <time>2013-04-20T08:30:24Z</time>
      </trkpt>
      <trkpt lat="48.67706" lon="-3.2974">
        <ele>86.7</ele>
        <time>2013-04-20T08:30:26Z</time>
      </trkpt>
      <trkpt lat="48.67702" lon="-3.29732">
        <ele>87.1</ele>
        <time>2013-04-20T08:30:27Z</time>
      </trkpt>
      <trkpt lat="48.67697" lon="-3.29725">
        <ele>87.6</ele>
        <time>2013-04-20T08:30:28Z</time>
      </trkpt>
      <trkpt lat="48.67692" lon="-3.29719">
        <ele>87.1</ele>
        <time>2013-04-20T08:30:29Z</time>
      </trkpt>
      <trkpt lat="48.67687" lon="-3.29713">
        <ele>87.6</ele>
        <time>2013-04-20T08:30:30Z</time>
      </trkpt>
      <trkpt lat="48.67682" lon="-3.29707">
        <ele>87.6</ele>
        <time>2013-04-20T08:30:31Z</time>
      </trkpt>
      <trkpt lat="48.67677" lon="-3.29703">
        <ele>88.1</ele>
        <time>2013-04-20T08:30:32Z</time>
      </trkpt>
      <trkpt lat="48.67671" lon="-3.29699">
        <ele>87.6</ele>
        <time>2013-04-20T08:30:33Z</time>
      </trkpt>
      <trkpt lat="48.67621" lon="-3.2967">
        <ele>87.1</ele>
        <time>2013-04-20T08:30:41Z</time>
      </trkpt>
      <trkpt lat="48.67581" lon="-3.29648">
        <ele>86.2</ele>
        <time>2013-04-20T08:30:48Z</time>
      </trkpt>
      <trkpt lat="48.67572" lon="-3.29646">
        <ele>86.7</ele>
        <time>2013-04-20T08:30:51Z</time>
      </trkpt>
      <trkpt lat="48.67568" lon="-3.29642">
        <ele>86.7</ele>
        <time>2013-04-20T08:30:52Z</time>
      </trkpt>
      <trkpt lat="48.67566" lon="-3.29637">
        <ele>86.2</ele>
        <time>2013-04-20T08:30:53Z</time>
      </trkpt>
      <trkpt lat="48.67564" lon="-3.29633">
        <ele>86.7</ele>
        <time>2013-04-20T08:30:54Z</time>
      </trkpt>
      <trkpt lat="48.67562" lon="-3.29627">
        <ele>86.7</ele>
        <time>2013-04-20T08:30:55Z</time>
      </trkpt>
      <trkpt lat="48.67533" lon="-3.29524">
        <ele>85.2</ele>
        <time>2013-04-20T08:31:06Z</time>
      </trkpt>
      <trkpt lat="48.67482" lon="-3.29383">
        <ele>82.8</ele>
        <time>2013-04-20T08:31:20Z</time>
      </trkpt>
      <trkpt lat="48.67479" lon="-3.29371">
        <ele>82.8</ele>
        <time>2013-04-20T08:31:21Z</time>
      </trkpt>
      <trkpt lat="48.67478" lon="-3.29359">
        <ele>82.3</ele>
        <time>2013-04-20T08:31:22Z</time>
      </trkpt>
      <trkpt lat="48.67476" lon="-3.29346">
        <ele>82.3</ele>
        <time>2013-04-20T08:31:23Z</time>
      </trkpt>
      <trkpt lat="48.67476" lon="-3.29333">
        <ele>81.9</ele>
        <time>2013-04-20T08:31:24Z</time>
      </trkpt>
      <trkpt lat="48.67476" lon="-3.29321">
        <ele>81.9</ele>
        <time>2013-04-20T08:31:25Z</time>
      </trkpt>
      <trkpt lat="48.67476" lon="-3.29308">
        <ele>80.9</ele>
        <time>2013-04-20T08:31:26Z</time>
      </trkpt>
      <trkpt lat="48.67478" lon="-3.29257">
        <ele>79</ele>
        <time>2013-04-20T08:31:30Z</time>
      </trkpt>
      <trkpt lat="48.67475" lon="-3.29245">
        <ele>78.5</ele>
        <time>2013-04-20T08:31:31Z</time>
      </trkpt>
      <trkpt lat="48.67471" lon="-3.29232">
        <ele>77.5</ele>
        <time>2013-04-20T08:31:32Z</time>
      </trkpt>
      <trkpt lat="48.67465" lon="-3.29221">
        <ele>76.6</ele>
        <time>2013-04-20T08:31:33Z</time>
      </trkpt>
      <trkpt lat="48.67459" lon="-3.29211">
        <ele>76.1</ele>
        <time>2013-04-20T08:31:34Z</time>
      </trkpt>
      <trkpt lat="48.67452" lon="-3.29203">
        <ele>76.1</ele>
        <time>2013-04-20T08:31:35Z</time>
      </trkpt>
      <trkpt lat="48.67444" lon="-3.29195">
        <ele>76.1</ele>
        <time>2013-04-20T08:31:36Z</time>
      </trkpt>
      <trkpt lat="48.67377" lon="-3.29132">
        <ele>76.1</ele>
        <time>2013-04-20T08:31:46Z</time>
      </trkpt>
      <trkpt lat="48.67311" lon="-3.29021">
        <ele>73.7</ele>
        <time>2013-04-20T08:31:59Z</time>
      </trkpt>
      <trkpt lat="48.67219" lon="-3.28919">
        <ele>71.8</ele>
        <time>2013-04-20T08:32:14Z</time>
      </trkpt>
      <trkpt lat="48.67145" lon="-3.28869">
        <ele>71.8</ele>
        <time>2013-04-20T08:32:25Z</time>
      </trkpt>
      <trkpt lat="48.67138" lon="-3.28868">
        <ele>71.8</ele>
        <time>2013-04-20T08:32:26Z</time>
      </trkpt>
      <trkpt lat="48.67132" lon="-3.28869">
        <ele>72.2</ele>
        <time>2013-04-20T08:32:27Z</time>
      </trkpt>
      <trkpt lat="48.67127" lon="-3.28872">
        <ele>71.8</ele>
        <time>2013-04-20T08:32:28Z</time>
      </trkpt>
      <trkpt lat="48.67122" lon="-3.28876">
        <ele>71.8</ele>
        <time>2013-04-20T08:32:29Z</time>
      </trkpt>
      <trkpt lat="48.67117" lon="-3.28881">
        <ele>71.8</ele>
        <time>2013-04-20T08:32:30Z</time>
      </trkpt>
      <trkpt lat="48.67058" lon="-3.28941">
        <ele>74.2</ele>
        <time>2013-04-20T08:32:43Z</time>
      </trkpt>
      <trkpt lat="48.66999" lon="-3.28987">
        <ele>78</ele>
        <time>2013-04-20T08:32:56Z</time>
      </trkpt>
      <trkpt lat="48.66963" lon="-3.28999">
        <ele>78</ele>
        <time>2013-04-20T08:33:03Z</time>
      </trkpt>
      <trkpt lat="48.66958" lon="-3.29">
        <ele>78</ele>
        <time>2013-04-20T08:33:04Z</time>
      </trkpt>
      <trkpt lat="48.66878" lon="-3.28982">
        <ele>79.9</ele>
        <time>2013-04-20T08:33:19Z</time>
      </trkpt>
      <trkpt lat="48.6678" lon="-3.28968">
        <ele>81.4</ele>
        <time>2013-04-20T08:33:37Z</time>
      </trkpt>
      <trkpt lat="48.66684" lon="-3.28974">
        <ele>82.8</ele>
        <time>2013-04-20T08:33:54Z</time>
      </trkpt>
      <trkpt lat="48.66602" lon="-3.28997">
        <ele>84.3</ele>
        <time>2013-04-20T08:34:09Z</time>
      </trkpt>
      <trkpt lat="48.66508" lon="-3.29014">
        <ele>86.2</ele>
        <time>2013-04-20T08:34:25Z</time>
      </trkpt>
      <trkpt lat="48.66412" lon="-3.29007">
        <ele>89.1</ele>
        <time>2013-04-20T08:34:42Z</time>
      </trkpt>
      <trkpt lat="48.66338" lon="-3.28996">
        <ele>92.9</ele>
        <time>2013-04-20T08:34:56Z</time>
      </trkpt>
      <trkpt lat="48.66313" lon="-3.28995">
        <ele>92.9</ele>
        <time>2013-04-20T08:35:01Z</time>
      </trkpt>
      <trkpt lat="48.66308" lon="-3.28997">
        <ele>93.4</ele>
        <time>2013-04-20T08:35:02Z</time>
      </trkpt>
      <trkpt lat="48.66243" lon="-3.29021">
        <ele>96.8</ele>
        <time>2013-04-20T08:35:15Z</time>
      </trkpt>
      <trkpt lat="48.66143" lon="-3.29047">
        <ele>95.8</ele>
        <time>2013-04-20T08:35:32Z</time>
      </trkpt>
      <trkpt lat="48.66062" lon="-3.29047">
        <ele>95.3</ele>
        <time>2013-04-20T08:35:44Z</time>
      </trkpt>
      <trkpt lat="48.66055" lon="-3.29044">
        <ele>95.3</ele>
        <time>2013-04-20T08:35:45Z</time>
      </trkpt>
      <trkpt lat="48.66049" lon="-3.2904">
        <ele>95.3</ele>
        <time>2013-04-20T08:35:46Z</time>
      </trkpt>
      <trkpt lat="48.66009" lon="-3.29015">
        <ele>95.8</ele>
        <time>2013-04-20T08:35:53Z</time>
      </trkpt>
      <trkpt lat="48.66003" lon="-3.29012">
        <ele>95.8</ele>
        <time>2013-04-20T08:35:54Z</time>
      </trkpt>
      <trkpt lat="48.65997" lon="-3.29011">
        <ele>95.8</ele>
        <time>2013-04-20T08:35:55Z</time>
      </trkpt>
      <trkpt lat="48.65991" lon="-3.2901">
        <ele>95.8</ele>
        <time>2013-04-20T08:35:56Z</time>
      </trkpt>
      <trkpt lat="48.65984" lon="-3.2901">
        <ele>95.8</ele>
        <time>2013-04-20T08:35:57Z</time>
      </trkpt>
      <trkpt lat="48.65978" lon="-3.2901">
        <ele>95.8</ele>
        <time>2013-04-20T08:35:58Z</time>
      </trkpt>
      <trkpt lat="48.65885" lon="-3.29012">
        <ele>96.3</ele>
        <time>2013-04-20T08:36:13Z</time>
      </trkpt>
      <trkpt lat="48.65783" lon="-3.28995">
        <ele>96.3</ele>
        <time>2013-04-20T08:36:29Z</time>
      </trkpt>
      <trkpt lat="48.65674" lon="-3.2897">
        <ele>96.3</ele>
        <time>2013-04-20T08:36:46Z</time>
      </trkpt>
      <trkpt lat="48.65578" lon="-3.28918">
        <ele>97.2</ele>
        <time>2013-04-20T08:37:02Z</time>
      </trkpt>
      <trkpt lat="48.65474" lon="-3.28884">
        <ele>99.2</ele>
        <time>2013-04-20T08:37:20Z</time>
      </trkpt>
      <trkpt lat="48.65383" lon="-3.28869">
        <ele>101.1</ele>
        <time>2013-04-20T08:37:36Z</time>
      </trkpt>
      <trkpt lat="48.6531" lon="-3.28817">
        <ele>103</ele>
        <time>2013-04-20T08:37:50Z</time>
      </trkpt>
      <trkpt lat="48.6527" lon="-3.28779">
        <ele>104.4</ele>
        <time>2013-04-20T08:37:59Z</time>
      </trkpt>
      <trkpt lat="48.65265" lon="-3.28775">
        <ele>104</ele>
        <time>2013-04-20T08:38:00Z</time>
      </trkpt>
      <trkpt lat="48.65259" lon="-3.28772">
        <ele>104</ele>
        <time>2013-04-20T08:38:01Z</time>
      </trkpt>
      <trkpt lat="48.65252" lon="-3.28769">
        <ele>103.5</ele>
        <time>2013-04-20T08:38:02Z</time>
      </trkpt>
      <trkpt lat="48.65245" lon="-3.28767">
        <ele>103.5</ele>
        <time>2013-04-20T08:38:03Z</time>
      </trkpt>
      <trkpt lat="48.65143" lon="-3.28736">
        <ele>102.5</ele>
        <time>2013-04-20T08:38:18Z</time>
      </trkpt>
      <trkpt lat="48.65073" lon="-3.28702">
        <ele>103</ele>
        <time>2013-04-20T08:38:30Z</time>
      </trkpt>
      <trkpt lat="48.64995" lon="-3.28723">
        <ele>102.5</ele>
        <time>2013-04-20T08:38:43Z</time>
      </trkpt>
      <trkpt lat="48.64943" lon="-3.28754">
        <ele>101.1</ele>
        <time>2013-04-20T08:38:51Z</time>
      </trkpt>
      <trkpt lat="48.64937" lon="-3.2876">
        <ele>101.1</ele>
        <time>2013-04-20T08:38:52Z</time>
      </trkpt>
      <trkpt lat="48.64931" lon="-3.28767">
        <ele>100.6</ele>
        <time>2013-04-20T08:38:53Z</time>
      </trkpt>
      <trkpt lat="48.64896" lon="-3.28807">
        <ele>99.6</ele>
        <time>2013-04-20T08:38:59Z</time>
      </trkpt>
      <trkpt lat="48.64889" lon="-3.28811">
        <ele>99.6</ele>
        <time>2013-04-20T08:39:00Z</time>
      </trkpt>
      <trkpt lat="48.64881" lon="-3.28812">
        <ele>99.6</ele>
        <time>2013-04-20T08:39:01Z</time>
      </trkpt>
      <trkpt lat="48.64874" lon="-3.28812">
        <ele>100.1</ele>
        <time>2013-04-20T08:39:02Z</time>
      </trkpt>
      <trkpt lat="48.64867" lon="-3.2881">
        <ele>99.6</ele>
        <time>2013-04-20T08:39:03Z</time>
      </trkpt>
      <trkpt lat="48.6486" lon="-3.28807">
        <ele>100.1</ele>
        <time>2013-04-20T08:39:04Z</time>
      </trkpt>
      <trkpt lat="48.64853" lon="-3.28803">
        <ele>99.6</ele>
        <time>2013-04-20T08:39:05Z</time>
      </trkpt>
      <trkpt lat="48.64753" lon="-3.2874">
        <ele>100.1</ele>
        <time>2013-04-20T08:39:21Z</time>
      </trkpt>
      <trkpt lat="48.64672" lon="-3.28718">
        <ele>102</ele>
        <time>2013-04-20T08:39:35Z</time>
      </trkpt>
      <trkpt lat="48.64578" lon="-3.28706">
        <ele>104.4</ele>
        <time>2013-04-20T08:39:52Z</time>
      </trkpt>
      <trkpt lat="48.64499" lon="-3.28696">
        <ele>106.8</ele>
        <time>2013-04-20T08:40:07Z</time>
      </trkpt>
      <trkpt lat="48.64423" lon="-3.28695">
        <ele>108.3</ele>
        <time>2013-04-20T08:40:21Z</time>
      </trkpt>
      <trkpt lat="48.64336" lon="-3.28669">
        <ele>108.3</ele>
        <time>2013-04-20T08:40:36Z</time>
      </trkpt>
      <trkpt lat="48.6432" lon="-3.28659">
        <ele>108.3</ele>
        <time>2013-04-20T08:40:39Z</time>
      </trkpt>
      <trkpt lat="48.64219" lon="-3.28593">
        <ele>109.7</ele>
        <time>2013-04-20T08:40:58Z</time>
      </trkpt>
      <trkpt lat="48.64214" lon="-3.28592">
        <ele>109.7</ele>
        <time>2013-04-20T08:40:59Z</time>
      </trkpt>
      <trkpt lat="48.64129" lon="-3.28573">
        <ele>109.7</ele>
        <time>2013-04-20T08:41:14Z</time>
      </trkpt>
      <trkpt lat="48.64052" lon="-3.28537">
        <ele>110.2</ele>
        <time>2013-04-20T08:41:27Z</time>
      </trkpt>
      <trkpt lat="48.64046" lon="-3.28538">
        <ele>110.2</ele>
        <time>2013-04-20T08:41:28Z</time>
      </trkpt>
      <trkpt lat="48.6404" lon="-3.28539">
        <ele>110.2</ele>
        <time>2013-04-20T08:41:29Z</time>
      </trkpt>
      <trkpt lat="48.64023" lon="-3.28545">
        <ele>110.7</ele>
        <time>2013-04-20T08:41:32Z</time>
      </trkpt>
      <trkpt lat="48.64018" lon="-3.28549">
        <ele>110.2</ele>
        <time>2013-04-20T08:41:33Z</time>
      </trkpt>
      <trkpt lat="48.64013" lon="-3.28553">
        <ele>110.2</ele>
        <time>2013-04-20T08:41:34Z</time>
      </trkpt>
      <trkpt lat="48.63992" lon="-3.28585">
        <ele>110.7</ele>
        <time>2013-04-20T08:41:39Z</time>
      </trkpt>
      <trkpt lat="48.63963" lon="-3.28645">
        <ele>111.2</ele>
        <time>2013-04-20T08:41:48Z</time>
      </trkpt>
      <trkpt lat="48.63892" lon="-3.28731">
        <ele>111.7</ele>
        <time>2013-04-20T08:42:04Z</time>
      </trkpt>
      <trkpt lat="48.63821" lon="-3.28803">
        <ele>112.6</ele>
        <time>2013-04-20T08:42:18Z</time>
      </trkpt>
      <trkpt lat="48.63816" lon="-3.28807">
        <ele>112.6</ele>
        <time>2013-04-20T08:42:19Z</time>
      </trkpt>
      <trkpt lat="48.63804" lon="-3.28813">
        <ele>113.1</ele>
        <time>2013-04-20T08:42:21Z</time>
      </trkpt>
      <trkpt lat="48.63757" lon="-3.28831">
        <ele>114.1</ele>
        <time>2013-04-20T08:42:29Z</time>
      </trkpt>
      <trkpt lat="48.6369" lon="-3.28892">
        <ele>116.5</ele>
        <time>2013-04-20T08:42:43Z</time>
      </trkpt>
      <trkpt lat="48.63616" lon="-3.28973">
        <ele>118.9</ele>
        <time>2013-04-20T08:43:00Z</time>
      </trkpt>
      <trkpt lat="48.63556" lon="-3.29037">
        <ele>121.3</ele>
        <time>2013-04-20T08:43:14Z</time>
      </trkpt>
      <trkpt lat="48.635" lon="-3.291">
        <ele>122.2</ele>
        <time>2013-04-20T08:43:28Z</time>
      </trkpt>
      <trkpt lat="48.63485" lon="-3.29123">
        <ele>122.7</ele>
        <time>2013-04-20T08:43:32Z</time>
      </trkpt>
      <trkpt lat="48.63454" lon="-3.29222">
        <ele>123.2</ele>
        <time>2013-04-20T08:43:45Z</time>
      </trkpt>
      <trkpt lat="48.63409" lon="-3.29374">
        <ele>123.2</ele>
        <time>2013-04-20T08:44:03Z</time>
      </trkpt>
      <trkpt lat="48.63363" lon="-3.29529">
        <ele>125.6</ele>
        <time>2013-04-20T08:44:22Z</time>
      </trkpt>
      <trkpt lat="48.6331" lon="-3.297">
        <ele>129</ele>
        <time>2013-04-20T08:44:45Z</time>
      </trkpt>
      <trkpt lat="48.63291" lon="-3.29767">
        <ele>130.4</ele>
        <time>2013-04-20T08:44:55Z</time>
      </trkpt>
      <trkpt lat="48.63287" lon="-3.29772">
        <ele>130.9</ele>
        <time>2013-04-20T08:44:56Z</time>
      </trkpt>
      <trkpt lat="48.63246" lon="-3.29823">
        <ele>133.8</ele>
        <time>2013-04-20T08:45:08Z</time>
      </trkpt>
      <trkpt lat="48.63242" lon="-3.29827">
        <ele>133.8</ele>
        <time>2013-04-20T08:45:09Z</time>
      </trkpt>
      <trkpt lat="48.63229" lon="-3.29842">
        <ele>135.2</ele>
        <time>2013-04-20T08:45:13Z</time>
      </trkpt>
      <trkpt lat="48.63225" lon="-3.29845">
        <ele>135.2</ele>
        <time>2013-04-20T08:45:14Z</time>
      </trkpt>
      <trkpt lat="48.6321" lon="-3.29861">
        <ele>137.1</ele>
        <time>2013-04-20T08:45:18Z</time>
      </trkpt>
      <trkpt lat="48.63198" lon="-3.29878">
        <ele>137.6</ele>
        <time>2013-04-20T08:45:22Z</time>
      </trkpt>
      <trkpt lat="48.63158" lon="-3.29921">
        <ele>141</ele>
        <time>2013-04-20T08:45:33Z</time>
      </trkpt>
      <trkpt lat="48.63113" lon="-3.29972">
        <ele>144.3</ele>
        <time>2013-04-20T08:45:46Z</time>
      </trkpt>
      <trkpt lat="48.6309" lon="-3.3">
        <ele>145.3</ele>
        <time>2013-04-20T08:45:53Z</time>
      </trkpt>
      <trkpt lat="48.63097" lon="-3.30091">
        <ele>144.8</ele>
        <time>2013-04-20T08:46:06Z</time>
      </trkpt>
      <trkpt lat="48.63105" lon="-3.30126">
        <ele>146.3</ele>
        <time>2013-04-20T08:46:16Z</time>
      </trkpt>
      <trkpt lat="48.63106" lon="-3.30129">
        <ele>147.2</ele>
        <time>2013-04-20T08:46:20Z</time>
      </trkpt>
      <trkpt lat="48.63105" lon="-3.30131">
        <ele>147.7</ele>
        <time>2013-04-20T08:46:21Z</time>
      </trkpt>
      <trkpt lat="48.63095" lon="-3.30132">
        <ele>148.2</ele>
        <time>2013-04-20T08:46:23Z</time>
      </trkpt>
      <trkpt lat="48.63086" lon="-3.3013">
        <ele>148.2</ele>
        <time>2013-04-20T08:46:24Z</time>
      </trkpt>
      <trkpt lat="48.63077" lon="-3.3013">
        <ele>148.2</ele>
        <time>2013-04-20T08:46:25Z</time>
      </trkpt>
      <trkpt lat="48.63068" lon="-3.30129">
        <ele>148.7</ele>
        <time>2013-04-20T08:46:26Z</time>
      </trkpt>
      <trkpt lat="48.63059" lon="-3.30128">
        <ele>149.1</ele>
        <time>2013-04-20T08:46:27Z</time>
      </trkpt>
      <trkpt lat="48.63052" lon="-3.30128">
        <ele>149.1</ele>
        <time>2013-04-20T08:46:28Z</time>
      </trkpt>
      <trkpt lat="48.63046" lon="-3.30129">
        <ele>149.6</ele>
        <time>2013-04-20T08:46:29Z</time>
      </trkpt>
      <trkpt lat="48.6304" lon="-3.30128">
        <ele>149.6</ele>
        <time>2013-04-20T08:46:30Z</time>
      </trkpt>
      <trkpt lat="48.62981" lon="-3.30126">
        <ele>152.5</ele>
        <time>2013-04-20T08:46:40Z</time>
      </trkpt>
      <trkpt lat="48.62934" lon="-3.30127">
        <ele>153.5</ele>
        <time>2013-04-20T08:46:49Z</time>
      </trkpt>
      <trkpt lat="48.62928" lon="-3.30127">
        <ele>153.5</ele>
        <time>2013-04-20T08:46:50Z</time>
      </trkpt>
      <trkpt lat="48.62901" lon="-3.30126">
        <ele>154.4</ele>
        <time>2013-04-20T08:46:55Z</time>
      </trkpt>
      <trkpt lat="48.62823" lon="-3.3013">
        <ele>154.9</ele>
        <time>2013-04-20T08:47:10Z</time>
      </trkpt>
      <trkpt lat="48.62789" lon="-3.30129">
        <ele>154.9</ele>
        <time>2013-04-20T08:47:16Z</time>
      </trkpt>
      <trkpt lat="48.62701" lon="-3.3013">
        <ele>154.4</ele>
        <time>2013-04-20T08:47:30Z</time>
      </trkpt>
      <trkpt lat="48.62631" lon="-3.30129">
        <ele>154.9</ele>
        <time>2013-04-20T08:47:42Z</time>
      </trkpt>
      <trkpt lat="48.62627" lon="-3.30131">
        <ele>154.9</ele>
        <time>2013-04-20T08:47:43Z</time>
      </trkpt>
      <trkpt lat="48.62618" lon="-3.30136">
        <ele>154.4</ele>
        <time>2013-04-20T08:47:46Z</time>
      </trkpt>
      <trkpt lat="48.62618" lon="-3.30138">
        <ele>154.4</ele>
        <time>2013-04-20T08:47:47Z</time>
      </trkpt>
      <trkpt lat="48.62618" lon="-3.30141">
        <ele>154.9</ele>
        <time>2013-04-20T08:47:48Z</time>
      </trkpt>
      <trkpt lat="48.62611" lon="-3.30162">
        <ele>154.9</ele>
        <time>2013-04-20T08:47:53Z</time>
      </trkpt>
      <trkpt lat="48.62602" lon="-3.30179">
        <ele>154.9</ele>
        <time>2013-04-20T08:47:56Z</time>
      </trkpt>
      <trkpt lat="48.626" lon="-3.30187">
        <ele>154.9</ele>
        <time>2013-04-20T08:47:57Z</time>
      </trkpt>
      <trkpt lat="48.62598" lon="-3.30194">
        <ele>154.9</ele>
        <time>2013-04-20T08:47:58Z</time>
      </trkpt>
      <trkpt lat="48.62597" lon="-3.30201">
        <ele>155.4</ele>
        <time>2013-04-20T08:47:59Z</time>
      </trkpt>
      <trkpt lat="48.62596" lon="-3.30208">
        <ele>154.9</ele>
        <time>2013-04-20T08:48:00Z</time>
      </trkpt>
      <trkpt lat="48.62597" lon="-3.30215">
        <ele>155.4</ele>
        <time>2013-04-20T08:48:01Z</time>
      </trkpt>
      <trkpt lat="48.62598" lon="-3.30222">
        <ele>155.4</ele>
        <time>2013-04-20T08:48:02Z</time>
      </trkpt>
      <trkpt lat="48.62599" lon="-3.30229">
        <ele>155.4</ele>
        <time>2013-04-20T08:48:03Z</time>
      </trkpt>
      <trkpt lat="48.62617" lon="-3.30359">
        <ele>155.9</ele>
        <time>2013-04-20T08:48:19Z</time>
      </trkpt>
      <trkpt lat="48.62616" lon="-3.30368">
        <ele>155.9</ele>
        <time>2013-04-20T08:48:20Z</time>
      </trkpt>
      <trkpt lat="48.62612" lon="-3.30396">
        <ele>155.4</ele>
        <time>2013-04-20T08:48:23Z</time>
      </trkpt>
      <trkpt lat="48.6261" lon="-3.30405">
        <ele>155.4</ele>
        <time>2013-04-20T08:48:24Z</time>
      </trkpt>
      <trkpt lat="48.62562" lon="-3.30539">
        <ele>154.9</ele>
        <time>2013-04-20T08:48:40Z</time>
      </trkpt>
      <trkpt lat="48.62542" lon="-3.30609">
        <ele>153.5</ele>
        <time>2013-04-20T08:48:47Z</time>
      </trkpt>
      <trkpt lat="48.62538" lon="-3.30619">
        <ele>153.5</ele>
        <time>2013-04-20T08:48:48Z</time>
      </trkpt>
      <trkpt lat="48.62475" lon="-3.30719">
        <ele>153.5</ele>
        <time>2013-04-20T08:49:01Z</time>
      </trkpt>
      <trkpt lat="48.62407" lon="-3.30857">
        <ele>151.1</ele>
        <time>2013-04-20T08:49:17Z</time>
      </trkpt>
      <trkpt lat="48.62369" lon="-3.30963">
        <ele>147.7</ele>
        <time>2013-04-20T08:49:26Z</time>
      </trkpt>
      <trkpt lat="48.62352" lon="-3.31013">
        <ele>146.3</ele>
        <time>2013-04-20T08:49:30Z</time>
      </trkpt>
      <trkpt lat="48.62326" lon="-3.31099">
        <ele>146.7</ele>
        <time>2013-04-20T08:49:38Z</time>
      </trkpt>
      <trkpt lat="48.62325" lon="-3.31108">
        <ele>146.7</ele>
        <time>2013-04-20T08:49:39Z</time>
      </trkpt>
      <trkpt lat="48.62325" lon="-3.31126">
        <ele>147.2</ele>
        <time>2013-04-20T08:49:41Z</time>
      </trkpt>
      <trkpt lat="48.62325" lon="-3.31135">
        <ele>147.7</ele>
        <time>2013-04-20T08:49:42Z</time>
      </trkpt>
      <trkpt lat="48.62339" lon="-3.31248">
        <ele>149.1</ele>
        <time>2013-04-20T08:49:55Z</time>
      </trkpt>
      <trkpt lat="48.62329" lon="-3.3135">
        <ele>149.1</ele>
        <time>2013-04-20T08:50:06Z</time>
      </trkpt>
      <trkpt lat="48.62327" lon="-3.31378">
        <ele>149.1</ele>
        <time>2013-04-20T08:50:09Z</time>
      </trkpt>
      <trkpt lat="48.62327" lon="-3.31387">
        <ele>149.6</ele>
        <time>2013-04-20T08:50:10Z</time>
      </trkpt>
      <trkpt lat="48.62339" lon="-3.31504">
        <ele>151.5</ele>
        <time>2013-04-20T08:50:23Z</time>
      </trkpt>
      <trkpt lat="48.6233" lon="-3.31574">
        <ele>152.5</ele>
        <time>2013-04-20T08:50:31Z</time>
      </trkpt>
      <trkpt lat="48.62285" lon="-3.31683">
        <ele>152.5</ele>
        <time>2013-04-20T08:50:45Z</time>
      </trkpt>
      <trkpt lat="48.62278" lon="-3.31699">
        <ele>153</ele>
        <time>2013-04-20T08:50:47Z</time>
      </trkpt>
      <trkpt lat="48.62276" lon="-3.31708">
        <ele>153</ele>
        <time>2013-04-20T08:50:48Z</time>
      </trkpt>
      <trkpt lat="48.62273" lon="-3.31718">
        <ele>153</ele>
        <time>2013-04-20T08:50:49Z</time>
      </trkpt>
      <trkpt lat="48.62271" lon="-3.31728">
        <ele>152.5</ele>
        <time>2013-04-20T08:50:50Z</time>
      </trkpt>
      <trkpt lat="48.6227" lon="-3.31738">
        <ele>152.5</ele>
        <time>2013-04-20T08:50:51Z</time>
      </trkpt>
      <trkpt lat="48.62248" lon="-3.31918">
        <ele>150.6</ele>
        <time>2013-04-20T08:51:07Z</time>
      </trkpt>
      <trkpt lat="48.62228" lon="-3.32106">
        <ele>149.1</ele>
        <time>2013-04-20T08:51:24Z</time>
      </trkpt>
      <trkpt lat="48.62226" lon="-3.32163">
        <ele>145.8</ele>
        <time>2013-04-20T08:51:28Z</time>
      </trkpt>
      <trkpt lat="48.62217" lon="-3.32318">
        <ele>141.9</ele>
        <time>2013-04-20T08:51:38Z</time>
      </trkpt>
      <trkpt lat="48.62202" lon="-3.3243">
        <ele>139.1</ele>
        <time>2013-04-20T08:51:46Z</time>
      </trkpt>
      <trkpt lat="48.62187" lon="-3.32554">
        <ele>140.5</ele>
        <time>2013-04-20T08:51:57Z</time>
      </trkpt>
      <trkpt lat="48.62185" lon="-3.32568">
        <ele>141.5</ele>
        <time>2013-04-20T08:51:59Z</time>
      </trkpt>
      <trkpt lat="48.62181" lon="-3.32604">
        <ele>141.9</ele>
        <time>2013-04-20T08:52:04Z</time>
      </trkpt>
      <trkpt lat="48.62144" lon="-3.32737">
        <ele>143.4</ele>
        <time>2013-04-20T08:52:21Z</time>
      </trkpt>
      <trkpt lat="48.62135" lon="-3.32758">
        <ele>143.4</ele>
        <time>2013-04-20T08:52:28Z</time>
      </trkpt>
      <trkpt lat="48.62134" lon="-3.3276">
        <ele>143.4</ele>
        <time>2013-04-20T08:52:29Z</time>
      </trkpt>
      <trkpt lat="48.62133" lon="-3.32762">
        <ele>142.9</ele>
        <time>2013-04-20T08:52:30Z</time>
      </trkpt>
      <trkpt lat="48.62131" lon="-3.32766">
        <ele>143.4</ele>
        <time>2013-04-20T08:52:31Z</time>
      </trkpt>
      <trkpt lat="48.62129" lon="-3.3277">
        <ele>143.4</ele>
        <time>2013-04-20T08:52:32Z</time>
      </trkpt>
      <trkpt lat="48.62127" lon="-3.32775">
        <ele>143.9</ele>
        <time>2013-04-20T08:52:33Z</time>
      </trkpt>
      <trkpt lat="48.62111" lon="-3.32834">
        <ele>143.4</ele>
        <time>2013-04-20T08:52:41Z</time>
      </trkpt>
      <trkpt lat="48.62089" lon="-3.32967">
        <ele>144.8</ele>
        <time>2013-04-20T08:52:57Z</time>
      </trkpt>
      <trkpt lat="48.62083" lon="-3.33016">
        <ele>145.8</ele>
        <time>2013-04-20T08:53:03Z</time>
      </trkpt>
      <trkpt lat="48.6207" lon="-3.33148">
        <ele>143.4</ele>
        <time>2013-04-20T08:53:16Z</time>
      </trkpt>
      <trkpt lat="48.62026" lon="-3.33262">
        <ele>141.9</ele>
        <time>2013-04-20T08:53:28Z</time>
      </trkpt>
      <trkpt lat="48.61984" lon="-3.33425">
        <ele>139.1</ele>
        <time>2013-04-20T08:53:42Z</time>
      </trkpt>
      <trkpt lat="48.61965" lon="-3.3352">
        <ele>136.2</ele>
        <time>2013-04-20T08:53:49Z</time>
      </trkpt>
      <trkpt lat="48.61962" lon="-3.33534">
        <ele>136.2</ele>
        <time>2013-04-20T08:53:50Z</time>
      </trkpt>
      <trkpt lat="48.61924" lon="-3.33661">
        <ele>133.3</ele>
        <time>2013-04-20T08:54:00Z</time>
      </trkpt>
      <trkpt lat="48.61918" lon="-3.33671">
        <ele>133.3</ele>
        <time>2013-04-20T08:54:01Z</time>
      </trkpt>
      <trkpt lat="48.61838" lon="-3.3378">
        <ele>133.3</ele>
        <time>2013-04-20T08:54:14Z</time>
      </trkpt>
      <trkpt lat="48.61763" lon="-3.33922">
        <ele>131.4</ele>
        <time>2013-04-20T08:54:29Z</time>
      </trkpt>
      <trkpt lat="48.61745" lon="-3.33951">
        <ele>130.9</ele>
        <time>2013-04-20T08:54:32Z</time>
      </trkpt>
      <trkpt lat="48.61738" lon="-3.33959">
        <ele>130.9</ele>
        <time>2013-04-20T08:54:33Z</time>
      </trkpt>
      <trkpt lat="48.61731" lon="-3.33966">
        <ele>130.9</ele>
        <time>2013-04-20T08:54:34Z</time>
      </trkpt>
      <trkpt lat="48.61724" lon="-3.33971">
        <ele>130.4</ele>
        <time>2013-04-20T08:54:35Z</time>
      </trkpt>
      <trkpt lat="48.61716" lon="-3.33976">
        <ele>130.4</ele>
        <time>2013-04-20T08:54:36Z</time>
      </trkpt>
      <trkpt lat="48.61684" lon="-3.33995">
        <ele>127.5</ele>
        <time>2013-04-20T08:54:40Z</time>
      </trkpt>
      <trkpt lat="48.61641" lon="-3.34032">
        <ele>125.1</ele>
        <time>2013-04-20T08:54:45Z</time>
      </trkpt>
      <trkpt lat="48.61567" lon="-3.34107">
        <ele>125.1</ele>
        <time>2013-04-20T08:54:55Z</time>
      </trkpt>
      <trkpt lat="48.61529" lon="-3.34174">
        <ele>128.5</ele>
        <time>2013-04-20T08:55:06Z</time>
      </trkpt>
      <trkpt lat="48.61502" lon="-3.3423">
        <ele>131.4</ele>
        <time>2013-04-20T08:55:16Z</time>
      </trkpt>
      <trkpt lat="48.61469" lon="-3.34317">
        <ele>134.7</ele>
        <time>2013-04-20T08:55:30Z</time>
      </trkpt>
      <trkpt lat="48.61443" lon="-3.34399">
        <ele>137.6</ele>
        <time>2013-04-20T08:55:43Z</time>
      </trkpt>
      <trkpt lat="48.61411" lon="-3.34486">
        <ele>141</ele>
        <time>2013-04-20T08:55:57Z</time>
      </trkpt>
      <trkpt lat="48.61381" lon="-3.34582">
        <ele>143.9</ele>
        <time>2013-04-20T08:56:12Z</time>
      </trkpt>
      <trkpt lat="48.61355" lon="-3.34689">
        <ele>144.8</ele>
        <time>2013-04-20T08:56:27Z</time>
      </trkpt>
      <trkpt lat="48.61314" lon="-3.34808">
        <ele>147.2</ele>
        <time>2013-04-20T08:56:44Z</time>
      </trkpt>
      <trkpt lat="48.61251" lon="-3.34913">
        <ele>150.1</ele>
        <time>2013-04-20T08:57:02Z</time>
      </trkpt>
      <trkpt lat="48.61209" lon="-3.3498">
        <ele>153</ele>
        <time>2013-04-20T08:57:15Z</time>
      </trkpt>
      <trkpt lat="48.61176" lon="-3.35024">
        <ele>155.4</ele>
        <time>2013-04-20T08:57:25Z</time>
      </trkpt>
      <trkpt lat="48.61172" lon="-3.35035">
        <ele>155.9</ele>
        <time>2013-04-20T08:57:27Z</time>
      </trkpt>
      <trkpt lat="48.61152" lon="-3.35117">
        <ele>156.8</ele>
        <time>2013-04-20T08:57:39Z</time>
      </trkpt>
      <trkpt lat="48.61114" lon="-3.35229">
        <ele>155.4</ele>
        <time>2013-04-20T08:57:52Z</time>
      </trkpt>
      <trkpt lat="48.61049" lon="-3.35405">
        <ele>154.4</ele>
        <time>2013-04-20T08:58:11Z</time>
      </trkpt>
      <trkpt lat="48.61005" lon="-3.35558">
        <ele>152.5</ele>
        <time>2013-04-20T08:58:27Z</time>
      </trkpt>
      <trkpt lat="48.60997" lon="-3.35574">
        <ele>152</ele>
        <time>2013-04-20T08:58:29Z</time>
      </trkpt>
      <trkpt lat="48.60991" lon="-3.3558">
        <ele>152</ele>
        <time>2013-04-20T08:58:30Z</time>
      </trkpt>
      <trkpt lat="48.60985" lon="-3.35586">
        <ele>152</ele>
        <time>2013-04-20T08:58:31Z</time>
      </trkpt>
      <trkpt lat="48.60978" lon="-3.3559">
        <ele>152</ele>
        <time>2013-04-20T08:58:32Z</time>
      </trkpt>
      <trkpt lat="48.60971" lon="-3.35594">
        <ele>152</ele>
        <time>2013-04-20T08:58:33Z</time>
      </trkpt>
      <trkpt lat="48.60935" lon="-3.3561">
        <ele>152</ele>
        <time>2013-04-20T08:58:38Z</time>
      </trkpt>
      <trkpt lat="48.60929" lon="-3.35614">
        <ele>152</ele>
        <time>2013-04-20T08:58:39Z</time>
      </trkpt>
      <trkpt lat="48.60923" lon="-3.3562">
        <ele>152</ele>
        <time>2013-04-20T08:58:40Z</time>
      </trkpt>
      <trkpt lat="48.60917" lon="-3.35627">
        <ele>152</ele>
        <time>2013-04-20T08:58:41Z</time>
      </trkpt>
      <trkpt lat="48.60912" lon="-3.35634">
        <ele>152</ele>
        <time>2013-04-20T08:58:42Z</time>
      </trkpt>
      <trkpt lat="48.60908" lon="-3.35643">
        <ele>152</ele>
        <time>2013-04-20T08:58:43Z</time>
      </trkpt>
      <trkpt lat="48.60904" lon="-3.35652">
        <ele>152.5</ele>
        <time>2013-04-20T08:58:44Z</time>
      </trkpt>
      <trkpt lat="48.60901" lon="-3.35661">
        <ele>152</ele>
        <time>2013-04-20T08:58:45Z</time>
      </trkpt>
      <trkpt lat="48.60896" lon="-3.35679">
        <ele>152</ele>
        <time>2013-04-20T08:58:47Z</time>
      </trkpt>
      <trkpt lat="48.60883" lon="-3.35807">
        <ele>151.5</ele>
        <time>2013-04-20T08:59:00Z</time>
      </trkpt>
      <trkpt lat="48.60892" lon="-3.35966">
        <ele>150.1</ele>
        <time>2013-04-20T08:59:15Z</time>
      </trkpt>
      <trkpt lat="48.60897" lon="-3.36089">
        <ele>149.1</ele>
        <time>2013-04-20T08:59:27Z</time>
      </trkpt>
      <trkpt lat="48.6088" lon="-3.36228">
        <ele>149.1</ele>
        <time>2013-04-20T08:59:41Z</time>
      </trkpt>
      <trkpt lat="48.60879" lon="-3.36238">
        <ele>149.1</ele>
        <time>2013-04-20T08:59:42Z</time>
      </trkpt>
      <trkpt lat="48.60897" lon="-3.36367">
        <ele>149.6</ele>
        <time>2013-04-20T08:59:55Z</time>
      </trkpt>
      <trkpt lat="48.60921" lon="-3.36467">
        <ele>149.6</ele>
        <time>2013-04-20T09:00:06Z</time>
      </trkpt>
      <trkpt lat="48.60924" lon="-3.36475">
        <ele>150.1</ele>
        <time>2013-04-20T09:00:07Z</time>
      </trkpt>
      <trkpt lat="48.60927" lon="-3.36483">
        <ele>150.1</ele>
        <time>2013-04-20T09:00:08Z</time>
      </trkpt>
      <trkpt lat="48.60935" lon="-3.36496">
        <ele>150.1</ele>
        <time>2013-04-20T09:00:10Z</time>
      </trkpt>
      <trkpt lat="48.60948" lon="-3.36513">
        <ele>150.6</ele>
        <time>2013-04-20T09:00:13Z</time>
      </trkpt>
      <trkpt lat="48.6101" lon="-3.36587">
        <ele>150.1</ele>
        <time>2013-04-20T09:00:26Z</time>
      </trkpt>
      <trkpt lat="48.61069" lon="-3.36695">
        <ele>149.6</ele>
        <time>2013-04-20T09:00:40Z</time>
      </trkpt>
      <trkpt lat="48.61122" lon="-3.36801">
        <ele>149.6</ele>
        <time>2013-04-20T09:00:54Z</time>
      </trkpt>
      <trkpt lat="48.61175" lon="-3.36937">
        <ele>152</ele>
        <time>2013-04-20T09:01:12Z</time>
      </trkpt>
      <trkpt lat="48.61202" lon="-3.37074">
        <ele>154.4</ele>
        <time>2013-04-20T09:01:28Z</time>
      </trkpt>
      <trkpt lat="48.61222" lon="-3.37189">
        <ele>157.8</ele>
        <time>2013-04-20T09:01:43Z</time>
      </trkpt>
      <trkpt lat="48.61227" lon="-3.37303">
        <ele>161.2</ele>
        <time>2013-04-20T09:01:58Z</time>
      </trkpt>
      <trkpt lat="48.61234" lon="-3.37403">
        <ele>164</ele>
        <time>2013-04-20T09:02:11Z</time>
      </trkpt>
      <trkpt lat="48.61238" lon="-3.37458">
        <ele>166.9</ele>
        <time>2013-04-20T09:02:19Z</time>
      </trkpt>
      <trkpt lat="48.61244" lon="-3.37506">
        <ele>168.9</ele>
        <time>2013-04-20T09:02:26Z</time>
      </trkpt>
      <trkpt lat="48.61244" lon="-3.37513">
        <ele>168.9</ele>
        <time>2013-04-20T09:02:27Z</time>
      </trkpt>
      <trkpt lat="48.61244" lon="-3.3752">
        <ele>169.3</ele>
        <time>2013-04-20T09:02:28Z</time>
      </trkpt>
      <trkpt lat="48.61245" lon="-3.37528">
        <ele>169.8</ele>
        <time>2013-04-20T09:02:29Z</time>
      </trkpt>
      <trkpt lat="48.61245" lon="-3.37535">
        <ele>169.3</ele>
        <time>2013-04-20T09:02:30Z</time>
      </trkpt>
      <trkpt lat="48.61246" lon="-3.37664">
        <ele>170.3</ele>
        <time>2013-04-20T09:02:46Z</time>
      </trkpt>
      <trkpt lat="48.61223" lon="-3.37853">
        <ele>170.3</ele>
        <time>2013-04-20T09:03:07Z</time>
      </trkpt>
      <trkpt lat="48.61206" lon="-3.38013">
        <ele>169.3</ele>
        <time>2013-04-20T09:03:25Z</time>
      </trkpt>
      <trkpt lat="48.61199" lon="-3.38154">
        <ele>166</ele>
        <time>2013-04-20T09:03:38Z</time>
      </trkpt>
      <trkpt lat="48.61198" lon="-3.38179">
        <ele>165</ele>
        <time>2013-04-20T09:03:40Z</time>
      </trkpt>
      <trkpt lat="48.6119" lon="-3.38278">
        <ele>162.1</ele>
        <time>2013-04-20T09:03:47Z</time>
      </trkpt>
      <trkpt lat="48.61189" lon="-3.3831">
        <ele>160.7</ele>
        <time>2013-04-20T09:03:49Z</time>
      </trkpt>
      <trkpt lat="48.61184" lon="-3.38382">
        <ele>156.8</ele>
        <time>2013-04-20T09:03:53Z</time>
      </trkpt>
      <trkpt lat="48.6118" lon="-3.3842">
        <ele>153.5</ele>
        <time>2013-04-20T09:03:55Z</time>
      </trkpt>
      <trkpt lat="48.61174" lon="-3.3848">
        <ele>150.1</ele>
        <time>2013-04-20T09:03:58Z</time>
      </trkpt>
      <trkpt lat="48.6117" lon="-3.38541">
        <ele>147.2</ele>
        <time>2013-04-20T09:04:01Z</time>
      </trkpt>
      <trkpt lat="48.61171" lon="-3.38561">
        <ele>146.3</ele>
        <time>2013-04-20T09:04:02Z</time>
      </trkpt>
      <trkpt lat="48.61174" lon="-3.38581">
        <ele>145.8</ele>
        <time>2013-04-20T09:04:03Z</time>
      </trkpt>
      <trkpt lat="48.61178" lon="-3.386">
        <ele>144.3</ele>
        <time>2013-04-20T09:04:04Z</time>
      </trkpt>
      <trkpt lat="48.61182" lon="-3.38619">
        <ele>143.9</ele>
        <time>2013-04-20T09:04:05Z</time>
      </trkpt>
      <trkpt lat="48.61187" lon="-3.38637">
        <ele>142.9</ele>
        <time>2013-04-20T09:04:06Z</time>
      </trkpt>
      <trkpt lat="48.61212" lon="-3.38713">
        <ele>139.1</ele>
        <time>2013-04-20T09:04:11Z</time>
      </trkpt>
      <trkpt lat="48.6122" lon="-3.3875">
        <ele>136.2</ele>
        <time>2013-04-20T09:04:15Z</time>
      </trkpt>
      <trkpt lat="48.6122" lon="-3.38756">
        <ele>136.2</ele>
        <time>2013-04-20T09:04:16Z</time>
      </trkpt>
      <trkpt lat="48.6122" lon="-3.38763">
        <ele>136.2</ele>
        <time>2013-04-20T09:04:17Z</time>
      </trkpt>
      <trkpt lat="48.61212" lon="-3.38878">
        <ele>134.2</ele>
        <time>2013-04-20T09:04:31Z</time>
      </trkpt>
      <trkpt lat="48.61206" lon="-3.38968">
        <ele>131.4</ele>
        <time>2013-04-20T09:04:39Z</time>
      </trkpt>
      <trkpt lat="48.61199" lon="-3.39128">
        <ele>128.5</ele>
        <time>2013-04-20T09:04:54Z</time>
      </trkpt>
      <trkpt lat="48.61206" lon="-3.39184">
        <ele>125.1</ele>
        <time>2013-04-20T09:04:58Z</time>
      </trkpt>
      <trkpt lat="48.61207" lon="-3.39215">
        <ele>124.2</ele>
        <time>2013-04-20T09:05:00Z</time>
      </trkpt>
      <trkpt lat="48.61205" lon="-3.39249">
        <ele>121.7</ele>
        <time>2013-04-20T09:05:02Z</time>
      </trkpt>
      <trkpt lat="48.61203" lon="-3.39265">
        <ele>121.3</ele>
        <time>2013-04-20T09:05:03Z</time>
      </trkpt>
      <trkpt lat="48.61184" lon="-3.39376">
        <ele>120.8</ele>
        <time>2013-04-20T09:05:12Z</time>
      </trkpt>
      <trkpt lat="48.61158" lon="-3.3949">
        <ele>118.4</ele>
        <time>2013-04-20T09:05:24Z</time>
      </trkpt>
      <trkpt lat="48.61144" lon="-3.39609">
        <ele>114.1</ele>
        <time>2013-04-20T09:05:35Z</time>
      </trkpt>
      <trkpt lat="48.61144" lon="-3.39657">
        <ele>111.7</ele>
        <time>2013-04-20T09:05:40Z</time>
      </trkpt>
      <trkpt lat="48.61143" lon="-3.39664">
        <ele>111.2</ele>
        <time>2013-04-20T09:05:41Z</time>
      </trkpt>
      <trkpt lat="48.61141" lon="-3.3967">
        <ele>110.7</ele>
        <time>2013-04-20T09:05:42Z</time>
      </trkpt>
      <trkpt lat="48.61138" lon="-3.39675">
        <ele>110.7</ele>
        <time>2013-04-20T09:05:43Z</time>
      </trkpt>
      <trkpt lat="48.61133" lon="-3.39677">
        <ele>110.7</ele>
        <time>2013-04-20T09:05:44Z</time>
      </trkpt>
      <trkpt lat="48.61127" lon="-3.39677">
        <ele>110.7</ele>
        <time>2013-04-20T09:05:45Z</time>
      </trkpt>
      <trkpt lat="48.61122" lon="-3.39677">
        <ele>110.7</ele>
        <time>2013-04-20T09:05:46Z</time>
      </trkpt>
      <trkpt lat="48.61063" lon="-3.39675">
        <ele>111.2</ele>
        <time>2013-04-20T09:05:59Z</time>
      </trkpt>
      <trkpt lat="48.61062" lon="-3.39673">
        <ele>111.7</ele>
        <time>2013-04-20T09:06:01Z</time>
      </trkpt>
      <trkpt lat="48.61064" lon="-3.39672">
        <ele>111.7</ele>
        <time>2013-04-20T09:06:02Z</time>
      </trkpt>
      <trkpt lat="48.61066" lon="-3.39671">
        <ele>112.1</ele>
        <time>2013-04-20T09:06:03Z</time>
      </trkpt>
      <trkpt lat="48.61069" lon="-3.3967">
        <ele>111.7</ele>
        <time>2013-04-20T09:06:04Z</time>
      </trkpt>
      <trkpt lat="48.61072" lon="-3.39669">
        <ele>112.1</ele>
        <time>2013-04-20T09:06:05Z</time>
      </trkpt>
      <trkpt lat="48.61091" lon="-3.39652">
        <ele>111.7</ele>
        <time>2013-04-20T09:06:15Z</time>
      </trkpt>
      <trkpt lat="48.61093" lon="-3.396">
        <ele>114.5</ele>
        <time>2013-04-20T09:06:28Z</time>
      </trkpt>
      <trkpt lat="48.61088" lon="-3.39535">
        <ele>117.4</ele>
        <time>2013-04-20T09:06:42Z</time>
      </trkpt>
      <trkpt lat="48.61081" lon="-3.39497">
        <ele>119.8</ele>
        <time>2013-04-20T09:06:53Z</time>
      </trkpt>
      <trkpt lat="48.61083" lon="-3.3949">
        <ele>120.3</ele>
        <time>2013-04-20T09:07:07Z</time>
      </trkpt>
      <trkpt lat="48.61085" lon="-3.39487">
        <ele>119.8</ele>
        <time>2013-04-20T09:07:20Z</time>
      </trkpt>
      <trkpt lat="48.61085" lon="-3.39487">
        <ele>119.8</ele>
        <time>2013-04-20T09:07:53Z</time>
      </trkpt>
      <trkpt lat="48.61085" lon="-3.3949">
        <ele>119.8</ele>
        <time>2013-04-20T09:08:10Z</time>
      </trkpt>
      <trkpt lat="48.61085" lon="-3.3949">
        <ele>119.8</ele>
        <time>2013-04-20T09:08:42Z</time>
      </trkpt>
      <trkpt lat="48.61086" lon="-3.3949">
        <ele>119.8</ele>
        <time>2013-04-20T09:09:14Z</time>
      </trkpt>
      <trkpt lat="48.61084" lon="-3.3949">
        <ele>119.8</ele>
        <time>2013-04-20T09:09:45Z</time>
      </trkpt>
      <trkpt lat="48.61084" lon="-3.39491">
        <ele>119.3</ele>
        <time>2013-04-20T09:09:56Z</time>
      </trkpt>
      <trkpt lat="48.61084" lon="-3.39493">
        <ele>119.3</ele>
        <time>2013-04-20T09:09:57Z</time>
      </trkpt>
      <trkpt lat="48.61085" lon="-3.39495">
        <ele>119.8</ele>
        <time>2013-04-20T09:09:58Z</time>
      </trkpt>
      <trkpt lat="48.61085" lon="-3.39498">
        <ele>119.3</ele>
        <time>2013-04-20T09:09:59Z</time>
      </trkpt>
      <trkpt lat="48.61086" lon="-3.39502">
        <ele>119.3</ele>
        <time>2013-04-20T09:10:00Z</time>
      </trkpt>
      <trkpt lat="48.61088" lon="-3.39509">
        <ele>118.9</ele>
        <time>2013-04-20T09:10:01Z</time>
      </trkpt>
      <trkpt lat="48.61089" lon="-3.39516">
        <ele>118.9</ele>
        <time>2013-04-20T09:10:02Z</time>
      </trkpt>
      <trkpt lat="48.6109" lon="-3.39524">
        <ele>118.9</ele>
        <time>2013-04-20T09:10:03Z</time>
      </trkpt>
      <trkpt lat="48.61096" lon="-3.39601">
        <ele>115.5</ele>
        <time>2013-04-20T09:10:12Z</time>
      </trkpt>
      <trkpt lat="48.61096" lon="-3.3961">
        <ele>115.5</ele>
        <time>2013-04-20T09:10:13Z</time>
      </trkpt>
      <trkpt lat="48.61093" lon="-3.39655">
        <ele>112.1</ele>
        <time>2013-04-20T09:10:19Z</time>
      </trkpt>
      <trkpt lat="48.61092" lon="-3.39664">
        <ele>111.2</ele>
        <time>2013-04-20T09:10:21Z</time>
      </trkpt>
      <trkpt lat="48.61092" lon="-3.3967">
        <ele>110.7</ele>
        <time>2013-04-20T09:10:23Z</time>
      </trkpt>
      <trkpt lat="48.61094" lon="-3.39672">
        <ele>110.7</ele>
        <time>2013-04-20T09:10:24Z</time>
      </trkpt>
      <trkpt lat="48.61097" lon="-3.39672">
        <ele>110.7</ele>
        <time>2013-04-20T09:10:25Z</time>
      </trkpt>
      <trkpt lat="48.61101" lon="-3.39673">
        <ele>110.7</ele>
        <time>2013-04-20T09:10:26Z</time>
      </trkpt>
      <trkpt lat="48.61106" lon="-3.39674">
        <ele>111.7</ele>
        <time>2013-04-20T09:10:27Z</time>
      </trkpt>
      <trkpt lat="48.61115" lon="-3.39675">
        <ele>111.7</ele>
        <time>2013-04-20T09:10:29Z</time>
      </trkpt>
      <trkpt lat="48.61149" lon="-3.39677">
        <ele>110.7</ele>
        <time>2013-04-20T09:10:38Z</time>
      </trkpt>
      <trkpt lat="48.61152" lon="-3.39682">
        <ele>110.7</ele>
        <time>2013-04-20T09:10:39Z</time>
      </trkpt>
      <trkpt lat="48.61154" lon="-3.39689">
        <ele>110.7</ele>
        <time>2013-04-20T09:10:40Z</time>
      </trkpt>
      <trkpt lat="48.61179" lon="-3.39799">
        <ele>108.3</ele>
        <time>2013-04-20T09:10:52Z</time>
      </trkpt>
      <trkpt lat="48.6118" lon="-3.39847">
        <ele>106.8</ele>
        <time>2013-04-20T09:10:59Z</time>
      </trkpt>
      <trkpt lat="48.61178" lon="-3.39961">
        <ele>105.9</ele>
        <time>2013-04-20T09:11:12Z</time>
      </trkpt>
      <trkpt lat="48.61192" lon="-3.40046">
        <ele>105.4</ele>
        <time>2013-04-20T09:11:21Z</time>
      </trkpt>
      <trkpt lat="48.61193" lon="-3.40056">
        <ele>105.4</ele>
        <time>2013-04-20T09:11:22Z</time>
      </trkpt>
      <trkpt lat="48.61179" lon="-3.40203">
        <ele>104</ele>
        <time>2013-04-20T09:11:37Z</time>
      </trkpt>
      <trkpt lat="48.61166" lon="-3.40325">
        <ele>100.6</ele>
        <time>2013-04-20T09:11:47Z</time>
      </trkpt>
      <trkpt lat="48.61133" lon="-3.40506">
        <ele>97.7</ele>
        <time>2013-04-20T09:12:01Z</time>
      </trkpt>
      <trkpt lat="48.61091" lon="-3.40623">
        <ele>94.4</ele>
        <time>2013-04-20T09:12:11Z</time>
      </trkpt>
      <trkpt lat="48.61085" lon="-3.40632">
        <ele>94.4</ele>
        <time>2013-04-20T09:12:12Z</time>
      </trkpt>
      <trkpt lat="48.61078" lon="-3.4064">
        <ele>93.9</ele>
        <time>2013-04-20T09:12:13Z</time>
      </trkpt>
      <trkpt lat="48.6107" lon="-3.40647">
        <ele>93.9</ele>
        <time>2013-04-20T09:12:14Z</time>
      </trkpt>
      <trkpt lat="48.61062" lon="-3.40652">
        <ele>93.4</ele>
        <time>2013-04-20T09:12:15Z</time>
      </trkpt>
      <trkpt lat="48.61053" lon="-3.40656">
        <ele>93.4</ele>
        <time>2013-04-20T09:12:16Z</time>
      </trkpt>
      <trkpt lat="48.61044" lon="-3.40658">
        <ele>93.4</ele>
        <time>2013-04-20T09:12:17Z</time>
      </trkpt>
      <trkpt lat="48.60967" lon="-3.40679">
        <ele>90.5</ele>
        <time>2013-04-20T09:12:26Z</time>
      </trkpt>
      <trkpt lat="48.60959" lon="-3.40684">
        <ele>90</ele>
        <time>2013-04-20T09:12:27Z</time>
      </trkpt>
      <trkpt lat="48.6095" lon="-3.4069">
        <ele>90</ele>
        <time>2013-04-20T09:12:28Z</time>
      </trkpt>
      <trkpt lat="48.60942" lon="-3.40696">
        <ele>89.5</ele>
        <time>2013-04-20T09:12:29Z</time>
      </trkpt>
      <trkpt lat="48.60935" lon="-3.40704">
        <ele>89.1</ele>
        <time>2013-04-20T09:12:30Z</time>
      </trkpt>
      <trkpt lat="48.60928" lon="-3.40714">
        <ele>89.1</ele>
        <time>2013-04-20T09:12:31Z</time>
      </trkpt>
      <trkpt lat="48.60921" lon="-3.40724">
        <ele>88.6</ele>
        <time>2013-04-20T09:12:32Z</time>
      </trkpt>
      <trkpt lat="48.60877" lon="-3.40799">
        <ele>86.7</ele>
        <time>2013-04-20T09:12:39Z</time>
      </trkpt>
      <trkpt lat="48.60844" lon="-3.40852">
        <ele>83.3</ele>
        <time>2013-04-20T09:12:44Z</time>
      </trkpt>
      <trkpt lat="48.60829" lon="-3.40867">
        <ele>83.3</ele>
        <time>2013-04-20T09:12:46Z</time>
      </trkpt>
      <trkpt lat="48.6082" lon="-3.40872">
        <ele>82.3</ele>
        <time>2013-04-20T09:12:47Z</time>
      </trkpt>
      <trkpt lat="48.60802" lon="-3.40879">
        <ele>81.4</ele>
        <time>2013-04-20T09:12:49Z</time>
      </trkpt>
      <trkpt lat="48.60739" lon="-3.40899">
        <ele>81.4</ele>
        <time>2013-04-20T09:12:56Z</time>
      </trkpt>
      <trkpt lat="48.60731" lon="-3.40905">
        <ele>81.9</ele>
        <time>2013-04-20T09:12:57Z</time>
      </trkpt>
      <trkpt lat="48.60725" lon="-3.40912">
        <ele>81.4</ele>
        <time>2013-04-20T09:12:58Z</time>
      </trkpt>
      <trkpt lat="48.60719" lon="-3.4092">
        <ele>81.4</ele>
        <time>2013-04-20T09:12:59Z</time>
      </trkpt>
      <trkpt lat="48.60713" lon="-3.4093">
        <ele>81.4</ele>
        <time>2013-04-20T09:13:00Z</time>
      </trkpt>
      <trkpt lat="48.60709" lon="-3.40939">
        <ele>82.3</ele>
        <time>2013-04-20T09:13:01Z</time>
      </trkpt>
      <trkpt lat="48.60705" lon="-3.40949">
        <ele>81.4</ele>
        <time>2013-04-20T09:13:02Z</time>
      </trkpt>
      <trkpt lat="48.60702" lon="-3.40959">
        <ele>81.4</ele>
        <time>2013-04-20T09:13:03Z</time>
      </trkpt>
      <trkpt lat="48.60699" lon="-3.40969">
        <ele>81.4</ele>
        <time>2013-04-20T09:13:04Z</time>
      </trkpt>
      <trkpt lat="48.60662" lon="-3.41106">
        <ele>81.9</ele>
        <time>2013-04-20T09:13:18Z</time>
      </trkpt>
      <trkpt lat="48.60621" lon="-3.41261">
        <ele>81.4</ele>
        <time>2013-04-20T09:13:35Z</time>
      </trkpt>
      <trkpt lat="48.6061" lon="-3.41284">
        <ele>81.4</ele>
        <time>2013-04-20T09:13:38Z</time>
      </trkpt>
      <trkpt lat="48.60605" lon="-3.41291">
        <ele>81.4</ele>
        <time>2013-04-20T09:13:39Z</time>
      </trkpt>
      <trkpt lat="48.606" lon="-3.41296">
        <ele>81.4</ele>
        <time>2013-04-20T09:13:40Z</time>
      </trkpt>
      <trkpt lat="48.60594" lon="-3.41301">
        <ele>81.4</ele>
        <time>2013-04-20T09:13:41Z</time>
      </trkpt>
      <trkpt lat="48.60588" lon="-3.41306">
        <ele>81.9</ele>
        <time>2013-04-20T09:13:42Z</time>
      </trkpt>
      <trkpt lat="48.60583" lon="-3.4131">
        <ele>81.9</ele>
        <time>2013-04-20T09:13:43Z</time>
      </trkpt>
      <trkpt lat="48.6056" lon="-3.41329">
        <ele>80.9</ele>
        <time>2013-04-20T09:13:47Z</time>
      </trkpt>
      <trkpt lat="48.60555" lon="-3.41336">
        <ele>80.9</ele>
        <time>2013-04-20T09:13:48Z</time>
      </trkpt>
      <trkpt lat="48.60552" lon="-3.41345">
        <ele>80.9</ele>
        <time>2013-04-20T09:13:49Z</time>
      </trkpt>
      <trkpt lat="48.60549" lon="-3.41354">
        <ele>80.9</ele>
        <time>2013-04-20T09:13:50Z</time>
      </trkpt>
      <trkpt lat="48.60547" lon="-3.41364">
        <ele>80.4</ele>
        <time>2013-04-20T09:13:51Z</time>
      </trkpt>
      <trkpt lat="48.60545" lon="-3.41374">
        <ele>80.4</ele>
        <time>2013-04-20T09:13:52Z</time>
      </trkpt>
      <trkpt lat="48.60544" lon="-3.41384">
        <ele>80.4</ele>
        <time>2013-04-20T09:13:53Z</time>
      </trkpt>
      <trkpt lat="48.60534" lon="-3.41524">
        <ele>82.8</ele>
        <time>2013-04-20T09:14:09Z</time>
      </trkpt>
      <trkpt lat="48.60533" lon="-3.41552">
        <ele>83.8</ele>
        <time>2013-04-20T09:14:13Z</time>
      </trkpt>
      <trkpt lat="48.60532" lon="-3.41579">
        <ele>84.3</ele>
        <time>2013-04-20T09:14:17Z</time>
      </trkpt>
      <trkpt lat="48.60533" lon="-3.41587">
        <ele>84.3</ele>
        <time>2013-04-20T09:14:18Z</time>
      </trkpt>
      <trkpt lat="48.60534" lon="-3.41594">
        <ele>84.7</ele>
        <time>2013-04-20T09:14:19Z</time>
      </trkpt>
      <trkpt lat="48.60538" lon="-3.41615">
        <ele>84.7</ele>
        <time>2013-04-20T09:14:22Z</time>
      </trkpt>
      <trkpt lat="48.6054" lon="-3.41621">
        <ele>85.2</ele>
        <time>2013-04-20T09:14:23Z</time>
      </trkpt>
      <trkpt lat="48.60543" lon="-3.41627">
        <ele>85.7</ele>
        <time>2013-04-20T09:14:24Z</time>
      </trkpt>
      <trkpt lat="48.60548" lon="-3.41638">
        <ele>85.2</ele>
        <time>2013-04-20T09:14:26Z</time>
      </trkpt>
      <trkpt lat="48.60607" lon="-3.41733">
        <ele>87.1</ele>
        <time>2013-04-20T09:14:43Z</time>
      </trkpt>
      <trkpt lat="48.60623" lon="-3.41764">
        <ele>88.1</ele>
        <time>2013-04-20T09:14:48Z</time>
      </trkpt>
      <trkpt lat="48.60654" lon="-3.41857">
        <ele>89.5</ele>
        <time>2013-04-20T09:15:02Z</time>
      </trkpt>
      <trkpt lat="48.60678" lon="-3.41979">
        <ele>91.5</ele>
        <time>2013-04-20T09:15:18Z</time>
      </trkpt>
      <trkpt lat="48.60698" lon="-3.42087">
        <ele>92.9</ele>
        <time>2013-04-20T09:15:32Z</time>
      </trkpt>
      <trkpt lat="48.60709" lon="-3.42179">
        <ele>94.8</ele>
        <time>2013-04-20T09:15:44Z</time>
      </trkpt>
      <trkpt lat="48.60719" lon="-3.42278">
        <ele>95.8</ele>
        <time>2013-04-20T09:15:58Z</time>
      </trkpt>
      <trkpt lat="48.60721" lon="-3.42393">
        <ele>97.7</ele>
        <time>2013-04-20T09:16:13Z</time>
      </trkpt>
      <trkpt lat="48.60712" lon="-3.42495">
        <ele>99.2</ele>
        <time>2013-04-20T09:16:26Z</time>
      </trkpt>
      <trkpt lat="48.60708" lon="-3.42536">
        <ele>100.1</ele>
        <time>2013-04-20T09:16:31Z</time>
      </trkpt>
      <trkpt lat="48.60689" lon="-3.42646">
        <ele>103</ele>
        <time>2013-04-20T09:16:46Z</time>
      </trkpt>
      <trkpt lat="48.60677" lon="-3.42713">
        <ele>105.9</ele>
        <time>2013-04-20T09:16:57Z</time>
      </trkpt>
      <trkpt lat="48.60645" lon="-3.42778">
        <ele>106.4</ele>
        <time>2013-04-20T09:17:08Z</time>
      </trkpt>
      <trkpt lat="48.60591" lon="-3.42861">
        <ele>108.3</ele>
        <time>2013-04-20T09:17:23Z</time>
      </trkpt>
      <trkpt lat="48.60573" lon="-3.42904">
        <ele>110.7</ele>
        <time>2013-04-20T09:17:31Z</time>
      </trkpt>
      <trkpt lat="48.60572" lon="-3.4291">
        <ele>111.2</ele>
        <time>2013-04-20T09:17:32Z</time>
      </trkpt>
      <trkpt lat="48.60566" lon="-3.42997">
        <ele>114.1</ele>
        <time>2013-04-20T09:17:46Z</time>
      </trkpt>
      <trkpt lat="48.6057" lon="-3.43021">
        <ele>114.5</ele>
        <time>2013-04-20T09:17:50Z</time>
      </trkpt>
      <trkpt lat="48.60572" lon="-3.43027">
        <ele>115</ele>
        <time>2013-04-20T09:17:51Z</time>
      </trkpt>
      <trkpt lat="48.60575" lon="-3.43032">
        <ele>115.5</ele>
        <time>2013-04-20T09:17:52Z</time>
      </trkpt>
      <trkpt lat="48.60577" lon="-3.43036">
        <ele>116</ele>
        <time>2013-04-20T09:17:53Z</time>
      </trkpt>
      <trkpt lat="48.60579" lon="-3.4304">
        <ele>116.5</ele>
        <time>2013-04-20T09:17:54Z</time>
      </trkpt>
      <trkpt lat="48.60582" lon="-3.43043">
        <ele>116.5</ele>
        <time>2013-04-20T09:17:55Z</time>
      </trkpt>
      <trkpt lat="48.60594" lon="-3.43055">
        <ele>116.9</ele>
        <time>2013-04-20T09:17:59Z</time>
      </trkpt>
      <trkpt lat="48.60608" lon="-3.43066">
        <ele>118.4</ele>
        <time>2013-04-20T09:18:03Z</time>
      </trkpt>
      <trkpt lat="48.60627" lon="-3.43089">
        <ele>119.8</ele>
        <time>2013-04-20T09:18:09Z</time>
      </trkpt>
      <trkpt lat="48.6063" lon="-3.43094">
        <ele>120.3</ele>
        <time>2013-04-20T09:18:10Z</time>
      </trkpt>
      <trkpt lat="48.60647" lon="-3.43146">
        <ele>122.2</ele>
        <time>2013-04-20T09:18:19Z</time>
      </trkpt>
      <trkpt lat="48.60649" lon="-3.43234">
        <ele>125.1</ele>
        <time>2013-04-20T09:18:32Z</time>
      </trkpt>
      <trkpt lat="48.60634" lon="-3.43314">
        <ele>128</ele>
        <time>2013-04-20T09:18:44Z</time>
      </trkpt>
      <trkpt lat="48.60637" lon="-3.43388">
        <ele>130.9</ele>
        <time>2013-04-20T09:18:55Z</time>
      </trkpt>
      <trkpt lat="48.60639" lon="-3.43394">
        <ele>130.4</ele>
        <time>2013-04-20T09:18:56Z</time>
      </trkpt>
      <trkpt lat="48.60679" lon="-3.43473">
        <ele>130.9</ele>
        <time>2013-04-20T09:19:09Z</time>
      </trkpt>
      <trkpt lat="48.60747" lon="-3.43605">
        <ele>131.4</ele>
        <time>2013-04-20T09:19:27Z</time>
      </trkpt>
      <trkpt lat="48.60794" lon="-3.43728">
        <ele>130.4</ele>
        <time>2013-04-20T09:19:42Z</time>
      </trkpt>
      <trkpt lat="48.60796" lon="-3.43737">
        <ele>130.4</ele>
        <time>2013-04-20T09:19:43Z</time>
      </trkpt>
      <trkpt lat="48.60799" lon="-3.43745">
        <ele>130.9</ele>
        <time>2013-04-20T09:19:44Z</time>
      </trkpt>
      <trkpt lat="48.60806" lon="-3.4376">
        <ele>130.4</ele>
        <time>2013-04-20T09:19:46Z</time>
      </trkpt>
      <trkpt lat="48.6081" lon="-3.43767">
        <ele>130.4</ele>
        <time>2013-04-20T09:19:47Z</time>
      </trkpt>
      <trkpt lat="48.60814" lon="-3.43773">
        <ele>130.4</ele>
        <time>2013-04-20T09:19:48Z</time>
      </trkpt>
      <trkpt lat="48.60819" lon="-3.43779">
        <ele>130.4</ele>
        <time>2013-04-20T09:19:49Z</time>
      </trkpt>
      <trkpt lat="48.60824" lon="-3.43784">
        <ele>130.4</ele>
        <time>2013-04-20T09:19:50Z</time>
      </trkpt>
      <trkpt lat="48.60829" lon="-3.43789">
        <ele>130.4</ele>
        <time>2013-04-20T09:19:51Z</time>
      </trkpt>
      <trkpt lat="48.60835" lon="-3.43793">
        <ele>130.9</ele>
        <time>2013-04-20T09:19:52Z</time>
      </trkpt>
      <trkpt lat="48.60863" lon="-3.43817">
        <ele>130.9</ele>
        <time>2013-04-20T09:19:58Z</time>
      </trkpt>
      <trkpt lat="48.60867" lon="-3.43823">
        <ele>131.4</ele>
        <time>2013-04-20T09:19:59Z</time>
      </trkpt>
      <trkpt lat="48.60871" lon="-3.43829">
        <ele>131.4</ele>
        <time>2013-04-20T09:20:00Z</time>
      </trkpt>
      <trkpt lat="48.60875" lon="-3.43836">
        <ele>130.9</ele>
        <time>2013-04-20T09:20:01Z</time>
      </trkpt>
      <trkpt lat="48.60878" lon="-3.43844">
        <ele>130.9</ele>
        <time>2013-04-20T09:20:02Z</time>
      </trkpt>
      <trkpt lat="48.60881" lon="-3.43853">
        <ele>130.9</ele>
        <time>2013-04-20T09:20:03Z</time>
      </trkpt>
      <trkpt lat="48.60883" lon="-3.43861">
        <ele>130.9</ele>
        <time>2013-04-20T09:20:04Z</time>
      </trkpt>
      <trkpt lat="48.60886" lon="-3.43872">
        <ele>130.9</ele>
        <time>2013-04-20T09:20:05Z</time>
      </trkpt>
      <trkpt lat="48.60888" lon="-3.43883">
        <ele>130.9</ele>
        <time>2013-04-20T09:20:06Z</time>
      </trkpt>
      <trkpt lat="48.60889" lon="-3.43894">
        <ele>130.9</ele>
        <time>2013-04-20T09:20:07Z</time>
      </trkpt>
      <trkpt lat="48.6089" lon="-3.43904">
        <ele>130.9</ele>
        <time>2013-04-20T09:20:08Z</time>
      </trkpt>
      <trkpt lat="48.60879" lon="-3.44033">
        <ele>129.9</ele>
        <time>2013-04-20T09:20:20Z</time>
      </trkpt>
      <trkpt lat="48.60869" lon="-3.44076">
        <ele>128</ele>
        <time>2013-04-20T09:20:24Z</time>
      </trkpt>
      <trkpt lat="48.60863" lon="-3.4411">
        <ele>127.5</ele>
        <time>2013-04-20T09:20:27Z</time>
      </trkpt>
      <trkpt lat="48.60863" lon="-3.44121">
        <ele>127.5</ele>
        <time>2013-04-20T09:20:28Z</time>
      </trkpt>
      <trkpt lat="48.60862" lon="-3.44281">
        <ele>126.1</ele>
        <time>2013-04-20T09:20:43Z</time>
      </trkpt>
      <trkpt lat="48.60857" lon="-3.44301">
        <ele>126.6</ele>
        <time>2013-04-20T09:20:45Z</time>
      </trkpt>
      <trkpt lat="48.60854" lon="-3.4431">
        <ele>126.1</ele>
        <time>2013-04-20T09:20:46Z</time>
      </trkpt>
      <trkpt lat="48.6085" lon="-3.44319">
        <ele>126.1</ele>
        <time>2013-04-20T09:20:47Z</time>
      </trkpt>
      <trkpt lat="48.60845" lon="-3.44327">
        <ele>125.6</ele>
        <time>2013-04-20T09:20:48Z</time>
      </trkpt>
      <trkpt lat="48.60839" lon="-3.44335">
        <ele>125.6</ele>
        <time>2013-04-20T09:20:49Z</time>
      </trkpt>
      <trkpt lat="48.6075" lon="-3.44438">
        <ele>122.7</ele>
        <time>2013-04-20T09:21:04Z</time>
      </trkpt>
      <trkpt lat="48.60716" lon="-3.4448">
        <ele>122.7</ele>
        <time>2013-04-20T09:21:10Z</time>
      </trkpt>
      <trkpt lat="48.60712" lon="-3.4449">
        <ele>122.7</ele>
        <time>2013-04-20T09:21:11Z</time>
      </trkpt>
      <trkpt lat="48.60711" lon="-3.44501">
        <ele>121.7</ele>
        <time>2013-04-20T09:21:12Z</time>
      </trkpt>
      <trkpt lat="48.60711" lon="-3.44511">
        <ele>121.3</ele>
        <time>2013-04-20T09:21:13Z</time>
      </trkpt>
      <trkpt lat="48.60713" lon="-3.4452">
        <ele>121.3</ele>
        <time>2013-04-20T09:21:14Z</time>
      </trkpt>
      <trkpt lat="48.60715" lon="-3.44529">
        <ele>121.3</ele>
        <time>2013-04-20T09:21:15Z</time>
      </trkpt>
      <trkpt lat="48.60718" lon="-3.44537">
        <ele>122.2</ele>
        <time>2013-04-20T09:21:16Z</time>
      </trkpt>
      <trkpt lat="48.60721" lon="-3.44545">
        <ele>122.2</ele>
        <time>2013-04-20T09:21:17Z</time>
      </trkpt>
      <trkpt lat="48.60729" lon="-3.44567">
        <ele>123.2</ele>
        <time>2013-04-20T09:21:20Z</time>
      </trkpt>
      <trkpt lat="48.6075" lon="-3.44628">
        <ele>124.2</ele>
        <time>2013-04-20T09:21:30Z</time>
      </trkpt>
      <trkpt lat="48.60771" lon="-3.44688">
        <ele>126.6</ele>
        <time>2013-04-20T09:21:39Z</time>
      </trkpt>
      <trkpt lat="48.60773" lon="-3.44695">
        <ele>126.6</ele>
        <time>2013-04-20T09:21:40Z</time>
      </trkpt>
      <trkpt lat="48.60774" lon="-3.44703">
        <ele>126.6</ele>
        <time>2013-04-20T09:21:41Z</time>
      </trkpt>
      <trkpt lat="48.60774" lon="-3.44711">
        <ele>126.6</ele>
        <time>2013-04-20T09:21:42Z</time>
      </trkpt>
      <trkpt lat="48.60774" lon="-3.44719">
        <ele>127</ele>
        <time>2013-04-20T09:21:43Z</time>
      </trkpt>
      <trkpt lat="48.60764" lon="-3.44824">
        <ele>129.4</ele>
        <time>2013-04-20T09:21:57Z</time>
      </trkpt>
      <trkpt lat="48.60763" lon="-3.44848">
        <ele>129.9</ele>
        <time>2013-04-20T09:22:00Z</time>
      </trkpt>
      <trkpt lat="48.60763" lon="-3.44855">
        <ele>129.9</ele>
        <time>2013-04-20T09:22:01Z</time>
      </trkpt>
      <trkpt lat="48.60764" lon="-3.44863">
        <ele>129.9</ele>
        <time>2013-04-20T09:22:02Z</time>
      </trkpt>
      <trkpt lat="48.60764" lon="-3.44871">
        <ele>129.9</ele>
        <time>2013-04-20T09:22:03Z</time>
      </trkpt>
      <trkpt lat="48.60766" lon="-3.4488">
        <ele>129.9</ele>
        <time>2013-04-20T09:22:04Z</time>
      </trkpt>
      <trkpt lat="48.60774" lon="-3.45002">
        <ele>128.5</ele>
        <time>2013-04-20T09:22:17Z</time>
      </trkpt>
      <trkpt lat="48.60774" lon="-3.45109">
        <ele>125.1</ele>
        <time>2013-04-20T09:22:26Z</time>
      </trkpt>
      <trkpt lat="48.60777" lon="-3.45151">
        <ele>124.2</ele>
        <time>2013-04-20T09:22:29Z</time>
      </trkpt>
      <trkpt lat="48.60783" lon="-3.45206">
        <ele>120.8</ele>
        <time>2013-04-20T09:22:33Z</time>
      </trkpt>
      <trkpt lat="48.60786" lon="-3.45217">
        <ele>120.3</ele>
        <time>2013-04-20T09:22:34Z</time>
      </trkpt>
      <trkpt lat="48.60789" lon="-3.45228">
        <ele>120.3</ele>
        <time>2013-04-20T09:22:35Z</time>
      </trkpt>
      <trkpt lat="48.60794" lon="-3.45238">
        <ele>119.3</ele>
        <time>2013-04-20T09:22:36Z</time>
      </trkpt>
      <trkpt lat="48.60799" lon="-3.45247">
        <ele>119.3</ele>
        <time>2013-04-20T09:22:37Z</time>
      </trkpt>
      <trkpt lat="48.60803" lon="-3.45256">
        <ele>119.3</ele>
        <time>2013-04-20T09:22:38Z</time>
      </trkpt>
      <trkpt lat="48.60805" lon="-3.45265">
        <ele>119.3</ele>
        <time>2013-04-20T09:22:39Z</time>
      </trkpt>
      <trkpt lat="48.60805" lon="-3.45274">
        <ele>119.8</ele>
        <time>2013-04-20T09:22:40Z</time>
      </trkpt>
      <trkpt lat="48.60805" lon="-3.45281">
        <ele>120.3</ele>
        <time>2013-04-20T09:22:41Z</time>
      </trkpt>
      <trkpt lat="48.60803" lon="-3.45288">
        <ele>120.3</ele>
        <time>2013-04-20T09:22:42Z</time>
      </trkpt>
      <trkpt lat="48.608" lon="-3.45295">
        <ele>120.8</ele>
        <time>2013-04-20T09:22:43Z</time>
      </trkpt>
      <trkpt lat="48.60797" lon="-3.45301">
        <ele>121.3</ele>
        <time>2013-04-20T09:22:44Z</time>
      </trkpt>
      <trkpt lat="48.60794" lon="-3.45307">
        <ele>121.7</ele>
        <time>2013-04-20T09:22:45Z</time>
      </trkpt>
      <trkpt lat="48.60773" lon="-3.45376">
        <ele>124.6</ele>
        <time>2013-04-20T09:22:55Z</time>
      </trkpt>
      <trkpt lat="48.6077" lon="-3.45398">
        <ele>125.1</ele>
        <time>2013-04-20T09:22:58Z</time>
      </trkpt>
      <trkpt lat="48.60769" lon="-3.45509">
        <ele>124.2</ele>
        <time>2013-04-20T09:23:10Z</time>
      </trkpt>
      <trkpt lat="48.60771" lon="-3.45519">
        <ele>124.6</ele>
        <time>2013-04-20T09:23:11Z</time>
      </trkpt>
      <trkpt lat="48.60793" lon="-3.45595">
        <ele>125.6</ele>
        <time>2013-04-20T09:23:21Z</time>
      </trkpt>
      <trkpt lat="48.60795" lon="-3.45601">
        <ele>125.6</ele>
        <time>2013-04-20T09:23:22Z</time>
      </trkpt>
      <trkpt lat="48.60796" lon="-3.45607">
        <ele>126.1</ele>
        <time>2013-04-20T09:23:23Z</time>
      </trkpt>
      <trkpt lat="48.60802" lon="-3.45658">
        <ele>127</ele>
        <time>2013-04-20T09:23:30Z</time>
      </trkpt>
      <trkpt lat="48.60801" lon="-3.45727">
        <ele>128.5</ele>
        <time>2013-04-20T09:23:39Z</time>
      </trkpt>
      <trkpt lat="48.60781" lon="-3.45806">
        <ele>131.8</ele>
        <time>2013-04-20T09:23:51Z</time>
      </trkpt>
      <trkpt lat="48.60758" lon="-3.45903">
        <ele>132.3</ele>
        <time>2013-04-20T09:24:04Z</time>
      </trkpt>
      <trkpt lat="48.60755" lon="-3.4591">
        <ele>131.8</ele>
        <time>2013-04-20T09:24:05Z</time>
      </trkpt>
      <trkpt lat="48.60751" lon="-3.45918">
        <ele>131.8</ele>
        <time>2013-04-20T09:24:06Z</time>
      </trkpt>
      <trkpt lat="48.60747" lon="-3.45925">
        <ele>131.8</ele>
        <time>2013-04-20T09:24:07Z</time>
      </trkpt>
      <trkpt lat="48.60741" lon="-3.45931">
        <ele>131.8</ele>
        <time>2013-04-20T09:24:08Z</time>
      </trkpt>
      <trkpt lat="48.60735" lon="-3.45937">
        <ele>131.4</ele>
        <time>2013-04-20T09:24:09Z</time>
      </trkpt>
      <trkpt lat="48.60728" lon="-3.4594">
        <ele>132.3</ele>
        <time>2013-04-20T09:24:10Z</time>
      </trkpt>
      <trkpt lat="48.60721" lon="-3.45944">
        <ele>131.8</ele>
        <time>2013-04-20T09:24:11Z</time>
      </trkpt>
      <trkpt lat="48.60714" lon="-3.45946">
        <ele>131.4</ele>
        <time>2013-04-20T09:24:12Z</time>
      </trkpt>
      <trkpt lat="48.60706" lon="-3.45948">
        <ele>131.4</ele>
        <time>2013-04-20T09:24:13Z</time>
      </trkpt>
      <trkpt lat="48.60668" lon="-3.45958">
        <ele>130.4</ele>
        <time>2013-04-20T09:24:18Z</time>
      </trkpt>
      <trkpt lat="48.6066" lon="-3.45961">
        <ele>130.4</ele>
        <time>2013-04-20T09:24:19Z</time>
      </trkpt>
      <trkpt lat="48.60654" lon="-3.45966">
        <ele>130.4</ele>
        <time>2013-04-20T09:24:20Z</time>
      </trkpt>
      <trkpt lat="48.60647" lon="-3.45972">
        <ele>129.9</ele>
        <time>2013-04-20T09:24:21Z</time>
      </trkpt>
      <trkpt lat="48.60641" lon="-3.45979">
        <ele>130.4</ele>
        <time>2013-04-20T09:24:22Z</time>
      </trkpt>
      <trkpt lat="48.60636" lon="-3.45988">
        <ele>129.9</ele>
        <time>2013-04-20T09:24:23Z</time>
      </trkpt>
      <trkpt lat="48.60631" lon="-3.45997">
        <ele>129.4</ele>
        <time>2013-04-20T09:24:24Z</time>
      </trkpt>
      <trkpt lat="48.60626" lon="-3.46007">
        <ele>129</ele>
        <time>2013-04-20T09:24:25Z</time>
      </trkpt>
      <trkpt lat="48.60623" lon="-3.46018">
        <ele>129</ele>
        <time>2013-04-20T09:24:26Z</time>
      </trkpt>
      <trkpt lat="48.6062" lon="-3.4603">
        <ele>129</ele>
        <time>2013-04-20T09:24:27Z</time>
      </trkpt>
      <trkpt lat="48.60618" lon="-3.46041">
        <ele>128</ele>
        <time>2013-04-20T09:24:28Z</time>
      </trkpt>
      <trkpt lat="48.60614" lon="-3.46183">
        <ele>126.6</ele>
        <time>2013-04-20T09:24:40Z</time>
      </trkpt>
      <trkpt lat="48.60618" lon="-3.46272">
        <ele>125.1</ele>
        <time>2013-04-20T09:24:48Z</time>
      </trkpt>
      <trkpt lat="48.6062" lon="-3.46283">
        <ele>125.1</ele>
        <time>2013-04-20T09:24:49Z</time>
      </trkpt>
      <trkpt lat="48.60623" lon="-3.46293">
        <ele>125.1</ele>
        <time>2013-04-20T09:24:50Z</time>
      </trkpt>
      <trkpt lat="48.60627" lon="-3.46302">
        <ele>124.6</ele>
        <time>2013-04-20T09:24:51Z</time>
      </trkpt>
      <trkpt lat="48.60631" lon="-3.46311">
        <ele>125.1</ele>
        <time>2013-04-20T09:24:52Z</time>
      </trkpt>
      <trkpt lat="48.60645" lon="-3.46343">
        <ele>125.6</ele>
        <time>2013-04-20T09:24:56Z</time>
      </trkpt>
      <trkpt lat="48.60647" lon="-3.46351">
        <ele>126.1</ele>
        <time>2013-04-20T09:24:57Z</time>
      </trkpt>
      <trkpt lat="48.60649" lon="-3.4636">
        <ele>126.1</ele>
        <time>2013-04-20T09:24:58Z</time>
      </trkpt>
      <trkpt lat="48.60664" lon="-3.46494">
        <ele>127</ele>
        <time>2013-04-20T09:25:14Z</time>
      </trkpt>
      <trkpt lat="48.60673" lon="-3.46583">
        <ele>129</ele>
        <time>2013-04-20T09:25:25Z</time>
      </trkpt>
      <trkpt lat="48.60693" lon="-3.46736">
        <ele>129.9</ele>
        <time>2013-04-20T09:25:43Z</time>
      </trkpt>
      <trkpt lat="48.60714" lon="-3.46875">
        <ele>127.5</ele>
        <time>2013-04-20T09:25:57Z</time>
      </trkpt>
      <trkpt lat="48.60717" lon="-3.46883">
        <ele>127.5</ele>
        <time>2013-04-20T09:25:58Z</time>
      </trkpt>
      <trkpt lat="48.60721" lon="-3.46892">
        <ele>127.5</ele>
        <time>2013-04-20T09:25:59Z</time>
      </trkpt>
      <trkpt lat="48.60725" lon="-3.46899">
        <ele>127.5</ele>
        <time>2013-04-20T09:26:00Z</time>
      </trkpt>
      <trkpt lat="48.6073" lon="-3.46907">
        <ele>127.5</ele>
        <time>2013-04-20T09:26:01Z</time>
      </trkpt>
      <trkpt lat="48.60782" lon="-3.46955">
        <ele>125.6</ele>
        <time>2013-04-20T09:26:10Z</time>
      </trkpt>
      <trkpt lat="48.60854" lon="-3.47004">
        <ele>122.2</ele>
        <time>2013-04-20T09:26:20Z</time>
      </trkpt>
      <trkpt lat="48.60925" lon="-3.47056">
        <ele>118.4</ele>
        <time>2013-04-20T09:26:29Z</time>
      </trkpt>
      <trkpt lat="48.60976" lon="-3.47099">
        <ele>118.9</ele>
        <time>2013-04-20T09:26:38Z</time>
      </trkpt>
      <trkpt lat="48.6101" lon="-3.47125">
        <ele>120.8</ele>
        <time>2013-04-20T09:26:46Z</time>
      </trkpt>
      <trkpt lat="48.61014" lon="-3.47128">
        <ele>120.8</ele>
        <time>2013-04-20T09:26:47Z</time>
      </trkpt>
      <trkpt lat="48.61022" lon="-3.47133">
        <ele>121.7</ele>
        <time>2013-04-20T09:26:49Z</time>
      </trkpt>
      <trkpt lat="48.61026" lon="-3.47134">
        <ele>121.7</ele>
        <time>2013-04-20T09:26:50Z</time>
      </trkpt>
      <trkpt lat="48.61044" lon="-3.47146">
        <ele>122.2</ele>
        <time>2013-04-20T09:26:54Z</time>
      </trkpt>
      <trkpt lat="48.61077" lon="-3.47173">
        <ele>125.6</ele>
        <time>2013-04-20T09:27:02Z</time>
      </trkpt>
      <trkpt lat="48.61099" lon="-3.47191">
        <ele>125.6</ele>
        <time>2013-04-20T09:27:07Z</time>
      </trkpt>
      <trkpt lat="48.61103" lon="-3.47195">
        <ele>126.1</ele>
        <time>2013-04-20T09:27:08Z</time>
      </trkpt>
      <trkpt lat="48.61115" lon="-3.47207">
        <ele>126.1</ele>
        <time>2013-04-20T09:27:11Z</time>
      </trkpt>
      <trkpt lat="48.61158" lon="-3.47239">
        <ele>128</ele>
        <time>2013-04-20T09:27:21Z</time>
      </trkpt>
      <trkpt lat="48.61163" lon="-3.47241">
        <ele>128</ele>
        <time>2013-04-20T09:27:22Z</time>
      </trkpt>
      <trkpt lat="48.61168" lon="-3.47242">
        <ele>128.5</ele>
        <time>2013-04-20T09:27:23Z</time>
      </trkpt>
      <trkpt lat="48.612" lon="-3.47253">
        <ele>130.4</ele>
        <time>2013-04-20T09:27:30Z</time>
      </trkpt>
      <trkpt lat="48.61215" lon="-3.4726">
        <ele>131.4</ele>
        <time>2013-04-20T09:27:34Z</time>
      </trkpt>
      <trkpt lat="48.6122" lon="-3.47261">
        <ele>130.9</ele>
        <time>2013-04-20T09:27:35Z</time>
      </trkpt>
      <trkpt lat="48.61229" lon="-3.47265">
        <ele>131.4</ele>
        <time>2013-04-20T09:27:37Z</time>
      </trkpt>
      <trkpt lat="48.61238" lon="-3.47266">
        <ele>131.4</ele>
        <time>2013-04-20T09:27:39Z</time>
      </trkpt>
      <trkpt lat="48.61264" lon="-3.47266">
        <ele>132.3</ele>
        <time>2013-04-20T09:27:44Z</time>
      </trkpt>
      <trkpt lat="48.6127" lon="-3.47265">
        <ele>131.8</ele>
        <time>2013-04-20T09:27:45Z</time>
      </trkpt>
      <trkpt lat="48.61298" lon="-3.47255">
        <ele>131.4</ele>
        <time>2013-04-20T09:27:51Z</time>
      </trkpt>
      <trkpt lat="48.61302" lon="-3.47251">
        <ele>130.9</ele>
        <time>2013-04-20T09:27:52Z</time>
      </trkpt>
      <trkpt lat="48.61307" lon="-3.47245">
        <ele>130.4</ele>
        <time>2013-04-20T09:27:53Z</time>
      </trkpt>
      <trkpt lat="48.61313" lon="-3.47238">
        <ele>130.4</ele>
        <time>2013-04-20T09:27:54Z</time>
      </trkpt>
      <trkpt lat="48.61373" lon="-3.47141">
        <ele>127</ele>
        <time>2013-04-20T09:28:05Z</time>
      </trkpt>
      <trkpt lat="48.6139" lon="-3.47114">
        <ele>126.1</ele>
        <time>2013-04-20T09:28:08Z</time>
      </trkpt>
      <trkpt lat="48.61448" lon="-3.47056">
        <ele>123.2</ele>
        <time>2013-04-20T09:28:16Z</time>
      </trkpt>
      <trkpt lat="48.61463" lon="-3.47043">
        <ele>122.2</ele>
        <time>2013-04-20T09:28:18Z</time>
      </trkpt>
      <trkpt lat="48.61532" lon="-3.46985">
        <ele>120.3</ele>
        <time>2013-04-20T09:28:28Z</time>
      </trkpt>
      <trkpt lat="48.6157" lon="-3.4695">
        <ele>122.2</ele>
        <time>2013-04-20T09:28:36Z</time>
      </trkpt>
      <trkpt lat="48.61579" lon="-3.46943">
        <ele>122.2</ele>
        <time>2013-04-20T09:28:38Z</time>
      </trkpt>
      <trkpt lat="48.61637" lon="-3.46883">
        <ele>124.2</ele>
        <time>2013-04-20T09:28:52Z</time>
      </trkpt>
      <trkpt lat="48.61707" lon="-3.46824">
        <ele>125.1</ele>
        <time>2013-04-20T09:29:07Z</time>
      </trkpt>
      <trkpt lat="48.61762" lon="-3.46794">
        <ele>126.6</ele>
        <time>2013-04-20T09:29:18Z</time>
      </trkpt>
      <trkpt lat="48.61767" lon="-3.46793">
        <ele>126.6</ele>
        <time>2013-04-20T09:29:19Z</time>
      </trkpt>
      <trkpt lat="48.61789" lon="-3.46791">
        <ele>126.6</ele>
        <time>2013-04-20T09:29:23Z</time>
      </trkpt>
      <trkpt lat="48.61794" lon="-3.46791">
        <ele>126.6</ele>
        <time>2013-04-20T09:29:24Z</time>
      </trkpt>
      <trkpt lat="48.61871" lon="-3.46816">
        <ele>130.4</ele>
        <time>2013-04-20T09:29:39Z</time>
      </trkpt>
      <trkpt lat="48.61897" lon="-3.46817">
        <ele>131.4</ele>
        <time>2013-04-20T09:29:44Z</time>
      </trkpt>
      <trkpt lat="48.61902" lon="-3.46817">
        <ele>131.8</ele>
        <time>2013-04-20T09:29:45Z</time>
      </trkpt>
      <trkpt lat="48.61907" lon="-3.46816">
        <ele>132.3</ele>
        <time>2013-04-20T09:29:46Z</time>
      </trkpt>
      <trkpt lat="48.61912" lon="-3.46814">
        <ele>132.8</ele>
        <time>2013-04-20T09:29:47Z</time>
      </trkpt>
      <trkpt lat="48.61917" lon="-3.46813">
        <ele>133.3</ele>
        <time>2013-04-20T09:29:48Z</time>
      </trkpt>
      <trkpt lat="48.61921" lon="-3.46812">
        <ele>133.3</ele>
        <time>2013-04-20T09:29:49Z</time>
      </trkpt>
      <trkpt lat="48.61931" lon="-3.46809">
        <ele>133.8</ele>
        <time>2013-04-20T09:29:51Z</time>
      </trkpt>
      <trkpt lat="48.62014" lon="-3.46795">
        <ele>134.7</ele>
        <time>2013-04-20T09:30:07Z</time>
      </trkpt>
      <trkpt lat="48.62116" lon="-3.46775">
        <ele>135.2</ele>
        <time>2013-04-20T09:30:25Z</time>
      </trkpt>
      <trkpt lat="48.62212" lon="-3.46735">
        <ele>136.2</ele>
        <time>2013-04-20T09:30:43Z</time>
      </trkpt>
      <trkpt lat="48.62298" lon="-3.46719">
        <ele>138.6</ele>
        <time>2013-04-20T09:30:59Z</time>
      </trkpt>
      <trkpt lat="48.62317" lon="-3.46713">
        <ele>140</ele>
        <time>2013-04-20T09:31:03Z</time>
      </trkpt>
      <trkpt lat="48.62398" lon="-3.46674">
        <ele>141</ele>
        <time>2013-04-20T09:31:19Z</time>
      </trkpt>
      <trkpt lat="48.62418" lon="-3.4666">
        <ele>141.5</ele>
        <time>2013-04-20T09:31:23Z</time>
      </trkpt>
      <trkpt lat="48.62495" lon="-3.46638">
        <ele>141.9</ele>
        <time>2013-04-20T09:31:37Z</time>
      </trkpt>
      <trkpt lat="48.62589" lon="-3.46621">
        <ele>141</ele>
        <time>2013-04-20T09:31:53Z</time>
      </trkpt>
      <trkpt lat="48.62657" lon="-3.46609">
        <ele>139.5</ele>
        <time>2013-04-20T09:32:04Z</time>
      </trkpt>
      <trkpt lat="48.62777" lon="-3.46593">
        <ele>138.6</ele>
        <time>2013-04-20T09:32:23Z</time>
      </trkpt>
      <trkpt lat="48.62889" lon="-3.46568">
        <ele>136.6</ele>
        <time>2013-04-20T09:32:40Z</time>
      </trkpt>
      <trkpt lat="48.62986" lon="-3.46508">
        <ele>135.2</ele>
        <time>2013-04-20T09:32:56Z</time>
      </trkpt>
      <trkpt lat="48.63068" lon="-3.46425">
        <ele>134.2</ele>
        <time>2013-04-20T09:33:11Z</time>
      </trkpt>
      <trkpt lat="48.63158" lon="-3.4633">
        <ele>133.3</ele>
        <time>2013-04-20T09:33:27Z</time>
      </trkpt>
      <trkpt lat="48.63267" lon="-3.46214">
        <ele>130.9</ele>
        <time>2013-04-20T09:33:47Z</time>
      </trkpt>
      <trkpt lat="48.63359" lon="-3.46116">
        <ele>129.4</ele>
        <time>2013-04-20T09:34:04Z</time>
      </trkpt>
      <trkpt lat="48.63452" lon="-3.46019">
        <ele>126.6</ele>
        <time>2013-04-20T09:34:21Z</time>
      </trkpt>
      <trkpt lat="48.63552" lon="-3.45914">
        <ele>124.2</ele>
        <time>2013-04-20T09:34:38Z</time>
      </trkpt>
      <trkpt lat="48.63654" lon="-3.45806">
        <ele>123.2</ele>
        <time>2013-04-20T09:34:55Z</time>
      </trkpt>
      <trkpt lat="48.63749" lon="-3.45685">
        <ele>121.3</ele>
        <time>2013-04-20T09:35:13Z</time>
      </trkpt>
      <trkpt lat="48.63841" lon="-3.45544">
        <ele>120.3</ele>
        <time>2013-04-20T09:35:32Z</time>
      </trkpt>
      <trkpt lat="48.6393" lon="-3.45416">
        <ele>118.4</ele>
        <time>2013-04-20T09:35:50Z</time>
      </trkpt>
      <trkpt lat="48.64026" lon="-3.45276">
        <ele>116.5</ele>
        <time>2013-04-20T09:36:10Z</time>
      </trkpt>
      <trkpt lat="48.64108" lon="-3.45154">
        <ele>115</ele>
        <time>2013-04-20T09:36:27Z</time>
      </trkpt>
      <trkpt lat="48.64181" lon="-3.45045">
        <ele>116</ele>
        <time>2013-04-20T09:36:43Z</time>
      </trkpt>
      <trkpt lat="48.64266" lon="-3.44919">
        <ele>117.4</ele>
        <time>2013-04-20T09:37:02Z</time>
      </trkpt>
      <trkpt lat="48.64296" lon="-3.44876">
        <ele>118.4</ele>
        <time>2013-04-20T09:37:09Z</time>
      </trkpt>
      <trkpt lat="48.64309" lon="-3.44856">
        <ele>118.9</ele>
        <time>2013-04-20T09:37:12Z</time>
      </trkpt>
      <trkpt lat="48.64391" lon="-3.44738">
        <ele>118.4</ele>
        <time>2013-04-20T09:37:30Z</time>
      </trkpt>
      <trkpt lat="48.64492" lon="-3.4464">
        <ele>116.9</ele>
        <time>2013-04-20T09:37:48Z</time>
      </trkpt>
      <trkpt lat="48.64596" lon="-3.44592">
        <ele>115</ele>
        <time>2013-04-20T09:38:03Z</time>
      </trkpt>
      <trkpt lat="48.647" lon="-3.44583">
        <ele>113.1</ele>
        <time>2013-04-20T09:38:17Z</time>
      </trkpt>
      <trkpt lat="48.64815" lon="-3.44605">
        <ele>111.2</ele>
        <time>2013-04-20T09:38:33Z</time>
      </trkpt>
      <trkpt lat="48.64938" lon="-3.44629">
        <ele>112.6</ele>
        <time>2013-04-20T09:38:51Z</time>
      </trkpt>
      <trkpt lat="48.65054" lon="-3.44626">
        <ele>111.7</ele>
        <time>2013-04-20T09:39:09Z</time>
      </trkpt>
      <trkpt lat="48.65184" lon="-3.44598">
        <ele>113.1</ele>
        <time>2013-04-20T09:39:29Z</time>
      </trkpt>
      <trkpt lat="48.65298" lon="-3.44565">
        <ele>112.6</ele>
        <time>2013-04-20T09:39:47Z</time>
      </trkpt>
      <trkpt lat="48.65425" lon="-3.44508">
        <ele>111.2</ele>
        <time>2013-04-20T09:40:07Z</time>
      </trkpt>
      <trkpt lat="48.65546" lon="-3.4446">
        <ele>109.7</ele>
        <time>2013-04-20T09:40:25Z</time>
      </trkpt>
      <trkpt lat="48.65641" lon="-3.44425">
        <ele>107.8</ele>
        <time>2013-04-20T09:40:39Z</time>
      </trkpt>
      <trkpt lat="48.65754" lon="-3.44377">
        <ele>105.9</ele>
        <time>2013-04-20T09:40:55Z</time>
      </trkpt>
      <trkpt lat="48.65857" lon="-3.44344">
        <ele>103.5</ele>
        <time>2013-04-20T09:41:10Z</time>
      </trkpt>
      <trkpt lat="48.65975" lon="-3.44343">
        <ele>100.6</ele>
        <time>2013-04-20T09:41:26Z</time>
      </trkpt>
      <trkpt lat="48.66102" lon="-3.44373">
        <ele>98.7</ele>
        <time>2013-04-20T09:41:43Z</time>
      </trkpt>
      <trkpt lat="48.66212" lon="-3.444">
        <ele>100.1</ele>
        <time>2013-04-20T09:42:00Z</time>
      </trkpt>
      <trkpt lat="48.6631" lon="-3.44425">
        <ele>102.5</ele>
        <time>2013-04-20T09:42:16Z</time>
      </trkpt>
      <trkpt lat="48.66413" lon="-3.4444">
        <ele>104</ele>
        <time>2013-04-20T09:42:33Z</time>
      </trkpt>
      <trkpt lat="48.66529" lon="-3.44436">
        <ele>104</ele>
        <time>2013-04-20T09:42:52Z</time>
      </trkpt>
      <trkpt lat="48.6663" lon="-3.4444">
        <ele>104</ele>
        <time>2013-04-20T09:43:08Z</time>
      </trkpt>
      <trkpt lat="48.66726" lon="-3.44449">
        <ele>103.5</ele>
        <time>2013-04-20T09:43:23Z</time>
      </trkpt>
      <trkpt lat="48.66847" lon="-3.44461">
        <ele>102</ele>
        <time>2013-04-20T09:43:41Z</time>
      </trkpt>
      <trkpt lat="48.6696" lon="-3.44469">
        <ele>100.6</ele>
        <time>2013-04-20T09:43:57Z</time>
      </trkpt>
      <trkpt lat="48.67085" lon="-3.44442">
        <ele>99.2</ele>
        <time>2013-04-20T09:44:14Z</time>
      </trkpt>
      <trkpt lat="48.67092" lon="-3.44441">
        <ele>99.2</ele>
        <time>2013-04-20T09:44:15Z</time>
      </trkpt>
      <trkpt lat="48.67209" lon="-3.44433">
        <ele>98.7</ele>
        <time>2013-04-20T09:44:31Z</time>
      </trkpt>
      <trkpt lat="48.67324" lon="-3.44459">
        <ele>100.1</ele>
        <time>2013-04-20T09:44:48Z</time>
      </trkpt>
      <trkpt lat="48.67444" lon="-3.44491">
        <ele>100.1</ele>
        <time>2013-04-20T09:45:06Z</time>
      </trkpt>
      <trkpt lat="48.67542" lon="-3.445">
        <ele>100.1</ele>
        <time>2013-04-20T09:45:21Z</time>
      </trkpt>
      <trkpt lat="48.67648" lon="-3.44482">
        <ele>100.1</ele>
        <time>2013-04-20T09:45:37Z</time>
      </trkpt>
      <trkpt lat="48.67739" lon="-3.44444">
        <ele>100.6</ele>
        <time>2013-04-20T09:45:51Z</time>
      </trkpt>
      <trkpt lat="48.67834" lon="-3.44384">
        <ele>99.6</ele>
        <time>2013-04-20T09:46:07Z</time>
      </trkpt>
      <trkpt lat="48.67915" lon="-3.44363">
        <ele>99.2</ele>
        <time>2013-04-20T09:46:20Z</time>
      </trkpt>
      <trkpt lat="48.68025" lon="-3.44388">
        <ele>98.2</ele>
        <time>2013-04-20T09:46:36Z</time>
      </trkpt>
      <trkpt lat="48.68142" lon="-3.4442">
        <ele>96.3</ele>
        <time>2013-04-20T09:46:52Z</time>
      </trkpt>
      <trkpt lat="48.68263" lon="-3.44453">
        <ele>96.3</ele>
        <time>2013-04-20T09:47:09Z</time>
      </trkpt>
      <trkpt lat="48.68383" lon="-3.4449">
        <ele>95.8</ele>
        <time>2013-04-20T09:47:27Z</time>
      </trkpt>
      <trkpt lat="48.6848" lon="-3.44501">
        <ele>96.3</ele>
        <time>2013-04-20T09:47:42Z</time>
      </trkpt>
      <trkpt lat="48.68552" lon="-3.44516">
        <ele>95.3</ele>
        <time>2013-04-20T09:47:53Z</time>
      </trkpt>
      <trkpt lat="48.68672" lon="-3.44555">
        <ele>95.3</ele>
        <time>2013-04-20T09:48:11Z</time>
      </trkpt>
      <trkpt lat="48.68782" lon="-3.44575">
        <ele>94.4</ele>
        <time>2013-04-20T09:48:27Z</time>
      </trkpt>
      <trkpt lat="48.68884" lon="-3.44565">
        <ele>94.8</ele>
        <time>2013-04-20T09:48:43Z</time>
      </trkpt>
      <trkpt lat="48.68936" lon="-3.44555">
        <ele>95.3</ele>
        <time>2013-04-20T09:48:52Z</time>
      </trkpt>
      <trkpt lat="48.68942" lon="-3.44555">
        <ele>95.3</ele>
        <time>2013-04-20T09:48:53Z</time>
      </trkpt>
      <trkpt lat="48.68948" lon="-3.44554">
        <ele>95.8</ele>
        <time>2013-04-20T09:48:54Z</time>
      </trkpt>
      <trkpt lat="48.68954" lon="-3.44553">
        <ele>96.3</ele>
        <time>2013-04-20T09:48:55Z</time>
      </trkpt>
      <trkpt lat="48.68959" lon="-3.44553">
        <ele>96.3</ele>
        <time>2013-04-20T09:48:56Z</time>
      </trkpt>
      <trkpt lat="48.69025" lon="-3.44543">
        <ele>96.8</ele>
        <time>2013-04-20T09:49:08Z</time>
      </trkpt>
      <trkpt lat="48.69111" lon="-3.44515">
        <ele>99.2</ele>
        <time>2013-04-20T09:49:25Z</time>
      </trkpt>
      <trkpt lat="48.69214" lon="-3.44481">
        <ele>99.2</ele>
        <time>2013-04-20T09:49:44Z</time>
      </trkpt>
      <trkpt lat="48.69293" lon="-3.44461">
        <ele>99.2</ele>
        <time>2013-04-20T09:49:57Z</time>
      </trkpt>
      <trkpt lat="48.69369" lon="-3.44485">
        <ele>101.1</ele>
        <time>2013-04-20T09:50:11Z</time>
      </trkpt>
      <trkpt lat="48.69453" lon="-3.44521">
        <ele>99.6</ele>
        <time>2013-04-20T09:50:26Z</time>
      </trkpt>
      <trkpt lat="48.69519" lon="-3.44566">
        <ele>97.2</ele>
        <time>2013-04-20T09:50:36Z</time>
      </trkpt>
      <trkpt lat="48.69533" lon="-3.44578">
        <ele>96.8</ele>
        <time>2013-04-20T09:50:38Z</time>
      </trkpt>
      <trkpt lat="48.69623" lon="-3.44645">
        <ele>92.9</ele>
        <time>2013-04-20T09:50:50Z</time>
      </trkpt>
      <trkpt lat="48.69725" lon="-3.4471">
        <ele>90.5</ele>
        <time>2013-04-20T09:51:03Z</time>
      </trkpt>
      <trkpt lat="48.69831" lon="-3.44745">
        <ele>90.5</ele>
        <time>2013-04-20T09:51:17Z</time>
      </trkpt>
      <trkpt lat="48.69853" lon="-3.44751">
        <ele>89.1</ele>
        <time>2013-04-20T09:51:20Z</time>
      </trkpt>
      <trkpt lat="48.69974" lon="-3.44783">
        <ele>87.1</ele>
        <time>2013-04-20T09:51:36Z</time>
      </trkpt>
      <trkpt lat="48.70093" lon="-3.44796">
        <ele>84.7</ele>
        <time>2013-04-20T09:51:52Z</time>
      </trkpt>
      <trkpt lat="48.701" lon="-3.44798">
        <ele>84.7</ele>
        <time>2013-04-20T09:51:53Z</time>
      </trkpt>
      <trkpt lat="48.70205" lon="-3.44813">
        <ele>85.2</ele>
        <time>2013-04-20T09:52:08Z</time>
      </trkpt>
      <trkpt lat="48.70267" lon="-3.44816">
        <ele>85.2</ele>
        <time>2013-04-20T09:52:17Z</time>
      </trkpt>
      <trkpt lat="48.70274" lon="-3.44817">
        <ele>85.2</ele>
        <time>2013-04-20T09:52:18Z</time>
      </trkpt>
      <trkpt lat="48.70329" lon="-3.44824">
        <ele>84.7</ele>
        <time>2013-04-20T09:52:26Z</time>
      </trkpt>
      <trkpt lat="48.70335" lon="-3.44825">
        <ele>84.7</ele>
        <time>2013-04-20T09:52:27Z</time>
      </trkpt>
      <trkpt lat="48.70399" lon="-3.44843">
        <ele>84.7</ele>
        <time>2013-04-20T09:52:38Z</time>
      </trkpt>
      <trkpt lat="48.70454" lon="-3.44827">
        <ele>84.7</ele>
        <time>2013-04-20T09:52:48Z</time>
      </trkpt>
      <trkpt lat="48.70459" lon="-3.44825">
        <ele>84.3</ele>
        <time>2013-04-20T09:52:52Z</time>
      </trkpt>
      <trkpt lat="48.7046" lon="-3.44824">
        <ele>84.3</ele>
        <time>2013-04-20T09:52:53Z</time>
      </trkpt>
      <trkpt lat="48.70462" lon="-3.44823">
        <ele>84.7</ele>
        <time>2013-04-20T09:52:54Z</time>
      </trkpt>
      <trkpt lat="48.705" lon="-3.44811">
        <ele>85.2</ele>
        <time>2013-04-20T09:53:02Z</time>
      </trkpt>
      <trkpt lat="48.70512" lon="-3.4481">
        <ele>85.2</ele>
        <time>2013-04-20T09:53:04Z</time>
      </trkpt>
      <trkpt lat="48.70589" lon="-3.44811">
        <ele>85.2</ele>
        <time>2013-04-20T09:53:17Z</time>
      </trkpt>
      <trkpt lat="48.70679" lon="-3.44797">
        <ele>81.9</ele>
        <time>2013-04-20T09:53:30Z</time>
      </trkpt>
      <trkpt lat="48.70735" lon="-3.44807">
        <ele>78.5</ele>
        <time>2013-04-20T09:53:36Z</time>
      </trkpt>
      <trkpt lat="48.70755" lon="-3.44815">
        <ele>78</ele>
        <time>2013-04-20T09:53:38Z</time>
      </trkpt>
      <trkpt lat="48.70805" lon="-3.4484">
        <ele>75.1</ele>
        <time>2013-04-20T09:53:43Z</time>
      </trkpt>
      <trkpt lat="48.70843" lon="-3.44861">
        <ele>72.7</ele>
        <time>2013-04-20T09:53:47Z</time>
      </trkpt>
      <trkpt lat="48.70955" lon="-3.44949">
        <ele>70.3</ele>
        <time>2013-04-20T09:54:01Z</time>
      </trkpt>
      <trkpt lat="48.70992" lon="-3.44974">
        <ele>70.3</ele>
        <time>2013-04-20T09:54:06Z</time>
      </trkpt>
      <trkpt lat="48.71" lon="-3.44978">
        <ele>69.8</ele>
        <time>2013-04-20T09:54:07Z</time>
      </trkpt>
      <trkpt lat="48.71008" lon="-3.44981">
        <ele>69.8</ele>
        <time>2013-04-20T09:54:08Z</time>
      </trkpt>
      <trkpt lat="48.71016" lon="-3.44983">
        <ele>69.8</ele>
        <time>2013-04-20T09:54:09Z</time>
      </trkpt>
      <trkpt lat="48.71024" lon="-3.44984">
        <ele>69.4</ele>
        <time>2013-04-20T09:54:10Z</time>
      </trkpt>
      <trkpt lat="48.71141" lon="-3.44992">
        <ele>67.9</ele>
        <time>2013-04-20T09:54:26Z</time>
      </trkpt>
      <trkpt lat="48.71233" lon="-3.4502">
        <ele>67.9</ele>
        <time>2013-04-20T09:54:40Z</time>
      </trkpt>
      <trkpt lat="48.71344" lon="-3.45072">
        <ele>67</ele>
        <time>2013-04-20T09:54:57Z</time>
      </trkpt>
      <trkpt lat="48.71442" lon="-3.45137">
        <ele>67</ele>
        <time>2013-04-20T09:55:12Z</time>
      </trkpt>
      <trkpt lat="48.7155" lon="-3.45218">
        <ele>66</ele>
        <time>2013-04-20T09:55:29Z</time>
      </trkpt>
      <trkpt lat="48.71561" lon="-3.45228">
        <ele>65.5</ele>
        <time>2013-04-20T09:55:31Z</time>
      </trkpt>
      <trkpt lat="48.71567" lon="-3.45235">
        <ele>65.5</ele>
        <time>2013-04-20T09:55:32Z</time>
      </trkpt>
      <trkpt lat="48.71577" lon="-3.45253">
        <ele>65.5</ele>
        <time>2013-04-20T09:55:34Z</time>
      </trkpt>
      <trkpt lat="48.71582" lon="-3.45263">
        <ele>65.5</ele>
        <time>2013-04-20T09:55:35Z</time>
      </trkpt>
      <trkpt lat="48.71641" lon="-3.45414">
        <ele>62.6</ele>
        <time>2013-04-20T09:55:50Z</time>
      </trkpt>
      <trkpt lat="48.717" lon="-3.45562">
        <ele>59.7</ele>
        <time>2013-04-20T09:56:04Z</time>
      </trkpt>
      <trkpt lat="48.71734" lon="-3.45623">
        <ele>57.3</ele>
        <time>2013-04-20T09:56:10Z</time>
      </trkpt>
      <trkpt lat="48.71741" lon="-3.45631">
        <ele>56.9</ele>
        <time>2013-04-20T09:56:11Z</time>
      </trkpt>
      <trkpt lat="48.71756" lon="-3.45646">
        <ele>55.9</ele>
        <time>2013-04-20T09:56:13Z</time>
      </trkpt>
      <trkpt lat="48.71833" lon="-3.45722">
        <ele>52.5</ele>
        <time>2013-04-20T09:56:23Z</time>
      </trkpt>
      <trkpt lat="48.71849" lon="-3.45738">
        <ele>52.1</ele>
        <time>2013-04-20T09:56:25Z</time>
      </trkpt>
      <trkpt lat="48.71856" lon="-3.45746">
        <ele>51.6</ele>
        <time>2013-04-20T09:56:26Z</time>
      </trkpt>
      <trkpt lat="48.71915" lon="-3.45804">
        <ele>48.7</ele>
        <time>2013-04-20T09:56:34Z</time>
      </trkpt>
      <trkpt lat="48.71922" lon="-3.45813">
        <ele>48.7</ele>
        <time>2013-04-20T09:56:35Z</time>
      </trkpt>
      <trkpt lat="48.71928" lon="-3.45823">
        <ele>48.2</ele>
        <time>2013-04-20T09:56:36Z</time>
      </trkpt>
      <trkpt lat="48.71933" lon="-3.45834">
        <ele>47.7</ele>
        <time>2013-04-20T09:56:37Z</time>
      </trkpt>
      <trkpt lat="48.71937" lon="-3.45847">
        <ele>48.2</ele>
        <time>2013-04-20T09:56:38Z</time>
      </trkpt>
      <trkpt lat="48.71941" lon="-3.4586">
        <ele>47.7</ele>
        <time>2013-04-20T09:56:39Z</time>
      </trkpt>
      <trkpt lat="48.71944" lon="-3.45873">
        <ele>47.7</ele>
        <time>2013-04-20T09:56:40Z</time>
      </trkpt>
      <trkpt lat="48.71967" lon="-3.4596">
        <ele>44.4</ele>
        <time>2013-04-20T09:56:47Z</time>
      </trkpt>
      <trkpt lat="48.71977" lon="-3.45983">
        <ele>43.9</ele>
        <time>2013-04-20T09:56:49Z</time>
      </trkpt>
      <trkpt lat="48.71984" lon="-3.45992">
        <ele>43.9</ele>
        <time>2013-04-20T09:56:50Z</time>
      </trkpt>
      <trkpt lat="48.71991" lon="-3.46001">
        <ele>43.4</ele>
        <time>2013-04-20T09:56:51Z</time>
      </trkpt>
      <trkpt lat="48.71999" lon="-3.46008">
        <ele>42.4</ele>
        <time>2013-04-20T09:56:52Z</time>
      </trkpt>
      <trkpt lat="48.72007" lon="-3.46015">
        <ele>42.4</ele>
        <time>2013-04-20T09:56:53Z</time>
      </trkpt>
      <trkpt lat="48.72016" lon="-3.46021">
        <ele>42</ele>
        <time>2013-04-20T09:56:54Z</time>
      </trkpt>
      <trkpt lat="48.72025" lon="-3.46023">
        <ele>42</ele>
        <time>2013-04-20T09:56:55Z</time>
      </trkpt>
      <trkpt lat="48.72036" lon="-3.46023">
        <ele>41.5</ele>
        <time>2013-04-20T09:56:56Z</time>
      </trkpt>
      <trkpt lat="48.72046" lon="-3.46022">
        <ele>41</ele>
        <time>2013-04-20T09:56:57Z</time>
      </trkpt>
      <trkpt lat="48.72055" lon="-3.46021">
        <ele>41</ele>
        <time>2013-04-20T09:56:58Z</time>
      </trkpt>
      <trkpt lat="48.72065" lon="-3.46019">
        <ele>40.5</ele>
        <time>2013-04-20T09:56:59Z</time>
      </trkpt>
      <trkpt lat="48.72074" lon="-3.46015">
        <ele>40</ele>
        <time>2013-04-20T09:57:00Z</time>
      </trkpt>
      <trkpt lat="48.72082" lon="-3.46011">
        <ele>39.6</ele>
        <time>2013-04-20T09:57:01Z</time>
      </trkpt>
      <trkpt lat="48.7209" lon="-3.46006">
        <ele>39.6</ele>
        <time>2013-04-20T09:57:02Z</time>
      </trkpt>
      <trkpt lat="48.72098" lon="-3.46">
        <ele>40</ele>
        <time>2013-04-20T09:57:03Z</time>
      </trkpt>
      <trkpt lat="48.72149" lon="-3.4596">
        <ele>36.7</ele>
        <time>2013-04-20T09:57:10Z</time>
      </trkpt>
      <trkpt lat="48.72157" lon="-3.45957">
        <ele>36.7</ele>
        <time>2013-04-20T09:57:11Z</time>
      </trkpt>
      <trkpt lat="48.72165" lon="-3.45955">
        <ele>36.2</ele>
        <time>2013-04-20T09:57:12Z</time>
      </trkpt>
      <trkpt lat="48.72173" lon="-3.45955">
        <ele>35.7</ele>
        <time>2013-04-20T09:57:13Z</time>
      </trkpt>
      <trkpt lat="48.72181" lon="-3.45956">
        <ele>35.7</ele>
        <time>2013-04-20T09:57:14Z</time>
      </trkpt>
      <trkpt lat="48.72189" lon="-3.45958">
        <ele>35.2</ele>
        <time>2013-04-20T09:57:15Z</time>
      </trkpt>
      <trkpt lat="48.72197" lon="-3.45961">
        <ele>35.2</ele>
        <time>2013-04-20T09:57:16Z</time>
      </trkpt>
      <trkpt lat="48.72254" lon="-3.45988">
        <ele>32.8</ele>
        <time>2013-04-20T09:57:23Z</time>
      </trkpt>
      <trkpt lat="48.72339" lon="-3.4601">
        <ele>29.5</ele>
        <time>2013-04-20T09:57:33Z</time>
      </trkpt>
      <trkpt lat="48.72355" lon="-3.46008">
        <ele>29</ele>
        <time>2013-04-20T09:57:35Z</time>
      </trkpt>
      <trkpt lat="48.72417" lon="-3.45992">
        <ele>26.6</ele>
        <time>2013-04-20T09:57:43Z</time>
      </trkpt>
      <trkpt lat="48.72424" lon="-3.45994">
        <ele>26.6</ele>
        <time>2013-04-20T09:57:44Z</time>
      </trkpt>
      <trkpt lat="48.72431" lon="-3.45996">
        <ele>25.6</ele>
        <time>2013-04-20T09:57:45Z</time>
      </trkpt>
      <trkpt lat="48.72513" lon="-3.46029">
        <ele>22.3</ele>
        <time>2013-04-20T09:57:56Z</time>
      </trkpt>
      <trkpt lat="48.7259" lon="-3.46031">
        <ele>18.9</ele>
        <time>2013-04-20T09:58:06Z</time>
      </trkpt>
      <trkpt lat="48.72662" lon="-3.46013">
        <ele>16</ele>
        <time>2013-04-20T09:58:15Z</time>
      </trkpt>
      <trkpt lat="48.72701" lon="-3.46001">
        <ele>14.1</ele>
        <time>2013-04-20T09:58:20Z</time>
      </trkpt>
      <trkpt lat="48.72725" lon="-3.45994">
        <ele>12.6</ele>
        <time>2013-04-20T09:58:23Z</time>
      </trkpt>
      <trkpt lat="48.72766" lon="-3.45981">
        <ele>9.3</ele>
        <time>2013-04-20T09:58:30Z</time>
      </trkpt>
      <trkpt lat="48.72776" lon="-3.45971">
        <ele>9.3</ele>
        <time>2013-04-20T09:58:35Z</time>
      </trkpt>
      <trkpt lat="48.72779" lon="-3.4597">
        <ele>9.8</ele>
        <time>2013-04-20T09:58:36Z</time>
      </trkpt>
      <trkpt lat="48.72782" lon="-3.4597">
        <ele>10.2</ele>
        <time>2013-04-20T09:58:37Z</time>
      </trkpt>
      <trkpt lat="48.72786" lon="-3.45971">
        <ele>10.2</ele>
        <time>2013-04-20T09:58:38Z</time>
      </trkpt>
      <trkpt lat="48.7279" lon="-3.45971">
        <ele>10.2</ele>
        <time>2013-04-20T09:58:39Z</time>
      </trkpt>
      <trkpt lat="48.72795" lon="-3.45969">
        <ele>10.2</ele>
        <time>2013-04-20T09:58:40Z</time>
      </trkpt>
      <trkpt lat="48.728" lon="-3.45968">
        <ele>10.7</ele>
        <time>2013-04-20T09:58:41Z</time>
      </trkpt>
      <trkpt lat="48.72843" lon="-3.45956">
        <ele>10.2</ele>
        <time>2013-04-20T09:58:49Z</time>
      </trkpt>
      <trkpt lat="48.72864" lon="-3.45949">
        <ele>10.7</ele>
        <time>2013-04-20T09:58:53Z</time>
      </trkpt>
      <trkpt lat="48.72869" lon="-3.45949">
        <ele>10.2</ele>
        <time>2013-04-20T09:58:54Z</time>
      </trkpt>
      <trkpt lat="48.72874" lon="-3.45951">
        <ele>10.2</ele>
        <time>2013-04-20T09:58:55Z</time>
      </trkpt>
      <trkpt lat="48.72878" lon="-3.45955">
        <ele>10.7</ele>
        <time>2013-04-20T09:58:56Z</time>
      </trkpt>
      <trkpt lat="48.72881" lon="-3.4596">
        <ele>10.2</ele>
        <time>2013-04-20T09:58:57Z</time>
      </trkpt>
      <trkpt lat="48.72885" lon="-3.45966">
        <ele>10.7</ele>
        <time>2013-04-20T09:58:58Z</time>
      </trkpt>
      <trkpt lat="48.72898" lon="-3.45986">
        <ele>10.7</ele>
        <time>2013-04-20T09:59:02Z</time>
      </trkpt>
      <trkpt lat="48.72902" lon="-3.45989">
        <ele>10.7</ele>
        <time>2013-04-20T09:59:03Z</time>
      </trkpt>
      <trkpt lat="48.72906" lon="-3.45991">
        <ele>10.7</ele>
        <time>2013-04-20T09:59:04Z</time>
      </trkpt>
      <trkpt lat="48.72911" lon="-3.45995">
        <ele>10.7</ele>
        <time>2013-04-20T09:59:05Z</time>
      </trkpt>
      <trkpt lat="48.72915" lon="-3.45999">
        <ele>11.7</ele>
        <time>2013-04-20T09:59:06Z</time>
      </trkpt>
      <trkpt lat="48.7292" lon="-3.46002">
        <ele>10.7</ele>
        <time>2013-04-20T09:59:07Z</time>
      </trkpt>
      <trkpt lat="48.72975" lon="-3.46031">
        <ele>8.8</ele>
        <time>2013-04-20T09:59:19Z</time>
      </trkpt>
      <trkpt lat="48.72977" lon="-3.46032">
        <ele>9.3</ele>
        <time>2013-04-20T09:59:20Z</time>
      </trkpt>
      <trkpt lat="48.72979" lon="-3.46033">
        <ele>9.3</ele>
        <time>2013-04-20T09:59:21Z</time>
      </trkpt>
      <trkpt lat="48.7299" lon="-3.46033">
        <ele>9.8</ele>
        <time>2013-04-20T09:59:24Z</time>
      </trkpt>
      <trkpt lat="48.72994" lon="-3.46032">
        <ele>9.8</ele>
        <time>2013-04-20T09:59:25Z</time>
      </trkpt>
      <trkpt lat="48.73039" lon="-3.46019">
        <ele>10.2</ele>
        <time>2013-04-20T09:59:34Z</time>
      </trkpt>
      <trkpt lat="48.73043" lon="-3.46016">
        <ele>10.2</ele>
        <time>2013-04-20T09:59:35Z</time>
      </trkpt>
      <trkpt lat="48.73047" lon="-3.46012">
        <ele>10.2</ele>
        <time>2013-04-20T09:59:36Z</time>
      </trkpt>
      <trkpt lat="48.7307" lon="-3.45983">
        <ele>10.7</ele>
        <time>2013-04-20T09:59:43Z</time>
      </trkpt>
      <trkpt lat="48.73074" lon="-3.45981">
        <ele>10.7</ele>
        <time>2013-04-20T09:59:44Z</time>
      </trkpt>
      <trkpt lat="48.73078" lon="-3.4598">
        <ele>10.7</ele>
        <time>2013-04-20T09:59:45Z</time>
      </trkpt>
      <trkpt lat="48.73091" lon="-3.45981">
        <ele>9.8</ele>
        <time>2013-04-20T09:59:48Z</time>
      </trkpt>
      <trkpt lat="48.73095" lon="-3.45983">
        <ele>9.3</ele>
        <time>2013-04-20T09:59:49Z</time>
      </trkpt>
      <trkpt lat="48.73099" lon="-3.45987">
        <ele>9.3</ele>
        <time>2013-04-20T09:59:50Z</time>
      </trkpt>
      <trkpt lat="48.73131" lon="-3.46026">
        <ele>8.8</ele>
        <time>2013-04-20T09:59:58Z</time>
      </trkpt>
      <trkpt lat="48.73186" lon="-3.461">
        <ele>9.3</ele>
        <time>2013-04-20T10:00:12Z</time>
      </trkpt>
      <trkpt lat="48.7319" lon="-3.46104">
        <ele>9.3</ele>
        <time>2013-04-20T10:00:13Z</time>
      </trkpt>
      <trkpt lat="48.73193" lon="-3.46109">
        <ele>9.3</ele>
        <time>2013-04-20T10:00:14Z</time>
      </trkpt>
      <trkpt lat="48.73228" lon="-3.46157">
        <ele>9.8</ele>
        <time>2013-04-20T10:00:26Z</time>
      </trkpt>
      <trkpt lat="48.73232" lon="-3.46158">
        <ele>9.8</ele>
        <time>2013-04-20T10:00:29Z</time>
      </trkpt>
      <trkpt lat="48.73234" lon="-3.46157">
        <ele>10.2</ele>
        <time>2013-04-20T10:00:30Z</time>
      </trkpt>
      <trkpt lat="48.73236" lon="-3.46155">
        <ele>10.2</ele>
        <time>2013-04-20T10:00:31Z</time>
      </trkpt>
      <trkpt lat="48.73237" lon="-3.46151">
        <ele>10.7</ele>
        <time>2013-04-20T10:00:32Z</time>
      </trkpt>
      <trkpt lat="48.73239" lon="-3.46146">
        <ele>11.2</ele>
        <time>2013-04-20T10:00:33Z</time>
      </trkpt>
      <trkpt lat="48.73243" lon="-3.4613">
        <ele>11.7</ele>
        <time>2013-04-20T10:00:36Z</time>
      </trkpt>
      <trkpt lat="48.73252" lon="-3.46097">
        <ele>13.6</ele>
        <time>2013-04-20T10:00:42Z</time>
      </trkpt>
      <trkpt lat="48.73265" lon="-3.46064">
        <ele>15</ele>
        <time>2013-04-20T10:00:48Z</time>
      </trkpt>
      <trkpt lat="48.73269" lon="-3.46053">
        <ele>15.5</ele>
        <time>2013-04-20T10:00:50Z</time>
      </trkpt>
      <trkpt lat="48.73271" lon="-3.46047">
        <ele>15.5</ele>
        <time>2013-04-20T10:00:51Z</time>
      </trkpt>
      <trkpt lat="48.73279" lon="-3.4601">
        <ele>17</ele>
        <time>2013-04-20T10:00:59Z</time>
      </trkpt>
      <trkpt lat="48.7328" lon="-3.46007">
        <ele>17.4</ele>
        <time>2013-04-20T10:01:00Z</time>
      </trkpt>
      <trkpt lat="48.73281" lon="-3.46004">
        <ele>17.4</ele>
        <time>2013-04-20T10:01:01Z</time>
      </trkpt>
      <trkpt lat="48.73286" lon="-3.45991">
        <ele>19.4</ele>
        <time>2013-04-20T10:01:06Z</time>
      </trkpt>
      <trkpt lat="48.73317" lon="-3.45954">
        <ele>17.4</ele>
        <time>2013-04-20T10:01:16Z</time>
      </trkpt>
      <trkpt lat="48.73323" lon="-3.45951">
        <ele>16.5</ele>
        <time>2013-04-20T10:01:17Z</time>
      </trkpt>
      <trkpt lat="48.73392" lon="-3.45924">
        <ele>14.1</ele>
        <time>2013-04-20T10:01:26Z</time>
      </trkpt>
      <trkpt lat="48.73442" lon="-3.45898">
        <ele>13.6</ele>
        <time>2013-04-20T10:01:34Z</time>
      </trkpt>
      <trkpt lat="48.73447" lon="-3.45893">
        <ele>14.6</ele>
        <time>2013-04-20T10:01:35Z</time>
      </trkpt>
      <trkpt lat="48.7345" lon="-3.45887">
        <ele>14.6</ele>
        <time>2013-04-20T10:01:36Z</time>
      </trkpt>
      <trkpt lat="48.73458" lon="-3.45865">
        <ele>15</ele>
        <time>2013-04-20T10:01:39Z</time>
      </trkpt>
      <trkpt lat="48.73459" lon="-3.45857">
        <ele>15</ele>
        <time>2013-04-20T10:01:40Z</time>
      </trkpt>
      <trkpt lat="48.7346" lon="-3.45849">
        <ele>15</ele>
        <time>2013-04-20T10:01:41Z</time>
      </trkpt>
      <trkpt lat="48.73461" lon="-3.45819">
        <ele>15</ele>
        <time>2013-04-20T10:01:45Z</time>
      </trkpt>
      <trkpt lat="48.7346" lon="-3.45812">
        <ele>15.5</ele>
        <time>2013-04-20T10:01:46Z</time>
      </trkpt>
      <trkpt lat="48.73459" lon="-3.45804">
        <ele>16</ele>
        <time>2013-04-20T10:01:47Z</time>
      </trkpt>
      <trkpt lat="48.73458" lon="-3.45798">
        <ele>16</ele>
        <time>2013-04-20T10:01:48Z</time>
      </trkpt>
      <trkpt lat="48.73456" lon="-3.45791">
        <ele>16</ele>
        <time>2013-04-20T10:01:49Z</time>
      </trkpt>
      <trkpt lat="48.73453" lon="-3.45785">
        <ele>16</ele>
        <time>2013-04-20T10:01:50Z</time>
      </trkpt>
      <trkpt lat="48.7345" lon="-3.45778">
        <ele>15.5</ele>
        <time>2013-04-20T10:01:51Z</time>
      </trkpt>
      <trkpt lat="48.73433" lon="-3.4574">
        <ele>15.5</ele>
        <time>2013-04-20T10:01:57Z</time>
      </trkpt>
      <trkpt lat="48.73432" lon="-3.45733">
        <ele>15.5</ele>
        <time>2013-04-20T10:01:58Z</time>
      </trkpt>
      <trkpt lat="48.7343" lon="-3.45726">
        <ele>15.5</ele>
        <time>2013-04-20T10:01:59Z</time>
      </trkpt>
      <trkpt lat="48.7343" lon="-3.45719">
        <ele>15.5</ele>
        <time>2013-04-20T10:02:00Z</time>
      </trkpt>
      <trkpt lat="48.73431" lon="-3.45713">
        <ele>15.5</ele>
        <time>2013-04-20T10:02:01Z</time>
      </trkpt>
      <trkpt lat="48.73431" lon="-3.4571">
        <ele>15.5</ele>
        <time>2013-04-20T10:02:02Z</time>
      </trkpt>
      <trkpt lat="48.73434" lon="-3.45702">
        <ele>15.5</ele>
        <time>2013-04-20T10:02:03Z</time>
      </trkpt>
      <trkpt lat="48.7344" lon="-3.4569">
        <ele>15.5</ele>
        <time>2013-04-20T10:02:05Z</time>
      </trkpt>
      <trkpt lat="48.73444" lon="-3.45684">
        <ele>15.5</ele>
        <time>2013-04-20T10:02:06Z</time>
      </trkpt>
      <trkpt lat="48.73448" lon="-3.45679">
        <ele>15.5</ele>
        <time>2013-04-20T10:02:07Z</time>
      </trkpt>
      <trkpt lat="48.73463" lon="-3.45653">
        <ele>15</ele>
        <time>2013-04-20T10:02:11Z</time>
      </trkpt>
      <trkpt lat="48.73467" lon="-3.45645">
        <ele>15.5</ele>
        <time>2013-04-20T10:02:12Z</time>
      </trkpt>
      <trkpt lat="48.7347" lon="-3.45637">
        <ele>15</ele>
        <time>2013-04-20T10:02:13Z</time>
      </trkpt>
      <trkpt lat="48.73479" lon="-3.45607">
        <ele>15</ele>
        <time>2013-04-20T10:02:17Z</time>
      </trkpt>
      <trkpt lat="48.73481" lon="-3.45601">
        <ele>15</ele>
        <time>2013-04-20T10:02:18Z</time>
      </trkpt>
      <trkpt lat="48.73505" lon="-3.45531">
        <ele>16.5</ele>
        <time>2013-04-20T10:02:31Z</time>
      </trkpt>
      <trkpt lat="48.73509" lon="-3.45528">
        <ele>16.5</ele>
        <time>2013-04-20T10:02:32Z</time>
      </trkpt>
      <trkpt lat="48.73513" lon="-3.45527">
        <ele>17</ele>
        <time>2013-04-20T10:02:33Z</time>
      </trkpt>
      <trkpt lat="48.73544" lon="-3.45523">
        <ele>17</ele>
        <time>2013-04-20T10:02:40Z</time>
      </trkpt>
      <trkpt lat="48.73561" lon="-3.45517">
        <ele>17.9</ele>
        <time>2013-04-20T10:02:44Z</time>
      </trkpt>
      <trkpt lat="48.73613" lon="-3.45498">
        <ele>20.8</ele>
        <time>2013-04-20T10:02:57Z</time>
      </trkpt>
      <trkpt lat="48.73658" lon="-3.45511">
        <ele>23.2</ele>
        <time>2013-04-20T10:03:10Z</time>
      </trkpt>
      <trkpt lat="48.73703" lon="-3.45514">
        <ele>26.6</ele>
        <time>2013-04-20T10:03:24Z</time>
      </trkpt>
      <trkpt lat="48.73751" lon="-3.455">
        <ele>29</ele>
        <time>2013-04-20T10:03:38Z</time>
      </trkpt>
      <trkpt lat="48.73799" lon="-3.45489">
        <ele>31.9</ele>
        <time>2013-04-20T10:03:53Z</time>
      </trkpt>
      <trkpt lat="48.73856" lon="-3.45486">
        <ele>34.3</ele>
        <time>2013-04-20T10:04:10Z</time>
      </trkpt>
      <trkpt lat="48.73899" lon="-3.45487">
        <ele>36.2</ele>
        <time>2013-04-20T10:04:25Z</time>
      </trkpt>
      <trkpt lat="48.7395" lon="-3.45515">
        <ele>38.6</ele>
        <time>2013-04-20T10:04:42Z</time>
      </trkpt>
      <trkpt lat="48.73996" lon="-3.45536">
        <ele>40.5</ele>
        <time>2013-04-20T10:04:56Z</time>
      </trkpt>
      <trkpt lat="48.74043" lon="-3.45543">
        <ele>42.9</ele>
        <time>2013-04-20T10:05:11Z</time>
      </trkpt>
      <trkpt lat="48.74085" lon="-3.45563">
        <ele>45.3</ele>
        <time>2013-04-20T10:05:25Z</time>
      </trkpt>
      <trkpt lat="48.74132" lon="-3.45577">
        <ele>47.7</ele>
        <time>2013-04-20T10:05:38Z</time>
      </trkpt>
      <trkpt lat="48.7419" lon="-3.45574">
        <ele>50.6</ele>
        <time>2013-04-20T10:05:54Z</time>
      </trkpt>
      <trkpt lat="48.7425" lon="-3.45564">
        <ele>53.5</ele>
        <time>2013-04-20T10:06:11Z</time>
      </trkpt>
      <trkpt lat="48.74293" lon="-3.4554">
        <ele>56.4</ele>
        <time>2013-04-20T10:06:25Z</time>
      </trkpt>
      <trkpt lat="48.7433" lon="-3.4551">
        <ele>58.3</ele>
        <time>2013-04-20T10:06:37Z</time>
      </trkpt>
      <trkpt lat="48.74372" lon="-3.45477">
        <ele>61.7</ele>
        <time>2013-04-20T10:06:52Z</time>
      </trkpt>
      <trkpt lat="48.74399" lon="-3.45434">
        <ele>63.1</ele>
        <time>2013-04-20T10:07:05Z</time>
      </trkpt>
      <trkpt lat="48.74404" lon="-3.45379">
        <ele>65</ele>
        <time>2013-04-20T10:07:17Z</time>
      </trkpt>
      <trkpt lat="48.744" lon="-3.45317">
        <ele>67</ele>
        <time>2013-04-20T10:07:32Z</time>
      </trkpt>
      <trkpt lat="48.74398" lon="-3.45275">
        <ele>68.9</ele>
        <time>2013-04-20T10:07:49Z</time>
      </trkpt>
      <trkpt lat="48.74398" lon="-3.45271">
        <ele>68.4</ele>
        <time>2013-04-20T10:08:01Z</time>
      </trkpt>
      <trkpt lat="48.744" lon="-3.45263">
        <ele>68.9</ele>
        <time>2013-04-20T10:08:04Z</time>
      </trkpt>
      <trkpt lat="48.74401" lon="-3.4526">
        <ele>68.9</ele>
        <time>2013-04-20T10:08:05Z</time>
      </trkpt>
      <trkpt lat="48.74404" lon="-3.45257">
        <ele>68.9</ele>
        <time>2013-04-20T10:08:06Z</time>
      </trkpt>
      <trkpt lat="48.74408" lon="-3.45255">
        <ele>68.9</ele>
        <time>2013-04-20T10:08:07Z</time>
      </trkpt>
      <trkpt lat="48.74411" lon="-3.45255">
        <ele>68.9</ele>
        <time>2013-04-20T10:08:08Z</time>
      </trkpt>
      <trkpt lat="48.74415" lon="-3.45257">
        <ele>68.9</ele>
        <time>2013-04-20T10:08:09Z</time>
      </trkpt>
      <trkpt lat="48.74418" lon="-3.45259">
        <ele>69.4</ele>
        <time>2013-04-20T10:08:10Z</time>
      </trkpt>
      <trkpt lat="48.74433" lon="-3.4527">
        <ele>68.4</ele>
        <time>2013-04-20T10:08:14Z</time>
      </trkpt>
      <trkpt lat="48.74483" lon="-3.45329">
        <ele>65</ele>
        <time>2013-04-20T10:08:23Z</time>
      </trkpt>
      <trkpt lat="48.7449" lon="-3.45337">
        <ele>65</ele>
        <time>2013-04-20T10:08:24Z</time>
      </trkpt>
      <trkpt lat="48.74512" lon="-3.45363">
        <ele>62.1</ele>
        <time>2013-04-20T10:08:27Z</time>
      </trkpt>
      <trkpt lat="48.74538" lon="-3.45402">
        <ele>60.2</ele>
        <time>2013-04-20T10:08:31Z</time>
      </trkpt>
      <trkpt lat="48.74583" lon="-3.45489">
        <ele>61.7</ele>
        <time>2013-04-20T10:08:41Z</time>
      </trkpt>
      <trkpt lat="48.7459" lon="-3.45501">
        <ele>62.1</ele>
        <time>2013-04-20T10:08:43Z</time>
      </trkpt>
      <trkpt lat="48.74594" lon="-3.45507">
        <ele>62.6</ele>
        <time>2013-04-20T10:08:44Z</time>
      </trkpt>
      <trkpt lat="48.74597" lon="-3.4551">
        <ele>62.6</ele>
        <time>2013-04-20T10:08:45Z</time>
      </trkpt>
      <trkpt lat="48.746" lon="-3.45513">
        <ele>63.1</ele>
        <time>2013-04-20T10:08:46Z</time>
      </trkpt>
      <trkpt lat="48.74602" lon="-3.45516">
        <ele>64.1</ele>
        <time>2013-04-20T10:08:47Z</time>
      </trkpt>
      <trkpt lat="48.74606" lon="-3.45518">
        <ele>63.6</ele>
        <time>2013-04-20T10:08:48Z</time>
      </trkpt>
      <trkpt lat="48.7461" lon="-3.45519">
        <ele>63.6</ele>
        <time>2013-04-20T10:08:49Z</time>
      </trkpt>
      <trkpt lat="48.74614" lon="-3.45519">
        <ele>63.6</ele>
        <time>2013-04-20T10:08:50Z</time>
      </trkpt>
      <trkpt lat="48.74618" lon="-3.45517">
        <ele>64.1</ele>
        <time>2013-04-20T10:08:51Z</time>
      </trkpt>
      <trkpt lat="48.74621" lon="-3.45514">
        <ele>64.6</ele>
        <time>2013-04-20T10:08:52Z</time>
      </trkpt>
      <trkpt lat="48.74621" lon="-3.45506">
        <ele>64.6</ele>
        <time>2013-04-20T10:08:53Z</time>
      </trkpt>
      <trkpt lat="48.7462" lon="-3.45496">
        <ele>65</ele>
        <time>2013-04-20T10:08:54Z</time>
      </trkpt>
      <trkpt lat="48.74626" lon="-3.4547">
        <ele>67</ele>
        <time>2013-04-20T10:08:59Z</time>
      </trkpt>
      <trkpt lat="48.74629" lon="-3.45469">
        <ele>67.4</ele>
        <time>2013-04-20T10:09:00Z</time>
      </trkpt>
      <trkpt lat="48.74633" lon="-3.4547">
        <ele>67.9</ele>
        <time>2013-04-20T10:09:01Z</time>
      </trkpt>
      <trkpt lat="48.74635" lon="-3.45472">
        <ele>68.4</ele>
        <time>2013-04-20T10:09:02Z</time>
      </trkpt>
      <trkpt lat="48.74637" lon="-3.45474">
        <ele>68.4</ele>
        <time>2013-04-20T10:09:03Z</time>
      </trkpt>
      <trkpt lat="48.74639" lon="-3.45477">
        <ele>68.9</ele>
        <time>2013-04-20T10:09:04Z</time>
      </trkpt>
      <trkpt lat="48.74642" lon="-3.4548">
        <ele>69.8</ele>
        <time>2013-04-20T10:09:05Z</time>
      </trkpt>
      <trkpt lat="48.74645" lon="-3.45483">
        <ele>69.8</ele>
        <time>2013-04-20T10:09:06Z</time>
      </trkpt>
      <trkpt lat="48.74669" lon="-3.45507">
        <ele>70.8</ele>
        <time>2013-04-20T10:09:18Z</time>
      </trkpt>
      <trkpt lat="48.74691" lon="-3.45515">
        <ele>71.3</ele>
        <time>2013-04-20T10:09:30Z</time>
      </trkpt>
      <trkpt lat="48.74693" lon="-3.45514">
        <ele>72.2</ele>
        <time>2013-04-20T10:09:31Z</time>
      </trkpt>
      <trkpt lat="48.74693" lon="-3.45512">
        <ele>71.8</ele>
        <time>2013-04-20T10:09:32Z</time>
      </trkpt>
      <trkpt lat="48.74694" lon="-3.45511">
        <ele>72.2</ele>
        <time>2013-04-20T10:09:33Z</time>
      </trkpt>
      <trkpt lat="48.74695" lon="-3.45509">
        <ele>72.2</ele>
        <time>2013-04-20T10:09:34Z</time>
      </trkpt>
      <trkpt lat="48.74695" lon="-3.45501">
        <ele>72.7</ele>
        <time>2013-04-20T10:09:38Z</time>
      </trkpt>
      <trkpt lat="48.74695" lon="-3.455">
        <ele>72.2</ele>
        <time>2013-04-20T10:09:50Z</time>
      </trkpt>
      <trkpt lat="48.74696" lon="-3.455">
        <ele>72.2</ele>
        <time>2013-04-20T10:10:11Z</time>
      </trkpt>
      <trkpt lat="48.74697" lon="-3.45502">
        <ele>72.2</ele>
        <time>2013-04-20T10:10:33Z</time>
      </trkpt>
      <trkpt lat="48.747" lon="-3.45512">
        <ele>72.2</ele>
        <time>2013-04-20T10:10:53Z</time>
      </trkpt>
      <trkpt lat="48.747" lon="-3.45504">
        <ele>72.7</ele>
        <time>2013-04-20T10:11:07Z</time>
      </trkpt>
      <trkpt lat="48.74699" lon="-3.45502">
        <ele>73.7</ele>
        <time>2013-04-20T10:11:08Z</time>
      </trkpt>
      <trkpt lat="48.74682" lon="-3.455">
        <ele>72.7</ele>
        <time>2013-04-20T10:11:27Z</time>
      </trkpt>
      <trkpt lat="48.7468" lon="-3.45505">
        <ele>72.7</ele>
        <time>2013-04-20T10:11:48Z</time>
      </trkpt>
      <trkpt lat="48.74688" lon="-3.45492">
        <ele>73.2</ele>
        <time>2013-04-20T10:12:08Z</time>
      </trkpt>
      <trkpt lat="48.74694" lon="-3.45494">
        <ele>73.2</ele>
        <time>2013-04-20T10:12:26Z</time>
      </trkpt>
      <trkpt lat="48.74677" lon="-3.45489">
        <ele>73.7</ele>
        <time>2013-04-20T10:12:44Z</time>
      </trkpt>
      <trkpt lat="48.74656" lon="-3.4548">
        <ele>73.2</ele>
        <time>2013-04-20T10:13:01Z</time>
      </trkpt>
      <trkpt lat="48.74699" lon="-3.45493">
        <ele>73.2</ele>
        <time>2013-04-20T10:13:16Z</time>
      </trkpt>
      <trkpt lat="48.74704" lon="-3.45496">
        <ele>73.7</ele>
        <time>2013-04-20T10:13:34Z</time>
      </trkpt>
      <trkpt lat="48.74688" lon="-3.45504">
        <ele>73.7</ele>
        <time>2013-04-20T10:13:53Z</time>
      </trkpt>
      <trkpt lat="48.74684" lon="-3.45507">
        <ele>73.7</ele>
        <time>2013-04-20T10:14:14Z</time>
      </trkpt>
      <trkpt lat="48.74684" lon="-3.45496">
        <ele>73.2</ele>
        <time>2013-04-20T10:14:37Z</time>
      </trkpt>
      <trkpt lat="48.74685" lon="-3.45492">
        <ele>73.2</ele>
        <time>2013-04-20T10:15:05Z</time>
      </trkpt>
      <trkpt lat="48.74688" lon="-3.45494">
        <ele>74.2</ele>
        <time>2013-04-20T10:15:33Z</time>
      </trkpt>
      <trkpt lat="48.74695" lon="-3.45497">
        <ele>74.2</ele>
        <time>2013-04-20T10:15:54Z</time>
      </trkpt>
    </trkseg>
  </trk>
</gpx>